Time,TemperatureF,DewpointF,PressureIn,WindDirection,WindDirectionDegrees,WindSpeedMPH,WindSpeedGustMPH,Humidity,HourlyPrecipIn,Conditions,Clouds,dailyrainin,SoftwareType,DateUTC
2013-11-17 00:00:00,62.7,62.7,30.16,North,355,2.0,3.0,100,0.00,,,0.00,VWS V14.01,2013-11-17 05:00:00,
2013-11-17 00:01:00,62.7,62.7,30.15,North,355,1.0,2.0,100,0.00,,,0.00,VWS V14.01,2013-11-17 05:01:00,
2013-11-17 00:02:00,62.7,62.7,30.15,North,355,3.0,3.0,100,0.00,,OVC009,0.00,VWS V14.01,2013-11-17 05:02:00,
2013-11-17 00:03:00,62.7,62.7,30.15,North,355,3.0,3.0,100,0.00,,OVC009,0.00,VWS V14.01,2013-11-17 05:03:00,
2013-11-17 00:04:00,62.7,62.7,30.11,NNW,342,2.0,4.0,100,0.00,,OVC009,0.00,VWS V14.01,2013-11-17 05:04:00,
2013-11-17 00:05:00,62.7,62.7,30.11,NNW,342,2.0,2.0,100,0.00,,OVC009,0.00,VWS V14.01,2013-11-17 05:05:00,
2013-11-17 00:06:00,62.7,62.7,30.11,NNW,343,1.0,2.0,100,0.00,,,0.00,VWS V14.01,2013-11-17 05:06:00,
2013-11-17 00:07:00,62.7,62.7,30.11,NNW,343,2.0,2.0,100,0.00,,OVC009,0.00,VWS V14.01,2013-11-17 05:07:00,
2013-11-17 00:08:00,62.6,62.6,30.11,NNW,343,2.0,2.0,100,0.00,,OVC009,0.00,VWS V14.01,2013-11-17 05:08:00,
2013-11-17 00:09:00,62.6,62.6,30.11,NNW,343,1.0,2.0,100,0.00,,OVC009,0.00,VWS V14.01,2013-11-17 05:09:00,
2013-11-17 00:10:00,62.6,62.6,30.11,North,10,2.0,4.0,100,0.00,,OVC009,0.00,VWS V14.01,2013-11-17 05:10:00,
2013-11-17 00:11:00,62.6,62.6,30.00,North,10,2.0,3.0,100,0.00,,,0.00,VWS V14.01,2013-11-17 05:11:00,
2013-11-17 00:12:00,62.6,62.6,30.00,North,10,3.0,3.0,100,0.00,,OVC009,0.00,VWS V14.01,2013-11-17 05:12:00,
2013-11-17 00:13:00,62.7,62.7,30.00,North,9,2.0,3.0,100,0.00,,OVC009,0.00,VWS V14.01,2013-11-17 05:13:00,
2013-11-17 00:14:00,62.7,62.7,30.07,North,9,2.0,3.0,100,0.00,,OVC009,0.00,VWS V14.01,2013-11-17 05:14:00,
2013-11-17 00:15:00,62.7,62.7,30.07,North,9,3.0,3.0,100,0.00,,OVC009,0.00,VWS V14.01,2013-11-17 05:15:00,
2013-11-17 00:16:00,62.9,62.9,30.11,North,9,2.0,2.0,100,0.00,,,0.00,VWS V14.01,2013-11-17 05:16:00,
2013-11-17 00:17:00,62.9,62.9,30.11,North,9,2.0,2.0,100,0.00,,OVC009,0.00,VWS V14.01,2013-11-17 05:17:00,
2013-11-17 00:18:00,62.9,62.9,30.11,North,9,3.0,3.0,100,0.00,,OVC009,0.00,VWS V14.01,2013-11-17 05:18:00,
2013-11-17 00:19:00,62.9,62.9,30.15,North,9,2.0,3.0,100,0.00,,OVC009,0.00,VWS V14.01,2013-11-17 05:19:00,
2013-11-17 00:20:00,62.9,62.9,30.15,North,11,2.0,2.0,100,0.00,,OVC009,0.00,VWS V14.01,2013-11-17 05:20:00,
2013-11-17 00:21:00,63.1,63.1,30.14,North,11,2.0,3.0,100,0.00,,,0.00,VWS V14.01,2013-11-17 05:21:00,
2013-11-17 00:22:00,63.1,63.1,30.14,North,11,2.0,3.0,100,0.00,,OVC009,0.00,VWS V14.01,2013-11-17 05:22:00,
2013-11-17 00:23:00,63.1,63.1,30.14,North,11,2.0,4.0,100,0.00,,OVC009,0.00,VWS V14.01,2013-11-17 05:23:00,
2013-11-17 00:24:00,63.1,63.1,30.14,NNE,15,3.0,3.0,100,0.00,,OVC009,0.00,VWS V14.01,2013-11-17 05:24:00,
2013-11-17 00:25:00,63.1,63.1,30.08,NNE,22,1.0,3.0,100,0.00,,OVC009,0.00,VWS V14.01,2013-11-17 05:25:00,
2013-11-17 00:26:00,63.2,63.2,30.08,NNE,14,3.0,4.0,100,0.00,,,0.00,VWS V14.01,2013-11-17 05:26:00,
2013-11-17 00:27:00,63.2,63.2,30.08,NNE,14,3.0,4.0,100,0.00,,OVC009,0.00,VWS V14.01,2013-11-17 05:27:00,
2013-11-17 00:28:00,63.2,63.2,30.08,NE,39,3.0,3.0,100,0.00,,OVC009,0.00,VWS V14.01,2013-11-17 05:28:00,
2013-11-17 00:29:00,63.2,63.2,30.09,NE,38,2.0,3.0,100,0.00,,OVC009,0.00,VWS V14.01,2013-11-17 05:29:00,
2013-11-17 00:30:00,63.2,63.2,30.10,NE,38,2.0,3.0,100,0.00,,OVC009,0.00,VWS V14.01,2013-11-17 05:30:00,
2013-11-17 00:31:00,63.4,63.4,30.10,North,5,3.0,5.0,100,0.00,,,0.00,VWS V14.01,2013-11-17 05:31:00,
2013-11-17 00:32:00,63.4,63.4,30.10,NE,36,4.0,5.0,100,0.00,,OVC009,0.00,VWS V14.01,2013-11-17 05:32:00,
2013-11-17 00:33:00,63.4,63.4,30.10,North,5,1.0,4.0,100,0.00,,OVC009,0.00,VWS V14.01,2013-11-17 05:33:00,
2013-11-17 00:34:00,63.5,63.5,30.10,NE,40,5.0,5.0,100,0.00,,OVC009,0.00,VWS V14.01,2013-11-17 05:34:00,
2013-11-17 00:35:00,63.5,63.5,30.10,NNE,15,4.0,5.0,100,0.00,,OVC009,0.00,VWS V14.01,2013-11-17 05:35:00,
2013-11-17 00:36:00,63.7,63.7,30.06,NNE,15,2.0,3.0,100,0.00,,,0.00,VWS V14.01,2013-11-17 05:36:00,
2013-11-17 00:37:00,63.7,63.7,30.06,NNE,15,2.0,3.0,100,0.00,,OVC009,0.00,VWS V14.01,2013-11-17 05:37:00,
2013-11-17 00:38:00,63.9,63.9,30.06,North,5,3.0,3.0,100,0.00,,OVC009,0.00,VWS V14.01,2013-11-17 05:38:00,
2013-11-17 00:39:00,63.9,63.9,30.06,NE,47,3.0,5.0,100,0.00,,OVC009,0.00,VWS V14.01,2013-11-17 05:39:00,
2013-11-17 00:40:00,64.0,64.0,30.06,North,355,2.0,5.0,100,0.00,,OVC009,0.00,VWS V14.01,2013-11-17 05:40:00,
2013-11-17 00:41:00,64.0,64.0,30.06,North,355,3.0,3.0,100,0.00,,,0.00,VWS V14.01,2013-11-17 05:41:00,
2013-11-17 00:42:00,64.0,64.0,30.06,NNE,23,4.0,4.0,100,0.00,,OVC009,0.00,VWS V14.01,2013-11-17 05:42:00,
2013-11-17 00:43:00,64.2,64.2,30.06,NE,36,2.0,4.0,100,0.00,,OVC009,0.00,VWS V14.01,2013-11-17 05:43:00,
2013-11-17 00:44:00,64.2,64.2,30.06,NE,44,2.0,4.0,100,0.00,,OVC009,0.00,VWS V14.01,2013-11-17 05:44:00,
2013-11-17 00:45:00,64.2,64.2,30.06,NE,36,3.0,6.0,100,0.00,,OVC009,0.00,VWS V14.01,2013-11-17 05:45:00,
2013-11-17 00:46:00,64.3,64.3,30.06,NE,42,2.0,6.0,100,0.00,,,0.00,VWS V14.01,2013-11-17 05:46:00,
2013-11-17 00:47:00,64.3,64.3,30.06,NE,47,5.0,6.0,100,0.00,,OVC009,0.00,VWS V14.01,2013-11-17 05:47:00,
2013-11-17 00:48:00,64.3,64.3,30.06,North,5,6.0,6.0,100,0.00,,OVC009,0.00,VWS V14.01,2013-11-17 05:48:00,
2013-11-17 00:49:00,64.3,64.3,30.09,NNE,31,3.0,6.0,100,0.00,,OVC009,0.00,VWS V14.01,2013-11-17 05:49:00,
2013-11-17 00:50:00,64.5,64.5,30.09,NE,46,3.0,9.0,100,0.00,,OVC009,0.00,VWS V14.01,2013-11-17 05:50:00,
2013-11-17 00:51:00,64.5,64.5,30.09,NE,42,6.0,6.0,100,0.00,,,0.00,VWS V14.01,2013-11-17 05:51:00,
2013-11-17 00:52:00,64.5,64.5,30.09,NE,55,4.0,6.0,100,0.00,,OVC009,0.00,VWS V14.01,2013-11-17 05:52:00,
2013-11-17 00:53:00,64.5,64.5,30.09,NE,40,2.0,4.0,100,0.00,,OVC009,0.00,VWS V14.01,2013-11-17 05:53:00,
2013-11-17 00:54:00,64.5,64.5,30.09,NE,40,6.0,9.0,100,0.00,,OVC009,0.00,VWS V14.01,2013-11-17 05:54:00,
2013-11-17 00:55:00,64.5,64.5,30.09,NNE,25,3.0,6.0,100,0.00,,OVC009,0.00,VWS V14.01,2013-11-17 05:55:00,
2013-11-17 00:56:00,64.5,64.5,30.05,NNE,21,4.0,4.0,100,0.00,,,0.00,VWS V14.01,2013-11-17 05:56:00,
2013-11-17 00:57:00,64.5,64.5,30.05,ENE,60,2.0,4.0,100,0.00,,OVC009,0.00,VWS V14.01,2013-11-17 05:57:00,
2013-11-17 00:58:00,64.5,64.5,30.01,NE,48,1.0,5.0,100,0.00,,OVC009,0.00,VWS V14.01,2013-11-17 05:58:00,
2013-11-17 00:59:00,64.5,64.5,30.01,NE,38,4.0,7.0,100,0.00,,OVC009,0.00,VWS V14.01,2013-11-17 05:59:00,
2013-11-17 01:00:00,64.5,64.5,30.01,NNE,29,7.0,7.0,100,0.00,,OVC009,0.00,VWS V14.01,2013-11-17 06:00:00,
2013-11-17 01:01:00,64.5,64.5,30.01,NNE,22,4.0,4.0,100,0.00,,,0.00,VWS V14.01,2013-11-17 06:01:00,
2013-11-17 01:02:00,64.5,64.5,30.01,NNE,12,2.0,4.0,100,0.00,,OVC009,0.00,VWS V14.01,2013-11-17 06:02:00,
2013-11-17 01:03:00,64.5,64.5,30.01,NE,44,1.0,3.0,100,0.00,,OVC009,0.00,VWS V14.01,2013-11-17 06:03:00,
2013-11-17 01:04:00,64.5,64.5,30.01,NE,43,4.0,4.0,100,0.00,,OVC009,0.00,VWS V14.01,2013-11-17 06:04:00,
2013-11-17 01:05:00,64.5,64.5,30.08,NE,34,1.0,5.0,100,0.00,,OVC009,0.00,VWS V14.01,2013-11-17 06:05:00,
2013-11-17 01:06:00,64.5,64.5,30.08,NNE,19,1.0,3.0,100,0.00,,,0.00,VWS V14.01,2013-11-17 06:06:00,
2013-11-17 01:07:00,64.5,64.5,30.08,ENE,58,7.0,7.0,100,0.00,,OVC009,0.00,VWS V14.01,2013-11-17 06:07:00,
2013-11-17 01:08:00,64.5,64.5,30.08,NE,54,2.0,7.0,100,0.00,,OVC009,0.00,VWS V14.01,2013-11-17 06:08:00,
2013-11-17 01:09:00,64.5,64.5,30.08,ENE,58,3.0,5.0,100,0.00,,OVC009,0.00,VWS V14.01,2013-11-17 06:09:00,
2013-11-17 01:10:00,64.5,64.5,30.08,NE,51,2.0,4.0,100,0.00,,OVC009,0.00,VWS V14.01,2013-11-17 06:10:00,
2013-11-17 01:11:00,64.5,64.5,30.08,NNE,33,3.0,3.0,100,0.00,,,0.00,VWS V14.01,2013-11-17 06:11:00,
2013-11-17 01:12:00,64.5,64.5,30.08,NNE,33,3.0,3.0,100,0.00,,OVC009,0.00,VWS V14.01,2013-11-17 06:12:00,
2013-11-17 01:13:00,64.5,64.5,30.04,North,5,1.0,3.0,100,0.00,,OVC009,0.00,VWS V14.01,2013-11-17 06:13:00,
2013-11-17 01:14:00,64.5,64.5,30.04,NE,50,3.0,6.0,100,0.00,,OVC009,0.00,VWS V14.01,2013-11-17 06:14:00,
2013-11-17 01:15:00,64.5,64.5,30.04,NE,36,2.0,3.0,100,0.00,,OVC009,0.00,VWS V14.01,2013-11-17 06:15:00,
2013-11-17 01:16:00,64.5,64.5,30.04,ENE,70,6.0,6.0,100,0.00,,,0.00,VWS V14.01,2013-11-17 06:16:00,
2013-11-17 01:17:00,64.5,64.5,30.04,ENE,70,2.0,6.0,100,0.00,,OVC009,0.00,VWS V14.01,2013-11-17 06:17:00,
2013-11-17 01:18:00,64.5,64.5,30.04,NE,53,4.0,6.0,100,0.00,,OVC009,0.00,VWS V14.01,2013-11-17 06:18:00,
2013-11-17 01:19:00,64.5,64.5,30.04,NE,37,4.0,5.0,100,0.00,,OVC009,0.00,VWS V14.01,2013-11-17 06:19:00,
2013-11-17 01:20:00,64.7,64.7,30.04,NNW,340,1.0,5.0,100,0.00,,OVC009,0.00,VWS V14.01,2013-11-17 06:20:00,
2013-11-17 01:21:00,64.7,64.7,30.04,NW,326,2.0,6.0,100,0.00,,,0.00,VWS V14.01,2013-11-17 06:21:00,
2013-11-17 01:22:00,64.7,64.7,30.04,NE,43,4.0,6.0,100,0.00,,OVC009,0.00,VWS V14.01,2013-11-17 06:22:00,
2013-11-17 01:23:00,64.7,64.7,30.04,NNE,28,3.0,5.0,100,0.00,,OVC009,0.00,VWS V14.01,2013-11-17 06:23:00,
2013-11-17 01:24:00,64.7,64.7,30.04,NNE,28,1.0,4.0,100,0.00,,OVC009,0.00,VWS V14.01,2013-11-17 06:24:00,
2013-11-17 01:25:00,64.7,64.7,30.04,NE,53,4.0,5.0,100,0.00,,OVC009,0.00,VWS V14.01,2013-11-17 06:25:00,
2013-11-17 01:26:00,64.5,64.5,30.01,ENE,59,5.0,5.0,100,0.00,,,0.00,VWS V14.01,2013-11-17 06:26:00,
2013-11-17 01:27:00,64.5,64.5,30.01,NE,44,7.0,7.0,100,0.00,,OVC009,0.00,VWS V14.01,2013-11-17 06:27:00,
2013-11-17 01:28:00,64.5,64.5,30.01,NE,53,2.0,9.0,100,0.00,,OVC009,0.00,VWS V14.01,2013-11-17 06:28:00,
2013-11-17 01:29:00,64.5,64.5,30.01,NE,53,4.0,4.0,100,0.00,,OVC009,0.00,VWS V14.01,2013-11-17 06:29:00,
2013-11-17 01:30:00,64.5,64.5,30.01,NE,55,3.0,7.0,100,0.00,,OVC009,0.00,VWS V14.01,2013-11-17 06:30:00,
2013-11-17 01:31:00,64.5,64.5,30.01,NE,53,4.0,6.0,100,0.00,,,0.00,VWS V14.01,2013-11-17 06:31:00,
2013-11-17 01:32:00,64.5,64.5,30.01,NE,53,5.0,6.0,100,0.00,,OVC009,0.00,VWS V14.01,2013-11-17 06:32:00,
2013-11-17 01:33:00,64.5,64.5,30.01,NE,44,4.0,5.0,100,0.00,,OVC009,0.00,VWS V14.01,2013-11-17 06:33:00,
2013-11-17 01:34:00,64.5,64.5,30.01,NE,42,7.0,7.0,100,0.00,,OVC009,0.00,VWS V14.01,2013-11-17 06:34:00,
2013-11-17 01:35:00,64.5,64.5,30.01,NE,49,3.0,7.0,100,0.00,,OVC009,0.00,VWS V14.01,2013-11-17 06:35:00,
2013-11-17 01:36:00,64.5,64.5,30.01,ENE,71,7.0,11.0,100,0.00,,,0.00,VWS V14.01,2013-11-17 06:36:00,
2013-11-17 01:37:00,64.7,64.7,30.01,NE,49,4.0,11.0,100,0.00,,OVC009,0.00,VWS V14.01,2013-11-17 06:37:00,
2013-11-17 01:38:00,64.7,64.7,30.01,North,5,4.0,5.0,100,0.00,,OVC009,0.00,VWS V14.01,2013-11-17 06:38:00,
2013-11-17 01:39:00,64.7,64.7,30.01,NE,40,3.0,10.0,100,0.00,,OVC009,0.00,VWS V14.01,2013-11-17 06:39:00,
2013-11-17 01:40:00,64.7,64.7,30.01,NE,48,5.0,7.0,100,0.00,,OVC009,0.00,VWS V14.01,2013-11-17 06:40:00,
2013-11-17 01:41:00,64.7,64.7,30.08,ENE,61,6.0,7.0,100,0.00,,,0.00,VWS V14.01,2013-11-17 06:41:00,
2013-11-17 01:42:00,64.7,64.7,30.08,NE,43,4.0,7.0,100,0.00,,OVC009,0.00,VWS V14.01,2013-11-17 06:42:00,
2013-11-17 01:43:00,64.7,64.7,30.08,ENE,60,2.0,4.0,100,0.00,,OVC009,0.00,VWS V14.01,2013-11-17 06:43:00,
2013-11-17 01:44:00,64.7,64.7,30.08,NE,36,5.0,11.0,100,0.00,,OVC009,0.00,VWS V14.01,2013-11-17 06:44:00,
2013-11-17 01:45:00,64.7,64.7,30.08,NE,50,5.0,10.0,100,0.00,,OVC009,0.00,VWS V14.01,2013-11-17 06:45:00,
2013-11-17 01:46:00,64.7,64.7,30.06,ENE,63,4.0,5.0,100,0.00,,,0.00,VWS V14.01,2013-11-17 06:46:00,
2013-11-17 01:47:00,64.7,64.7,30.06,NE,53,11.0,11.0,100,0.00,,OVC009,0.00,VWS V14.01,2013-11-17 06:47:00,
2013-11-17 01:48:00,64.7,64.7,30.06,NE,34,7.0,11.0,100,0.00,,OVC009,0.00,VWS V14.01,2013-11-17 06:48:00,
2013-11-17 01:49:00,64.7,64.7,30.06,NE,54,4.0,11.0,100,0.00,,OVC009,0.00,VWS V14.01,2013-11-17 06:49:00,
2013-11-17 01:50:00,64.8,64.8,30.06,ENE,69,6.0,11.0,100,0.00,,OVC009,0.00,VWS V14.01,2013-11-17 06:50:00,
2013-11-17 01:51:00,64.8,64.8,30.08,NE,53,4.0,11.0,100,0.00,,,0.00,VWS V14.01,2013-11-17 06:51:00,
2013-11-17 01:52:00,64.8,64.8,30.08,NE,37,11.0,11.0,100,0.00,,OVC009,0.00,VWS V14.01,2013-11-17 06:52:00,
2013-11-17 01:53:00,64.8,64.8,30.08,NE,44,9.0,11.0,100,0.00,,OVC009,0.00,VWS V14.01,2013-11-17 06:53:00,
2013-11-17 01:54:00,64.8,64.8,30.08,NE,36,13.0,13.0,100,0.00,,OVC009,0.00,VWS V14.01,2013-11-17 06:54:00,
2013-11-17 01:55:00,64.8,64.8,30.01,NNE,17,6.0,13.0,100,0.00,,OVC009,0.00,VWS V14.01,2013-11-17 06:55:00,
2013-11-17 01:56:00,64.8,64.8,30.01,North,355,9.0,9.0,100,0.00,,,0.00,VWS V14.01,2013-11-17 06:56:00,
2013-11-17 01:57:00,64.8,64.8,30.01,NE,43,4.0,9.0,100,0.00,,OVC009,0.00,VWS V14.01,2013-11-17 06:57:00,
2013-11-17 01:58:00,64.8,64.8,30.04,ENE,76,11.0,11.0,100,0.00,,OVC009,0.00,VWS V14.01,2013-11-17 06:58:00,
2013-11-17 01:59:00,64.8,64.8,30.05,NE,42,11.0,11.0,100,0.00,,OVC009,0.00,VWS V14.01,2013-11-17 06:59:00,
2013-11-17 02:00:00,64.8,64.8,30.05,NE,52,10.0,11.0,100,0.00,,OVC009,0.00,VWS V14.01,2013-11-17 07:00:00,
2013-11-17 02:01:00,64.8,64.8,30.05,NNE,33,7.0,13.0,100,0.00,,,0.00,VWS V14.01,2013-11-17 07:01:00,
2013-11-17 02:02:00,64.8,64.8,30.05,NNE,31,4.0,13.0,100,0.00,,OVC009,0.00,VWS V14.01,2013-11-17 07:02:00,
2013-11-17 02:03:00,64.8,64.8,30.01,North,355,4.0,11.0,100,0.00,,OVC009,0.00,VWS V14.01,2013-11-17 07:03:00,
2013-11-17 02:04:00,65.0,65.0,30.01,North,360,5.0,7.0,100,0.00,,OVC009,0.00,VWS V14.01,2013-11-17 07:04:00,
2013-11-17 02:05:00,64.8,64.8,30.00,NNE,15,4.0,9.0,100,0.00,,OVC009,0.00,VWS V14.01,2013-11-17 07:05:00,
2013-11-17 02:06:00,64.8,64.8,30.00,ENE,59,8.0,13.0,100,0.00,,,0.00,VWS V14.01,2013-11-17 07:06:00,
2013-11-17 02:07:00,64.8,64.8,30.00,NE,35,9.0,13.0,100,0.00,,OVC009,0.00,VWS V14.01,2013-11-17 07:07:00,
2013-11-17 02:08:00,64.8,64.8,30.00,NE,43,11.0,11.0,100,0.00,,OVC009,0.00,VWS V14.01,2013-11-17 07:08:00,
2013-11-17 02:09:00,64.8,64.8,30.00,NE,46,13.0,13.0,100,0.00,,OVC009,0.00,VWS V14.01,2013-11-17 07:09:00,
2013-11-17 02:10:00,65.0,65.0,30.00,ENE,57,11.0,13.0,100,0.00,,OVC009,0.00,VWS V14.01,2013-11-17 07:10:00,
2013-11-17 02:11:00,65.0,65.0,30.07,ENE,57,13.0,13.0,100,0.00,,,0.00,VWS V14.01,2013-11-17 07:11:00,
2013-11-17 02:12:00,65.0,65.0,30.07,NE,34,6.0,13.0,100,0.00,,OVC009,0.00,VWS V14.01,2013-11-17 07:12:00,
2013-11-17 02:13:00,65.0,65.0,30.05,NE,38,8.0,12.0,100,0.00,,OVC009,0.00,VWS V14.01,2013-11-17 07:13:00,
2013-11-17 02:14:00,65.0,65.0,30.05,NE,48,2.0,10.0,100,0.00,,OVC009,0.00,VWS V14.01,2013-11-17 07:14:00,
2013-11-17 02:15:00,65.0,65.0,30.10,NNE,24,10.0,10.0,100,0.00,,OVC009,0.00,VWS V14.01,2013-11-17 07:15:00,
2013-11-17 02:16:00,65.0,65.0,30.10,NE,44,8.0,11.0,100,0.00,,,0.00,VWS V14.01,2013-11-17 07:16:00,
2013-11-17 02:17:00,65.0,65.0,30.10,NE,44,3.0,11.0,100,0.00,,OVC009,0.00,VWS V14.01,2013-11-17 07:17:00,
2013-11-17 02:18:00,65.0,65.0,30.10,NE,40,12.0,13.0,100,0.00,,OVC009,0.00,VWS V14.01,2013-11-17 07:18:00,
2013-11-17 02:19:00,65.2,65.2,30.10,ENE,71,7.0,12.0,100,0.00,,OVC009,0.00,VWS V14.01,2013-11-17 07:19:00,
2013-11-17 02:20:00,65.2,65.2,30.11,NNE,22,2.0,8.0,100,0.00,,OVC009,0.00,VWS V14.01,2013-11-17 07:20:00,
2013-11-17 02:21:00,65.2,65.2,30.11,NE,55,6.0,12.0,100,0.00,,,0.00,VWS V14.01,2013-11-17 07:21:00,
2013-11-17 02:22:00,65.2,65.2,30.11,ENE,65,4.0,12.0,100,0.00,,OVC009,0.00,VWS V14.01,2013-11-17 07:22:00,
2013-11-17 02:23:00,65.2,65.2,30.11,ENE,57,8.0,11.0,100,0.00,,OVC009,0.00,VWS V14.01,2013-11-17 07:23:00,
2013-11-17 02:24:00,65.2,65.2,30.11,NE,55,9.0,9.0,100,0.00,,OVC009,0.00,VWS V14.01,2013-11-17 07:24:00,
2013-11-17 02:25:00,65.2,65.2,30.08,ENE,71,11.0,12.0,100,0.00,,OVC009,0.00,VWS V14.01,2013-11-17 07:25:00,
2013-11-17 02:26:00,65.2,65.2,30.08,ENE,59,3.0,7.0,100,0.00,,,0.00,VWS V14.01,2013-11-17 07:26:00,
2013-11-17 02:27:00,65.2,65.2,30.08,ENE,59,4.0,7.0,100,0.00,,OVC009,0.00,VWS V14.01,2013-11-17 07:27:00,
2013-11-17 02:28:00,65.2,65.2,30.08,NNE,31,9.0,11.0,100,0.00,,OVC009,0.00,VWS V14.01,2013-11-17 07:28:00,
2013-11-17 02:29:00,65.2,65.2,30.08,NE,40,10.0,10.0,100,0.00,,OVC009,0.00,VWS V14.01,2013-11-17 07:29:00,
2013-11-17 02:30:00,65.2,65.2,30.08,NE,55,9.0,10.0,100,0.00,,OVC009,0.00,VWS V14.01,2013-11-17 07:30:00,
2013-11-17 02:31:00,65.0,65.0,30.08,NE,50,5.0,9.0,100,0.00,,,0.00,VWS V14.01,2013-11-17 07:31:00,
2013-11-17 02:32:00,65.0,65.0,30.08,ENE,59,13.0,13.0,100,0.00,,OVC009,0.00,VWS V14.01,2013-11-17 07:32:00,
2013-11-17 02:33:00,65.0,65.0,30.08,NE,55,6.0,13.0,100,0.00,,OVC009,0.00,VWS V14.01,2013-11-17 07:33:00,
2013-11-17 02:34:00,65.0,65.0,30.08,NE,34,5.0,12.0,100,0.00,,OVC009,0.00,VWS V14.01,2013-11-17 07:34:00,
2013-11-17 02:35:00,65.0,65.0,30.08,NE,51,7.0,10.0,100,0.00,,OVC009,0.00,VWS V14.01,2013-11-17 07:35:00,
2013-11-17 02:36:00,65.0,65.0,29.24,NE,53,15.0,15.0,100,0.00,,FEW070,0.00,VWS V14.01,2013-11-17 07:36:00,
2013-11-17 02:37:00,65.0,65.0,29.24,NE,46,9.0,15.0,100,0.00,,OVC009,0.00,VWS V14.01,2013-11-17 07:37:00,
2013-11-17 02:38:00,65.0,65.0,29.24,ENE,58,8.0,9.0,100,0.00,,OVC009,0.00,VWS V14.01,2013-11-17 07:38:00,
2013-11-17 02:39:00,65.0,65.0,29.24,NE,51,9.0,9.0,100,0.00,,OVC009,0.00,VWS V14.01,2013-11-17 07:39:00,
2013-11-17 02:40:00,65.0,65.0,29.24,NNE,25,6.0,12.0,100,0.00,,OVC009,0.00,VWS V14.01,2013-11-17 07:40:00,
2013-11-17 02:41:00,65.0,65.0,29.24,ENE,68,3.0,10.0,100,0.00,,FEW070,0.00,VWS V14.01,2013-11-17 07:41:00,
2013-11-17 02:42:00,65.0,65.0,29.24,ENE,63,7.0,10.0,100,0.00,,OVC009,0.00,VWS V14.01,2013-11-17 07:42:00,
2013-11-17 02:43:00,65.0,65.0,29.24,ENE,67,7.0,7.0,100,0.00,,OVC009,0.00,VWS V14.01,2013-11-17 07:43:00,
2013-11-17 02:44:00,65.0,65.0,29.24,ENE,57,11.0,11.0,100,0.00,,OVC009,0.00,VWS V14.01,2013-11-17 07:44:00,
2013-11-17 02:45:00,65.0,65.0,29.24,NE,44,13.0,13.0,100,0.00,,OVC009,0.00,VWS V14.01,2013-11-17 07:45:00,
2013-11-17 02:46:00,65.0,65.0,29.24,NE,46,4.0,10.0,100,0.00,,FEW070,0.00,VWS V14.01,2013-11-17 07:46:00,
2013-11-17 02:47:00,65.0,65.0,29.24,ENE,69,9.0,10.0,100,0.00,,OVC009,0.00,VWS V14.01,2013-11-17 07:47:00,
2013-11-17 02:48:00,65.0,65.0,29.24,NE,44,10.0,11.0,100,0.00,,OVC009,0.00,VWS V14.01,2013-11-17 07:48:00,
2013-11-17 02:49:00,65.0,65.0,29.24,NE,49,6.0,10.0,100,0.00,,OVC009,0.00,VWS V14.01,2013-11-17 07:49:00,
2013-11-17 02:50:00,64.8,64.8,29.24,ENE,58,8.0,12.0,100,0.00,,OVC009,0.00,VWS V14.01,2013-11-17 07:50:00,
2013-11-17 02:51:00,64.8,64.8,29.24,ENE,58,15.0,15.0,100,0.00,,FEW070,0.00,VWS V14.01,2013-11-17 07:51:00,
2013-11-17 02:52:00,64.8,64.8,29.44,NE,38,10.0,15.0,100,0.00,,OVC009,0.00,VWS V14.01,2013-11-17 07:52:00,
2013-11-17 02:53:00,64.7,64.7,29.44,NE,41,9.0,15.0,100,0.00,,OVC009,0.00,VWS V14.01,2013-11-17 07:53:00,
2013-11-17 02:54:00,64.7,64.7,29.44,ENE,57,10.0,14.0,100,0.00,,OVC009,0.00,VWS V14.01,2013-11-17 07:54:00,
2013-11-17 02:55:00,64.7,64.7,29.44,NE,51,9.0,10.0,100,0.00,,OVC009,0.00,VWS V14.01,2013-11-17 07:55:00,
2013-11-17 02:56:00,64.7,64.7,29.44,ENE,69,9.0,10.0,100,0.00,,FEW070,0.00,VWS V14.01,2013-11-17 07:56:00,
2013-11-17 02:57:00,64.7,64.7,29.44,ENE,61,9.0,10.0,100,0.00,,OVC009,0.00,VWS V14.01,2013-11-17 07:57:00,
2013-11-17 02:58:00,64.7,64.7,29.44,East,98,4.0,13.0,100,0.00,,OVC009,0.00,VWS V14.01,2013-11-17 07:58:00,
2013-11-17 02:59:00,64.7,64.7,29.44,East,79,5.0,12.0,100,0.00,,OVC009,0.00,VWS V14.01,2013-11-17 07:59:00,
2013-11-17 03:00:00,64.7,64.7,29.44,ENE,61,11.0,12.0,100,0.00,,OVC009,0.00,VWS V14.01,2013-11-17 08:00:00,
2013-11-17 03:01:00,64.7,64.7,29.44,ENE,58,11.0,11.0,100,0.00,,FEW070,0.00,VWS V14.01,2013-11-17 08:01:00,
2013-11-17 03:02:00,64.7,64.7,29.44,ENE,59,8.0,11.0,100,0.00,,OVC009,0.00,VWS V14.01,2013-11-17 08:02:00,
2013-11-17 03:03:00,64.7,64.7,29.44,ENE,61,11.0,12.0,100,0.00,,OVC009,0.00,VWS V14.01,2013-11-17 08:03:00,
2013-11-17 03:04:00,64.7,64.7,29.44,ENE,74,7.0,11.0,100,0.00,,OVC009,0.00,VWS V14.01,2013-11-17 08:04:00,
2013-11-17 03:05:00,64.7,64.7,29.44,NE,39,7.0,10.0,100,0.00,,OVC009,0.00,VWS V14.01,2013-11-17 08:05:00,
2013-11-17 03:06:00,64.7,64.7,29.44,NE,51,10.0,12.0,100,0.00,,FEW070,0.00,VWS V14.01,2013-11-17 08:06:00,
2013-11-17 03:07:00,64.7,64.7,29.44,NE,53,9.0,12.0,100,0.00,,OVC009,0.00,VWS V14.01,2013-11-17 08:07:00,
2013-11-17 03:08:00,64.7,64.7,29.44,NE,54,10.0,11.0,100,0.00,,OVC009,0.00,VWS V14.01,2013-11-17 08:08:00,
2013-11-17 03:09:00,64.7,64.7,29.93,ENE,65,6.0,10.0,100,0.00,,OVC009,0.00,VWS V14.01,2013-11-17 08:09:00,
2013-11-17 03:10:00,64.7,64.7,29.93,ENE,75,6.0,13.0,100,0.00,,OVC009,0.00,VWS V14.01,2013-11-17 08:10:00,
2013-11-17 03:11:00,64.7,64.7,29.93,ENE,61,5.0,8.0,100,0.00,,FEW070,0.00,VWS V14.01,2013-11-17 08:11:00,
2013-11-17 03:12:00,64.7,64.7,29.93,ENE,69,7.0,8.0,100,0.00,,OVC009,0.00,VWS V14.01,2013-11-17 08:12:00,
2013-11-17 03:13:00,64.7,64.7,29.93,NE,51,7.0,11.0,100,0.00,,OVC009,0.00,VWS V14.01,2013-11-17 08:13:00,
2013-11-17 03:14:00,64.7,64.7,29.93,ENE,64,7.0,8.0,100,0.00,,OVC009,0.00,VWS V14.01,2013-11-17 08:14:00,
2013-11-17 03:15:00,64.7,64.7,29.93,ENE,74,11.0,12.0,100,0.00,,OVC009,0.00,VWS V14.01,2013-11-17 08:15:00,
2013-11-17 03:16:00,64.7,64.7,29.93,ENE,71,12.0,12.0,100,0.00,,FEW070,0.00,VWS V14.01,2013-11-17 08:16:00,
2013-11-17 03:17:00,64.7,64.7,29.93,ENE,67,6.0,12.0,100,0.00,,OVC009,0.00,VWS V14.01,2013-11-17 08:17:00,
2013-11-17 03:18:00,64.7,64.7,29.93,NE,53,6.0,11.0,100,0.00,,OVC009,0.00,VWS V14.01,2013-11-17 08:18:00,
2013-11-17 03:19:00,64.5,64.5,29.82,ENE,69,6.0,9.0,100,0.00,,OVC009,0.00,VWS V14.01,2013-11-17 08:19:00,
2013-11-17 03:20:00,64.5,64.5,29.80,ENE,63,7.0,13.0,100,0.00,,OVC009,0.00,VWS V14.01,2013-11-17 08:20:00,
2013-11-17 03:21:00,64.5,64.5,29.80,North,11,6.0,9.0,100,0.00,,FEW070,0.00,VWS V14.01,2013-11-17 08:21:00,
2013-11-17 03:22:00,64.5,64.5,29.80,ENE,73,6.0,9.0,100,0.00,,OVC009,0.00,VWS V14.01,2013-11-17 08:22:00,
2013-11-17 03:23:00,64.3,64.3,29.80,ENE,62,6.0,11.0,100,0.00,,OVC009,0.00,VWS V14.01,2013-11-17 08:23:00,
2013-11-17 03:24:00,64.3,64.3,29.80,NE,56,10.0,11.0,100,0.00,,OVC009,0.00,VWS V14.01,2013-11-17 08:24:00,
2013-11-17 03:25:00,64.3,64.3,29.80,ENE,61,7.0,10.0,100,0.00,,OVC009,0.00,VWS V14.01,2013-11-17 08:25:00,
2013-11-17 03:26:00,64.5,64.5,29.80,ENE,61,8.0,9.0,100,0.00,,FEW070,0.00,VWS V14.01,2013-11-17 08:26:00,
2013-11-17 03:27:00,64.5,64.5,29.80,ENE,69,6.0,9.0,100,0.00,,OVC009,0.00,VWS V14.01,2013-11-17 08:27:00,
2013-11-17 03:28:00,64.5,64.5,29.80,NE,53,3.0,10.0,100,0.00,,OVC009,0.00,VWS V14.01,2013-11-17 08:28:00,
2013-11-17 03:29:00,64.5,64.5,29.80,NNE,20,5.0,9.0,100,0.00,,OVC009,0.00,VWS V14.01,2013-11-17 08:29:00,
2013-11-17 03:30:00,64.7,64.7,29.80,NE,56,9.0,9.0,100,0.00,,OVC009,0.00,VWS V14.01,2013-11-17 08:30:00,
2013-11-17 03:31:00,64.7,64.7,29.80,NE,55,11.0,11.0,100,0.00,,FEW070,0.00,VWS V14.01,2013-11-17 08:31:00,
2013-11-17 03:32:00,64.7,64.7,29.80,NE,39,12.0,12.0,100,0.00,,OVC009,0.00,VWS V14.01,2013-11-17 08:32:00,
2013-11-17 03:33:00,64.7,64.7,29.80,ENE,64,5.0,12.0,100,0.00,,OVC009,0.00,VWS V14.01,2013-11-17 08:33:00,
2013-11-17 03:34:00,64.7,64.7,29.91,NE,55,8.0,11.0,100,0.00,,OVC009,0.00,VWS V14.01,2013-11-17 08:34:00,
2013-11-17 03:35:00,64.7,64.7,29.91,NE,46,7.0,14.0,100,0.00,,OVC009,0.00,VWS V14.01,2013-11-17 08:35:00,
2013-11-17 03:36:00,64.7,64.7,30.03,NE,49,7.0,10.0,100,0.00,,OVC100,0.00,VWS V14.01,2013-11-17 08:36:00,
2013-11-17 03:37:00,64.7,64.7,30.03,NE,46,5.0,10.0,100,0.00,,OVC009,0.00,VWS V14.01,2013-11-17 08:37:00,
2013-11-17 03:38:00,64.7,64.7,30.03,ENE,69,7.0,10.0,100,0.00,,OVC009,0.00,VWS V14.01,2013-11-17 08:38:00,
2013-11-17 03:39:00,64.7,64.7,30.09,NE,48,3.0,7.0,100,0.00,,OVC009,0.00,VWS V14.01,2013-11-17 08:39:00,
2013-11-17 03:40:00,64.5,64.5,30.09,ENE,60,3.0,4.0,100,0.00,,OVC009,0.00,VWS V14.01,2013-11-17 08:40:00,
2013-11-17 03:41:00,64.5,64.5,30.09,ENE,62,4.0,9.0,100,0.00,,OVC100,0.00,VWS V14.01,2013-11-17 08:41:00,
2013-11-17 03:42:00,64.5,64.5,30.09,NE,44,4.0,9.0,100,0.00,,OVC009,0.00,VWS V14.01,2013-11-17 08:42:00,
2013-11-17 03:43:00,64.5,64.5,30.09,ENE,64,6.0,8.0,100,0.00,,OVC009,0.00,VWS V14.01,2013-11-17 08:43:00,
2013-11-17 03:44:00,64.5,64.5,30.09,NE,36,9.0,9.0,100,0.00,,OVC009,0.00,VWS V14.01,2013-11-17 08:44:00,
2013-11-17 03:45:00,64.5,64.5,30.09,ENE,67,6.0,10.0,100,0.00,,OVC009,0.00,VWS V14.01,2013-11-17 08:45:00,
2013-11-17 03:46:00,64.5,64.5,30.09,NE,51,9.0,10.0,100,0.00,,OVC100,0.00,VWS V14.01,2013-11-17 08:46:00,
2013-11-17 03:47:00,64.5,64.5,30.09,ENE,65,8.0,10.0,100,0.00,,OVC009,0.00,VWS V14.01,2013-11-17 08:47:00,
2013-11-17 03:48:00,64.5,64.5,30.09,ENE,63,9.0,13.0,100,0.00,,OVC009,0.00,VWS V14.01,2013-11-17 08:48:00,
2013-11-17 03:49:00,64.5,64.5,30.09,ENE,65,6.0,11.0,100,0.00,,OVC009,0.00,VWS V14.01,2013-11-17 08:49:00,
2013-11-17 03:50:00,64.5,64.5,30.05,ENE,69,6.0,6.0,100,0.00,,OVC009,0.00,VWS V14.01,2013-11-17 08:50:00,
2013-11-17 03:51:00,64.3,64.3,30.05,NE,46,11.0,13.0,100,0.00,,OVC100,0.00,VWS V14.01,2013-11-17 08:51:00,
2013-11-17 03:52:00,64.3,64.3,30.05,NE,52,10.0,13.0,100,0.00,,OVC009,0.00,VWS V14.01,2013-11-17 08:52:00,
2013-11-17 03:53:00,64.3,64.3,30.05,ENE,61,10.0,11.0,100,0.00,,OVC009,0.00,VWS V14.01,2013-11-17 08:53:00,
2013-11-17 03:54:00,64.3,64.3,30.05,East,79,9.0,12.0,100,0.00,,OVC009,0.00,VWS V14.01,2013-11-17 08:54:00,
2013-11-17 03:55:00,64.3,64.3,30.05,NNE,24,6.0,11.0,100,0.00,,OVC009,0.00,VWS V14.01,2013-11-17 08:55:00,
2013-11-17 03:56:00,64.3,64.3,30.00,NE,50,6.0,14.0,100,0.00,,OVC100,0.00,VWS V14.01,2013-11-17 08:56:00,
2013-11-17 03:57:00,64.3,64.3,30.00,ENE,66,6.0,14.0,100,0.00,,OVC009,0.00,VWS V14.01,2013-11-17 08:57:00,
2013-11-17 03:58:00,64.5,64.5,30.00,ENE,59,6.0,12.0,100,0.00,,OVC009,0.00,VWS V14.01,2013-11-17 08:58:00,
2013-11-17 03:59:00,64.5,64.5,30.00,NE,55,11.0,11.0,100,0.00,,OVC009,0.00,VWS V14.01,2013-11-17 08:59:00,
2013-11-17 04:00:00,64.5,64.5,29.99,NE,49,5.0,11.0,100,0.00,,OVC009,0.00,VWS V14.01,2013-11-17 09:00:00,
2013-11-17 04:01:00,64.5,64.5,29.99,East,81,11.0,11.0,100,0.00,,OVC100,0.00,VWS V14.01,2013-11-17 09:01:00,
2013-11-17 04:02:00,64.5,64.5,29.99,ENE,67,5.0,11.0,100,0.00,,OVC009,0.00,VWS V14.01,2013-11-17 09:02:00,
2013-11-17 04:03:00,64.5,64.5,29.99,ENE,66,5.0,11.0,100,0.00,,OVC009,0.00,VWS V14.01,2013-11-17 09:03:00,
2013-11-17 04:04:00,64.5,64.5,29.99,ENE,62,7.0,10.0,100,0.00,,OVC009,0.00,VWS V14.01,2013-11-17 09:04:00,
2013-11-17 04:05:00,64.5,64.5,30.03,NNE,30,6.0,11.0,100,0.00,,OVC009,0.00,VWS V14.01,2013-11-17 09:05:00,
2013-11-17 04:06:00,64.5,64.5,30.03,ENE,58,6.0,11.0,100,0.00,,OVC100,0.00,VWS V14.01,2013-11-17 09:06:00,
2013-11-17 04:07:00,64.5,64.5,30.03,ENE,59,4.0,11.0,100,0.00,,OVC009,0.00,VWS V14.01,2013-11-17 09:07:00,
2013-11-17 04:08:00,64.5,64.5,30.03,ENE,57,8.0,11.0,100,0.00,,OVC009,0.00,VWS V14.01,2013-11-17 09:08:00,
2013-11-17 04:09:00,64.5,64.5,30.03,NE,48,5.0,11.0,100,0.00,,OVC009,0.00,VWS V14.01,2013-11-17 09:09:00,
2013-11-17 04:10:00,64.3,64.3,30.03,ENE,65,10.0,10.0,100,0.00,,OVC009,0.00,VWS V14.01,2013-11-17 09:10:00,
2013-11-17 04:11:00,64.3,64.3,30.03,NE,40,6.0,7.0,100,0.00,,OVC100,0.00,VWS V14.01,2013-11-17 09:11:00,
2013-11-17 04:12:00,64.3,64.3,30.03,NE,55,7.0,7.0,100,0.00,,OVC009,0.00,VWS V14.01,2013-11-17 09:12:00,
2013-11-17 04:13:00,64.3,64.3,30.03,NE,34,9.0,9.0,100,0.00,,OVC009,0.00,VWS V14.01,2013-11-17 09:13:00,
2013-11-17 04:14:00,64.3,64.3,30.03,NNE,27,7.0,11.0,100,0.00,,OVC009,0.00,VWS V14.01,2013-11-17 09:14:00,
2013-11-17 04:15:00,64.3,64.3,30.04,ENE,69,11.0,11.0,100,0.00,,OVC009,0.00,VWS V14.01,2013-11-17 09:15:00,
2013-11-17 04:16:00,64.3,64.3,30.04,NE,42,7.0,7.0,100,0.00,,OVC100,0.00,VWS V14.01,2013-11-17 09:16:00,
2013-11-17 04:17:00,64.3,64.3,30.04,NE,55,6.0,7.0,100,0.00,,OVC009,0.00,VWS V14.01,2013-11-17 09:17:00,
2013-11-17 04:18:00,64.3,64.3,30.04,ENE,67,6.0,9.0,100,0.00,,OVC009,0.00,VWS V14.01,2013-11-17 09:18:00,
2013-11-17 04:19:00,64.3,64.3,30.04,NE,48,7.0,9.0,100,0.00,,OVC009,0.00,VWS V14.01,2013-11-17 09:19:00,
2013-11-17 04:20:00,64.3,64.3,30.04,ENE,65,3.0,11.0,100,0.00,,OVC009,0.00,VWS V14.01,2013-11-17 09:20:00,
2013-11-17 04:21:00,64.3,64.3,30.01,NE,55,9.0,10.0,100,0.00,,OVC100,0.00,VWS V14.01,2013-11-17 09:21:00,
2013-11-17 04:22:00,64.3,64.3,30.01,North,9,7.0,10.0,100,0.00,,OVC009,0.00,VWS V14.01,2013-11-17 09:22:00,
2013-11-17 04:23:00,64.3,64.3,30.01,ENE,69,8.0,11.0,100,0.00,,OVC009,0.00,VWS V14.01,2013-11-17 09:23:00,
2013-11-17 04:24:00,64.3,64.3,30.01,NE,46,11.0,12.0,100,0.00,,OVC009,0.00,VWS V14.01,2013-11-17 09:24:00,
2013-11-17 04:25:00,64.2,64.2,30.01,ENE,57,9.0,11.0,100,0.00,,OVC009,0.00,VWS V14.01,2013-11-17 09:25:00,
2013-11-17 04:26:00,64.2,64.2,30.05,ENE,61,5.0,5.0,100,0.00,,OVC100,0.00,VWS V14.01,2013-11-17 09:26:00,
2013-11-17 04:27:00,64.2,64.2,30.05,ENE,69,6.0,7.0,100,0.00,,OVC009,0.00,VWS V14.01,2013-11-17 09:27:00,
2013-11-17 04:28:00,64.2,64.2,30.05,ENE,68,9.0,9.0,100,0.00,,OVC009,0.00,VWS V14.01,2013-11-17 09:28:00,
2013-11-17 04:29:00,64.2,64.2,30.04,NE,50,6.0,9.0,100,0.00,,OVC009,0.00,VWS V14.01,2013-11-17 09:29:00,
2013-11-17 04:30:00,64.2,64.2,30.04,NE,42,8.0,11.0,100,0.00,,OVC009,0.00,VWS V14.01,2013-11-17 09:30:00,
2013-11-17 04:31:00,64.2,64.2,30.01,NE,53,10.0,10.0,100,0.00,,OVC100,0.00,VWS V14.01,2013-11-17 09:31:00,
2013-11-17 04:32:00,64.2,64.2,30.01,ENE,74,9.0,10.0,100,0.00,,OVC009,0.00,VWS V14.01,2013-11-17 09:32:00,
2013-11-17 04:33:00,64.2,64.2,30.08,NE,51,6.0,9.0,100,0.00,,OVC009,0.00,VWS V14.01,2013-11-17 09:33:00,
2013-11-17 04:34:00,64.2,64.2,30.08,ENE,66,12.0,13.0,100,0.00,,OVC009,0.00,VWS V14.01,2013-11-17 09:34:00,
2013-11-17 04:35:00,64.2,64.2,30.08,NE,56,11.0,12.0,100,0.00,,OVC009,0.00,VWS V14.01,2013-11-17 09:35:00,
2013-11-17 04:36:00,64.2,64.2,30.04,ENE,66,7.0,9.0,100,0.00,,-RA,0.00,VWS V14.01,2013-11-17 09:36:00,
2013-11-17 04:37:00,64.0,64.0,30.05,NE,52,10.0,11.0,100,0.00,,OVC009,0.00,VWS V14.01,2013-11-17 09:37:00,
2013-11-17 04:38:00,64.0,64.0,30.05,NE,47,8.0,10.0,100,0.00,,OVC009,0.00,VWS V14.01,2013-11-17 09:38:00,
2013-11-17 04:39:00,64.0,64.0,30.05,ENE,71,4.0,11.0,100,0.00,,OVC009,0.00,VWS V14.01,2013-11-17 09:39:00,
2013-11-17 04:40:00,64.0,64.0,30.05,ENE,68,8.0,12.0,100,0.00,,OVC009,0.00,VWS V14.01,2013-11-17 09:40:00,
2013-11-17 04:41:00,64.0,64.0,30.02,ENE,60,7.0,10.0,100,0.00,,-RA,0.00,VWS V14.01,2013-11-17 09:41:00,
2013-11-17 04:42:00,64.0,64.0,30.02,NE,43,7.0,10.0,100,0.00,,OVC009,0.00,VWS V14.01,2013-11-17 09:42:00,
2013-11-17 04:43:00,64.0,64.0,30.03,ENE,62,5.0,7.0,100,0.00,,OVC009,0.00,VWS V14.01,2013-11-17 09:43:00,
2013-11-17 04:44:00,64.0,64.0,30.03,NE,36,11.0,11.0,100,0.00,,OVC009,0.00,VWS V14.01,2013-11-17 09:44:00,
2013-11-17 04:45:00,64.0,64.0,30.03,NE,46,10.0,12.0,100,0.00,,OVC009,0.00,VWS V14.01,2013-11-17 09:45:00,
2013-11-17 04:46:00,63.9,63.9,30.03,NE,45,12.0,12.0,100,0.00,,-RA,0.00,VWS V14.01,2013-11-17 09:46:00,
2013-11-17 04:47:00,63.9,63.9,30.03,ENE,62,5.0,12.0,100,0.00,,OVC009,0.00,VWS V14.01,2013-11-17 09:47:00,
2013-11-17 04:48:00,63.9,63.9,30.01,NE,55,4.0,8.0,100,0.00,,OVC009,0.00,VWS V14.01,2013-11-17 09:48:00,
2013-11-17 04:49:00,63.9,63.9,30.01,NE,49,11.0,11.0,100,0.00,,OVC009,0.00,VWS V14.01,2013-11-17 09:49:00,
2013-11-17 04:50:00,63.9,63.9,30.03,ENE,57,6.0,11.0,100,0.00,,OVC009,0.00,VWS V14.01,2013-11-17 09:50:00,
2013-11-17 04:51:00,63.7,63.7,30.03,NE,44,9.0,11.0,100,0.00,,-RA,0.00,VWS V14.01,2013-11-17 09:51:00,
2013-11-17 04:52:00,63.7,63.7,30.03,ENE,71,7.0,11.0,100,0.00,,OVC009,0.00,VWS V14.01,2013-11-17 09:52:00,
2013-11-17 04:53:00,63.7,63.7,30.04,ENE,63,9.0,9.0,100,0.00,,OVC009,0.00,VWS V14.01,2013-11-17 09:53:00,
2013-11-17 04:54:00,63.7,63.7,30.04,NNE,13,6.0,11.0,100,0.00,,OVC009,0.00,VWS V14.01,2013-11-17 09:54:00,
2013-11-17 04:55:00,63.7,63.7,30.00,NE,47,12.0,12.0,100,0.00,,OVC009,0.00,VWS V14.01,2013-11-17 09:55:00,
2013-11-17 04:56:00,63.5,63.5,30.07,NNE,22,7.0,9.0,100,0.00,,-RA,0.00,VWS V14.01,2013-11-17 09:56:00,
2013-11-17 04:57:00,63.5,63.5,30.07,ENE,70,6.0,11.0,100,0.00,,OVC009,0.00,VWS V14.01,2013-11-17 09:57:00,
2013-11-17 04:58:00,63.5,63.5,30.07,NE,49,11.0,11.0,100,0.00,,OVC009,0.00,VWS V14.01,2013-11-17 09:58:00,
2013-11-17 04:59:00,63.5,63.5,30.07,ENE,72,5.0,12.0,100,0.00,,OVC009,0.00,VWS V14.01,2013-11-17 09:59:00,
2013-11-17 05:00:00,63.4,63.4,30.07,ENE,71,2.0,7.0,100,0.00,,OVC009,0.00,VWS V14.01,2013-11-17 10:00:00,
2013-11-17 05:01:00,63.4,63.4,30.07,ENE,63,5.0,8.0,100,0.00,,-RA,0.00,VWS V14.01,2013-11-17 10:01:00,
2013-11-17 05:02:00,63.4,63.4,30.07,NE,49,8.0,11.0,100,0.00,,OVC009,0.00,VWS V14.01,2013-11-17 10:02:00,
2013-11-17 05:03:00,63.4,63.4,30.07,ENE,59,6.0,10.0,100,0.00,,OVC009,0.00,VWS V14.01,2013-11-17 10:03:00,
2013-11-17 05:04:00,63.2,63.2,30.07,ENE,62,5.0,9.0,100,0.00,,OVC009,0.00,VWS V14.01,2013-11-17 10:04:00,
2013-11-17 05:05:00,63.2,63.2,30.07,NE,51,5.0,6.0,100,0.00,,OVC009,0.00,VWS V14.01,2013-11-17 10:05:00,
2013-11-17 05:06:00,63.2,63.2,30.07,ENE,59,5.0,12.0,100,0.00,,-RA,0.00,VWS V14.01,2013-11-17 10:06:00,
2013-11-17 05:07:00,63.2,63.2,30.07,NNE,19,7.0,12.0,100,0.00,,OVC009,0.00,VWS V14.01,2013-11-17 10:07:00,
2013-11-17 05:08:00,63.2,63.2,30.07,ENE,63,7.0,11.0,100,0.00,,OVC009,0.00,VWS V14.01,2013-11-17 10:08:00,
2013-11-17 05:09:00,63.2,63.2,30.07,ENE,68,4.0,9.0,100,0.00,,OVC009,0.00,VWS V14.01,2013-11-17 10:09:00,
2013-11-17 05:10:00,63.2,63.2,30.07,ENE,71,10.0,10.0,100,0.00,,OVC009,0.00,VWS V14.01,2013-11-17 10:10:00,
2013-11-17 05:11:00,63.2,63.2,30.04,NE,46,5.0,5.0,100,0.00,,-RA,0.00,VWS V14.01,2013-11-17 10:11:00,
2013-11-17 05:12:00,63.2,63.2,30.04,NE,45,7.0,9.0,100,0.00,,OVC009,0.00,VWS V14.01,2013-11-17 10:12:00,
2013-11-17 05:13:00,63.2,63.2,30.02,ENE,61,4.0,9.0,100,0.00,,OVC009,0.00,VWS V14.01,2013-11-17 10:13:00,
2013-11-17 05:14:00,63.2,63.2,30.02,ENE,76,5.0,6.0,100,0.00,,OVC009,0.00,VWS V14.01,2013-11-17 10:14:00,
2013-11-17 05:15:00,63.2,63.2,30.02,ENE,64,9.0,12.0,100,0.00,,OVC009,0.00,VWS V14.01,2013-11-17 10:15:00,
2013-11-17 05:16:00,63.2,63.2,30.02,NNE,30,6.0,14.0,100,0.00,,-RA,0.00,VWS V14.01,2013-11-17 10:16:00,
2013-11-17 05:17:00,63.2,63.2,30.02,NE,44,11.0,14.0,100,0.00,,OVC009,0.00,VWS V14.01,2013-11-17 10:17:00,
2013-11-17 05:18:00,63.2,63.2,30.02,NE,40,8.0,12.0,100,0.00,,OVC009,0.00,VWS V14.01,2013-11-17 10:18:00,
2013-11-17 05:19:00,63.2,63.2,30.02,ENE,57,6.0,12.0,100,0.00,,OVC009,0.00,VWS V14.01,2013-11-17 10:19:00,
2013-11-17 05:20:00,63.2,63.2,30.02,ENE,59,6.0,14.0,100,0.00,,OVC009,0.00,VWS V14.01,2013-11-17 10:20:00,
2013-11-17 05:21:00,63.2,63.2,30.02,ENE,67,11.0,11.0,100,0.00,,-RA,0.00,VWS V14.01,2013-11-17 10:21:00,
2013-11-17 05:22:00,63.2,63.2,30.02,ENE,62,11.0,13.0,100,0.00,,OVC009,0.00,VWS V14.01,2013-11-17 10:22:00,
2013-11-17 05:23:00,63.2,63.2,30.02,NE,46,11.0,11.0,100,0.00,,OVC009,0.00,VWS V14.01,2013-11-17 10:23:00,
2013-11-17 05:24:00,63.2,63.2,30.02,NE,53,7.0,11.0,100,0.00,,OVC009,0.00,VWS V14.01,2013-11-17 10:24:00,
2013-11-17 05:25:00,63.2,63.2,30.02,NE,51,6.0,11.0,100,0.00,,OVC009,0.00,VWS V14.01,2013-11-17 10:25:00,
2013-11-17 05:26:00,63.1,63.1,29.96,NE,53,10.0,10.0,100,0.00,,-RA,0.00,VWS V14.01,2013-11-17 10:26:00,
2013-11-17 05:27:00,63.1,63.1,29.96,ENE,64,7.0,10.0,100,0.00,,OVC009,0.00,VWS V14.01,2013-11-17 10:27:00,
2013-11-17 05:28:00,63.1,63.1,29.96,ENE,76,6.0,12.0,100,0.00,,OVC009,0.00,VWS V14.01,2013-11-17 10:28:00,
2013-11-17 05:29:00,63.1,63.1,29.96,ENE,69,7.0,10.0,100,0.00,,OVC009,0.00,VWS V14.01,2013-11-17 10:29:00,
2013-11-17 05:30:00,63.1,63.1,29.96,ENE,66,7.0,7.0,100,0.00,,OVC009,0.00,VWS V14.01,2013-11-17 10:30:00,
2013-11-17 05:31:00,63.1,63.1,29.96,NE,53,9.0,9.0,100,0.00,,-RA,0.00,VWS V14.01,2013-11-17 10:31:00,
2013-11-17 05:32:00,63.1,63.1,29.96,NE,46,6.0,9.0,100,0.00,,OVC009,0.00,VWS V14.01,2013-11-17 10:32:00,
2013-11-17 05:33:00,62.9,62.9,29.96,ENE,68,9.0,11.0,100,0.00,,OVC009,0.00,VWS V14.01,2013-11-17 10:33:00,
2013-11-17 05:34:00,62.9,62.9,29.96,NE,54,9.0,10.0,100,0.00,,OVC009,0.00,VWS V14.01,2013-11-17 10:34:00,
2013-11-17 05:35:00,62.9,62.9,29.96,ENE,63,4.0,9.0,100,0.00,,OVC009,0.00,VWS V14.01,2013-11-17 10:35:00,
2013-11-17 05:36:00,62.9,62.9,29.96,NE,50,7.0,9.0,100,0.00,,,0.00,VWS V14.01,2013-11-17 10:36:00,
2013-11-17 05:37:00,62.9,62.9,29.96,ENE,65,7.0,9.0,100,0.00,,OVC009,0.00,VWS V14.01,2013-11-17 10:37:00,
2013-11-17 05:38:00,62.7,62.7,29.96,ENE,61,6.0,10.0,100,0.00,,OVC009,0.00,VWS V14.01,2013-11-17 10:38:00,
2013-11-17 05:39:00,62.7,62.7,29.96,ENE,63,10.0,10.0,100,0.00,,OVC009,0.00,VWS V14.01,2013-11-17 10:39:00,
2013-11-17 05:40:00,62.7,62.7,29.97,NE,52,9.0,12.0,100,0.00,,OVC009,0.00,VWS V14.01,2013-11-17 10:40:00,
2013-11-17 05:41:00,62.6,62.6,29.97,NE,54,7.0,11.0,100,0.00,,,0.00,VWS V14.01,2013-11-17 10:41:00,
2013-11-17 05:42:00,62.6,62.6,29.97,ENE,58,10.0,11.0,100,0.00,,OVC009,0.00,VWS V14.01,2013-11-17 10:42:00,
2013-11-17 05:43:00,62.6,62.6,29.97,ENE,57,5.0,10.0,100,0.00,,OVC009,0.00,VWS V14.01,2013-11-17 10:43:00,
2013-11-17 05:44:00,62.6,62.6,29.97,ENE,57,6.0,10.0,100,0.00,,OVC009,0.00,VWS V14.01,2013-11-17 10:44:00,
2013-11-17 05:45:00,62.6,62.6,29.97,ENE,63,7.0,7.0,100,0.00,,OVC009,0.00,VWS V14.01,2013-11-17 10:45:00,
2013-11-17 05:46:00,62.6,62.6,29.97,NNE,29,11.0,11.0,100,0.00,,,0.00,VWS V14.01,2013-11-17 10:46:00,
2013-11-17 05:47:00,62.6,62.6,29.97,ENE,57,4.0,11.0,100,0.00,,OVC009,0.00,VWS V14.01,2013-11-17 10:47:00,
2013-11-17 05:48:00,62.6,62.6,30.02,NE,53,5.0,6.0,100,0.00,,OVC009,0.00,VWS V14.01,2013-11-17 10:48:00,
2013-11-17 05:49:00,62.6,62.6,30.04,ENE,61,7.0,8.0,100,0.00,,OVC009,0.00,VWS V14.01,2013-11-17 10:49:00,
2013-11-17 05:50:00,62.6,62.6,30.04,ENE,74,5.0,7.0,100,0.00,,OVC009,0.00,VWS V14.01,2013-11-17 10:50:00,
2013-11-17 05:51:00,62.4,62.4,30.08,NE,56,4.0,4.0,100,0.00,,BKN090,0.00,VWS V14.01,2013-11-17 10:51:00,
2013-11-17 05:52:00,62.4,62.4,30.08,NE,46,6.0,6.0,100,0.00,,OVC009,0.00,VWS V14.01,2013-11-17 10:52:00,
2013-11-17 05:53:00,62.4,62.4,30.08,NE,54,2.0,7.0,100,0.00,,OVC009,0.00,VWS V14.01,2013-11-17 10:53:00,
2013-11-17 05:54:00,62.4,62.4,30.08,ENE,66,7.0,9.0,100,0.00,,OVC009,0.00,VWS V14.01,2013-11-17 10:54:00,
2013-11-17 05:55:00,62.4,62.4,30.08,ENE,59,7.0,7.0,100,0.00,,OVC009,0.00,VWS V14.01,2013-11-17 10:55:00,
2013-11-17 05:56:00,62.4,62.4,30.08,ENE,58,5.0,6.0,100,0.00,,BKN090,0.00,VWS V14.01,2013-11-17 10:56:00,
2013-11-17 05:57:00,62.4,62.4,30.08,ENE,67,5.0,6.0,100,0.00,,OVC009,0.00,VWS V14.01,2013-11-17 10:57:00,
2013-11-17 05:58:00,62.4,62.4,30.08,ENE,59,5.0,5.0,100,0.00,,OVC009,0.00,VWS V14.01,2013-11-17 10:58:00,
2013-11-17 05:59:00,62.4,62.4,30.08,NNE,18,7.0,7.0,100,0.00,,OVC009,0.00,VWS V14.01,2013-11-17 10:59:00,
2013-11-17 06:00:00,62.4,62.4,30.08,ENE,76,4.0,9.0,100,0.00,,OVC009,0.00,VWS V14.01,2013-11-17 11:00:00,
2013-11-17 06:01:00,62.4,62.4,30.08,NE,42,7.0,7.0,100,0.00,,BKN090,0.00,VWS V14.01,2013-11-17 11:01:00,
2013-11-17 06:02:00,62.4,62.4,30.08,NE,36,3.0,7.0,100,0.00,,OVC009,0.00,VWS V14.01,2013-11-17 11:02:00,
2013-11-17 06:03:00,62.4,62.4,30.08,ENE,61,4.0,4.0,100,0.00,,OVC009,0.00,VWS V14.01,2013-11-17 11:03:00,
2013-11-17 06:04:00,62.4,62.4,29.78,NE,55,8.0,8.0,100,0.00,,OVC009,0.00,VWS V14.01,2013-11-17 11:04:00,
2013-11-17 06:05:00,62.6,62.6,29.78,ENE,59,5.0,8.0,100,0.00,,OVC009,0.00,VWS V14.01,2013-11-17 11:05:00,
2013-11-17 06:06:00,62.6,62.6,29.78,ENE,68,3.0,4.0,100,0.00,,BKN090,0.00,VWS V14.01,2013-11-17 11:06:00,
2013-11-17 06:07:00,62.6,62.6,29.78,NE,55,2.0,4.0,100,0.00,,OVC009,0.00,VWS V14.01,2013-11-17 11:07:00,
2013-11-17 06:08:00,62.6,62.6,29.78,NE,51,6.0,6.0,100,0.00,,OVC009,0.00,VWS V14.01,2013-11-17 11:08:00,
2013-11-17 06:09:00,62.6,62.6,29.57,NE,44,3.0,7.0,100,0.00,,OVC009,0.00,VWS V14.01,2013-11-17 11:09:00,
2013-11-17 06:10:00,62.6,62.6,29.57,NNW,346,1.0,4.0,100,0.00,,OVC009,0.00,VWS V14.01,2013-11-17 11:10:00,
2013-11-17 06:11:00,62.6,62.6,29.57,NE,53,9.0,9.0,100,0.00,,BKN090,0.00,VWS V14.01,2013-11-17 11:11:00,
2013-11-17 06:12:00,62.6,62.6,29.57,ENE,58,3.0,9.0,100,0.00,,OVC009,0.00,VWS V14.01,2013-11-17 11:12:00,
2013-11-17 06:13:00,62.6,62.6,29.57,NE,41,2.0,4.0,100,0.00,,OVC009,0.00,VWS V14.01,2013-11-17 11:13:00,
2013-11-17 06:14:00,62.6,62.6,29.57,NE,34,4.0,4.0,100,0.00,,OVC009,0.00,VWS V14.01,2013-11-17 11:14:00,
2013-11-17 06:15:00,62.6,62.6,29.57,NE,50,2.0,4.0,100,0.00,,OVC009,0.00,VWS V14.01,2013-11-17 11:15:00,
2013-11-17 06:16:00,62.6,62.6,29.57,NNE,19,3.0,3.0,100,0.00,,BKN090,0.00,VWS V14.01,2013-11-17 11:16:00,
2013-11-17 06:17:00,62.6,62.6,29.57,NNE,19,3.0,3.0,100,0.00,,OVC009,0.00,VWS V14.01,2013-11-17 11:17:00,
2013-11-17 06:18:00,62.4,62.4,29.57,NNW,334,3.0,3.0,100,0.00,,OVC009,0.00,VWS V14.01,2013-11-17 11:18:00,
2013-11-17 06:19:00,62.4,62.4,29.57,ENE,57,3.0,5.0,100,0.00,,OVC009,0.00,VWS V14.01,2013-11-17 11:19:00,
2013-11-17 06:20:00,62.4,62.4,29.57,NE,46,1.0,3.0,100,0.00,,OVC009,0.00,VWS V14.01,2013-11-17 11:20:00,
2013-11-17 06:21:00,62.4,62.4,29.59,NE,34,4.0,4.0,100,0.00,,BKN090,0.00,VWS V14.01,2013-11-17 11:21:00,
2013-11-17 06:22:00,62.4,62.4,29.59,NNW,348,5.0,5.0,100,0.00,,OVC009,0.00,VWS V14.01,2013-11-17 11:22:00,
2013-11-17 06:23:00,62.4,62.4,29.59,NE,44,3.0,5.0,100,0.00,,OVC009,0.00,VWS V14.01,2013-11-17 11:23:00,
2013-11-17 06:24:00,62.4,62.4,29.59,NNE,32,1.0,4.0,100,0.00,,OVC009,0.00,VWS V14.01,2013-11-17 11:24:00,
2013-11-17 06:25:00,62.3,62.3,29.73,NNE,24,3.0,3.0,100,0.00,,OVC009,0.00,VWS V14.01,2013-11-17 11:25:00,
2013-11-17 06:26:00,62.3,62.3,29.73,ENE,59,5.0,5.0,100,0.00,,BKN090,0.00,VWS V14.01,2013-11-17 11:26:00,
2013-11-17 06:27:00,62.3,62.3,29.73,ENE,57,2.0,5.0,100,0.00,,OVC009,0.00,VWS V14.01,2013-11-17 11:27:00,
2013-11-17 06:28:00,62.3,62.3,29.73,NE,52,3.0,3.0,100,0.00,,OVC009,0.00,VWS V14.01,2013-11-17 11:28:00,
2013-11-17 06:29:00,62.3,62.3,29.73,NE,40,3.0,6.0,100,0.00,,OVC009,0.00,VWS V14.01,2013-11-17 11:29:00,
2013-11-17 06:30:00,62.3,62.3,29.59,NE,34,1.0,4.0,100,0.00,,OVC009,0.00,VWS V14.01,2013-11-17 11:30:00,
2013-11-17 06:31:00,62.3,62.3,29.59,NE,40,2.0,3.0,100,0.00,,BKN090,0.00,VWS V14.01,2013-11-17 11:31:00,
2013-11-17 06:32:00,62.3,62.3,29.59,NE,40,0.0,3.0,100,0.00,,OVC009,0.00,VWS V14.01,2013-11-17 11:32:00,
2013-11-17 06:33:00,62.1,62.1,29.59,ENE,76,1.0,4.0,100,0.00,,OVC009,0.00,VWS V14.01,2013-11-17 11:33:00,
2013-11-17 06:34:00,62.1,62.1,29.59,ENE,63,0.0,3.0,100,0.00,,OVC009,0.00,VWS V14.01,2013-11-17 11:34:00,
2013-11-17 06:35:00,62.1,62.1,29.59,North,360,4.0,4.0,100,0.00,,OVC009,0.00,VWS V14.01,2013-11-17 11:35:00,
2013-11-17 06:36:00,62.1,62.1,29.59,North,5,2.0,4.0,100,0.00,,OVC090,0.00,VWS V14.01,2013-11-17 11:36:00,
2013-11-17 06:37:00,62.1,62.1,29.59,North,355,5.0,5.0,100,0.00,,OVC009,0.00,VWS V14.01,2013-11-17 11:37:00,
2013-11-17 06:38:00,62.1,62.1,29.59,NNW,346,2.0,5.0,100,0.00,,OVC009,0.00,VWS V14.01,2013-11-17 11:38:00,
2013-11-17 06:39:00,62.1,62.1,29.59,NNE,13,2.0,4.0,100,0.00,,OVC009,0.00,VWS V14.01,2013-11-17 11:39:00,
2013-11-17 06:40:00,62.1,62.1,29.95,North,355,2.0,6.0,100,0.00,,OVC009,0.00,VWS V14.01,2013-11-17 11:40:00,
2013-11-17 06:41:00,62.1,62.1,29.95,North,355,5.0,6.0,100,0.00,,OVC090,0.00,VWS V14.01,2013-11-17 11:41:00,
2013-11-17 06:42:00,62.1,62.1,29.95,North,11,2.0,6.0,100,0.00,,OVC009,0.00,VWS V14.01,2013-11-17 11:42:00,
2013-11-17 06:43:00,62.1,62.1,29.95,North,9,2.0,4.0,100,0.00,,OVC009,0.00,VWS V14.01,2013-11-17 11:43:00,
2013-11-17 06:44:00,62.1,62.1,29.95,NE,48,4.0,6.0,100,0.00,,OVC009,0.00,VWS V14.01,2013-11-17 11:44:00,
2013-11-17 06:45:00,62.1,62.1,29.95,ENE,59,3.0,5.0,100,0.00,,OVC009,0.00,VWS V14.01,2013-11-17 11:45:00,
2013-11-17 06:46:00,62.1,62.1,29.99,NNE,13,2.0,2.0,100,0.00,,OVC090,0.00,VWS V14.01,2013-11-17 11:46:00,
2013-11-17 06:47:00,62.1,62.1,29.99,NE,39,3.0,4.0,100,0.00,,OVC009,0.00,VWS V14.01,2013-11-17 11:47:00,
2013-11-17 06:48:00,62.1,62.1,29.99,NNE,29,9.0,9.0,100,0.00,,OVC009,0.00,VWS V14.01,2013-11-17 11:48:00,
2013-11-17 06:49:00,62.1,62.1,30.09,NE,34,1.0,9.0,100,0.00,,OVC009,0.00,VWS V14.01,2013-11-17 11:49:00,
2013-11-17 06:50:00,62.1,62.1,30.09,NE,51,4.0,5.0,100,0.00,,OVC009,0.00,VWS V14.01,2013-11-17 11:50:00,
2013-11-17 06:51:00,62.1,62.1,30.09,North,360,2.0,3.0,100,0.00,,OVC090,0.00,VWS V14.01,2013-11-17 11:51:00,
2013-11-17 06:52:00,63.2,63.2,30.08,NE,55,3.0,4.0,100,0.00,,CLR,0.00,VWS V14.01,2013-11-17 11:52:00,
2013-11-17 06:53:00,62.1,62.1,30.09,ENE,69,2.0,4.0,100,0.00,,OVC009,0.00,VWS V14.01,2013-11-17 11:53:00,
2013-11-17 06:54:00,62.1,62.1,30.09,North,349,3.0,3.0,100,0.00,,OVC013,0.00,VWS V14.01,2013-11-17 11:54:00,
2013-11-17 06:55:00,62.1,62.1,30.09,NE,51,4.0,4.0,100,0.00,,OVC009,0.00,VWS V14.01,2013-11-17 11:55:00,
2013-11-17 06:56:00,62.1,62.1,30.09,NNE,19,3.0,3.0,100,0.00,,OVC090,0.00,VWS V14.01,2013-11-17 11:56:00,
2013-11-17 06:57:00,62.1,62.1,30.09,NE,55,1.0,3.0,100,0.00,,OVC009,0.00,VWS V14.01,2013-11-17 11:57:00,
2013-11-17 06:58:00,62.1,62.1,30.09,NE,55,3.0,3.0,100,0.00,,OVC013,0.00,VWS V14.01,2013-11-17 11:58:00,
2013-11-17 06:59:00,62.1,62.1,30.04,NW,319,1.0,4.0,100,0.00,,OVC009,0.00,VWS V14.01,2013-11-17 11:59:00,
2013-11-17 07:00:00,62.1,62.1,30.06,NE,36,4.0,4.0,100,0.00,,OVC009,0.00,VWS V14.01,2013-11-17 12:00:00,
2013-11-17 07:01:00,62.1,62.1,30.00,NE,35,3.0,4.0,100,0.00,,OVC090,0.00,VWS V14.01,2013-11-17 12:01:00,
2013-11-17 07:02:00,62.1,62.1,30.00,NE,48,2.0,4.0,100,0.00,,OVC009,0.00,VWS V14.01,2013-11-17 12:02:00,
2013-11-17 07:03:00,62.1,62.1,30.07,NE,44,4.0,4.0,100,0.00,,OVC009,0.00,VWS V14.01,2013-11-17 12:03:00,
2013-11-17 07:04:00,62.1,62.1,30.07,NE,46,2.0,4.0,100,0.00,,OVC009,0.00,VWS V14.01,2013-11-17 12:04:00,
2013-11-17 07:05:00,62.1,62.1,30.07,NE,47,1.0,6.0,100,0.00,,OVC013,0.00,VWS V14.01,2013-11-17 12:05:00,
2013-11-17 07:06:00,62.1,62.1,30.07,NNE,31,3.0,3.0,100,0.00,,OVC090,0.00,VWS V14.01,2013-11-17 12:06:00,
2013-11-17 07:07:00,62.1,62.1,30.07,NE,35,2.0,3.0,100,0.00,,OVC013,0.00,VWS V14.01,2013-11-17 12:07:00,
2013-11-17 07:08:00,62.1,62.1,30.08,NE,42,2.0,2.0,100,0.00,,OVC009,0.00,VWS V14.01,2013-11-17 12:08:00,
2013-11-17 07:09:00,62.1,62.1,30.08,NE,53,2.0,3.0,100,0.00,,OVC009,0.00,VWS V14.01,2013-11-17 12:09:00,
2013-11-17 07:10:00,62.1,62.1,30.09,NNE,14,4.0,4.0,100,0.00,,OVC013,0.00,VWS V14.01,2013-11-17 12:10:00,
2013-11-17 07:11:00,62.1,62.1,30.09,North,5,3.0,3.0,100,0.00,,OVC090,0.00,VWS V14.01,2013-11-17 12:11:00,
2013-11-17 07:12:00,62.1,62.1,30.09,NE,40,5.0,7.0,100,0.00,,OVC009,0.00,VWS V14.01,2013-11-17 12:12:00,
2013-11-17 07:13:00,62.1,62.1,30.09,NNE,25,3.0,5.0,100,0.00,,OVC009,0.00,VWS V14.01,2013-11-17 12:13:00,
2013-11-17 07:14:00,62.1,62.1,30.08,NE,41,2.0,3.0,100,0.00,,OVC009,0.00,VWS V14.01,2013-11-17 12:14:00,
2013-11-17 07:15:00,62.1,62.1,30.08,NE,37,2.0,4.0,100,0.00,,OVC013,0.00,VWS V14.01,2013-11-17 12:15:00,
2013-11-17 07:16:00,62.1,62.1,30.08,NE,38,2.0,4.0,100,0.00,,OVC090,0.00,VWS V14.01,2013-11-17 12:16:00,
2013-11-17 07:17:00,62.1,62.1,30.08,NE,42,3.0,4.0,100,0.00,,OVC009,0.00,VWS V14.01,2013-11-17 12:17:00,
2013-11-17 07:18:00,62.1,62.1,30.08,NE,38,3.0,4.0,100,0.00,,OVC013,0.00,VWS V14.01,2013-11-17 12:18:00,
2013-11-17 07:19:00,62.1,62.1,30.08,NE,38,4.0,4.0,100,0.00,,OVC009,0.00,VWS V14.01,2013-11-17 12:19:00,
2013-11-17 07:20:00,62.1,62.1,30.09,ENE,68,3.0,7.0,100,0.00,,OVC009,0.00,VWS V14.01,2013-11-17 12:20:00,
2013-11-17 07:21:00,62.1,62.1,30.08,NNW,342,5.0,5.0,100,0.00,,OVC090,0.00,VWS V14.01,2013-11-17 12:21:00,
2013-11-17 07:22:00,62.1,62.1,30.08,NNE,21,5.0,5.0,100,0.00,,OVC009,0.00,VWS V14.01,2013-11-17 12:22:00,
2013-11-17 07:23:00,62.1,62.1,30.09,NE,48,2.0,5.0,100,0.00,,OVC009,0.00,VWS V14.01,2013-11-17 12:23:00,
2013-11-17 07:24:00,62.1,62.1,30.09,NNE,32,3.0,5.0,100,0.00,,OVC009,0.00,VWS V14.01,2013-11-17 12:24:00,
2013-11-17 07:25:00,62.1,62.1,30.08,NNE,32,2.0,3.0,100,0.00,,OVC009,0.00,VWS V14.01,2013-11-17 12:25:00,
2013-11-17 07:26:00,62.1,62.1,30.09,North,360,1.0,3.0,100,0.00,,OVC090,0.00,VWS V14.01,2013-11-17 12:26:00,
2013-11-17 07:27:00,62.1,62.1,30.09,NE,46,5.0,5.0,100,0.00,,OVC009,0.00,VWS V14.01,2013-11-17 12:27:00,
2013-11-17 07:28:00,62.1,62.1,30.09,NNE,25,2.0,6.0,100,0.00,,OVC009,0.00,VWS V14.01,2013-11-17 12:28:00,
2013-11-17 07:29:00,62.1,62.1,30.09,NE,43,2.0,9.0,100,0.00,,OVC009,0.00,VWS V14.01,2013-11-17 12:29:00,
2013-11-17 07:30:00,62.1,62.1,30.09,NE,37,5.0,5.0,100,0.00,,OVC009,0.00,VWS V14.01,2013-11-17 12:30:00,
2013-11-17 07:31:00,62.1,62.1,30.09,North,9,3.0,4.0,100,0.00,,OVC090,0.00,VWS V14.01,2013-11-17 12:31:00,
2013-11-17 07:32:00,62.1,62.1,30.09,NE,55,4.0,5.0,100,0.00,,OVC009,0.00,VWS V14.01,2013-11-17 12:32:00,
2013-11-17 07:33:00,62.3,62.3,30.09,NE,46,6.0,6.0,100,0.00,,OVC009,0.00,VWS V14.01,2013-11-17 12:33:00,
2013-11-17 07:34:00,62.3,62.3,30.09,NE,39,0.0,6.0,100,0.00,,OVC009,0.00,VWS V14.01,2013-11-17 12:34:00,
2013-11-17 07:35:00,62.3,62.3,30.09,ENE,59,8.0,8.0,100,0.00,,OVC009,0.00,VWS V14.01,2013-11-17 12:35:00,
2013-11-17 07:36:00,62.4,62.4,30.09,ENE,69,4.0,9.0,100,0.00,,OVC070,0.00,VWS V14.01,2013-11-17 12:36:00,
2013-11-17 07:37:00,62.4,62.4,30.09,ENE,59,5.0,9.0,100,0.00,,OVC009,0.00,VWS V14.01,2013-11-17 12:37:00,
2013-11-17 07:38:00,62.6,62.6,30.08,NE,56,3.0,5.0,100,0.00,,OVC009,0.00,VWS V14.01,2013-11-17 12:38:00,
2013-11-17 07:39:00,62.6,62.6,30.08,NNE,33,5.0,7.0,100,0.00,,OVC009,0.00,VWS V14.01,2013-11-17 12:39:00,
2013-11-17 07:40:00,62.6,62.6,30.08,NE,53,2.0,6.0,100,0.00,,OVC009,0.00,VWS V14.01,2013-11-17 12:40:00,
2013-11-17 07:41:00,62.6,62.6,30.08,NNE,19,6.0,11.0,100,0.00,,OVC070,0.00,VWS V14.01,2013-11-17 12:41:00,
2013-11-17 07:42:00,62.6,62.6,30.08,ENE,58,5.0,11.0,100,0.00,,OVC009,0.00,VWS V14.01,2013-11-17 12:42:00,
2013-11-17 07:43:00,62.6,62.6,30.08,NNW,344,3.0,5.0,100,0.00,,OVC009,0.00,VWS V14.01,2013-11-17 12:43:00,
2013-11-17 07:44:00,62.7,62.7,30.08,NE,56,1.0,3.0,100,0.00,,OVC009,0.00,VWS V14.01,2013-11-17 12:44:00,
2013-11-17 07:45:00,62.7,62.7,30.08,East,86,3.0,6.0,100,0.00,,OVC009,0.00,VWS V14.01,2013-11-17 12:45:00,
2013-11-17 07:46:00,62.7,62.7,30.08,NE,51,2.0,4.0,100,0.00,,OVC070,0.00,VWS V14.01,2013-11-17 12:46:00,
2013-11-17 07:47:00,62.9,62.9,30.08,NE,51,3.0,6.0,100,0.00,,OVC009,0.00,VWS V14.01,2013-11-17 12:47:00,
2013-11-17 07:48:00,62.9,62.9,30.08,ENE,59,6.0,6.0,100,0.00,,OVC009,0.00,VWS V14.01,2013-11-17 12:48:00,
2013-11-17 07:49:00,63.1,63.1,30.08,NNE,20,6.0,6.0,100,0.00,,OVC010,0.00,VWS V14.01,2013-11-17 12:49:00,
2013-11-17 07:50:00,63.1,63.1,30.08,ENE,78,3.0,6.0,100,0.00,,OVC010,0.00,VWS V14.01,2013-11-17 12:50:00,
2013-11-17 07:51:00,63.1,63.1,30.08,NE,36,2.0,2.0,100,0.00,,OVC070,0.00,VWS V14.01,2013-11-17 12:51:00,
2013-11-17 07:52:00,63.2,63.2,30.08,NE,55,3.0,4.0,100,0.00,,OVC010,0.00,VWS V14.01,2013-11-17 12:52:00,
2013-11-17 07:53:00,63.2,63.2,30.08,NE,54,2.0,4.0,100,0.00,,OVC010,0.00,VWS V14.01,2013-11-17 12:53:00,
2013-11-17 07:54:00,63.2,63.2,30.08,NE,55,5.0,6.0,100,0.00,,OVC010,0.00,VWS V14.01,2013-11-17 12:54:00,
2013-11-17 07:55:00,63.4,63.4,30.08,NE,49,3.0,8.0,100,0.00,,OVC010,0.00,VWS V14.01,2013-11-17 12:55:00,
2013-11-17 07:56:00,63.4,63.4,30.08,NE,39,2.0,3.0,100,0.00,,OVC070,0.00,VWS V14.01,2013-11-17 12:56:00,
2013-11-17 07:57:00,63.4,63.4,30.08,NE,39,2.0,3.0,100,0.00,,OVC010,0.00,VWS V14.01,2013-11-17 12:57:00,
2013-11-17 07:58:00,63.4,63.4,30.08,ENE,65,4.0,7.0,100,0.00,,OVC010,0.00,VWS V14.01,2013-11-17 12:58:00,
2013-11-17 07:59:00,63.4,63.4,30.08,ENE,63,2.0,4.0,100,0.00,,OVC010,0.00,VWS V14.01,2013-11-17 12:59:00,
2013-11-17 08:00:00,63.4,63.4,30.08,NE,44,4.0,4.0,100,0.00,,OVC010,0.00,VWS V14.01,2013-11-17 13:00:00,
2013-11-17 08:01:00,63.5,63.5,30.08,NE,38,3.0,3.0,100,0.00,,OVC070,0.00,VWS V14.01,2013-11-17 13:01:00,
2013-11-17 08:02:00,63.5,63.5,30.08,NNE,30,3.0,4.0,100,0.00,,OVC010,0.00,VWS V14.01,2013-11-17 13:02:00,
2013-11-17 08:03:00,63.5,63.5,30.08,ENE,61,6.0,6.0,100,0.00,,OVC010,0.00,VWS V14.01,2013-11-17 13:03:00,
2013-11-17 08:04:00,63.5,63.5,30.08,NE,46,3.0,6.0,100,0.00,,OVC010,0.00,VWS V14.01,2013-11-17 13:04:00,
2013-11-17 08:05:00,63.5,63.5,30.08,NE,46,3.0,5.0,100,0.00,,OVC010,0.00,VWS V14.01,2013-11-17 13:05:00,
2013-11-17 08:06:00,63.5,63.5,30.08,ENE,65,1.0,4.0,100,0.00,,OVC070,0.00,VWS V14.01,2013-11-17 13:06:00,
2013-11-17 08:07:00,63.7,63.7,30.08,ENE,65,2.0,4.0,100,0.00,,OVC010,0.00,VWS V14.01,2013-11-17 13:07:00,
2013-11-17 08:08:00,63.7,63.7,30.08,ENE,68,2.0,7.0,100,0.00,,OVC010,0.00,VWS V14.01,2013-11-17 13:08:00,
2013-11-17 08:09:00,63.7,63.7,30.08,NE,48,5.0,6.0,100,0.00,,OVC010,0.00,VWS V14.01,2013-11-17 13:09:00,
2013-11-17 08:10:00,63.7,63.7,30.08,NE,49,3.0,9.0,100,0.00,,OVC010,0.00,VWS V14.01,2013-11-17 13:10:00,
2013-11-17 08:11:00,63.7,63.7,30.08,NE,56,5.0,6.0,100,0.00,,OVC070,0.00,VWS V14.01,2013-11-17 13:11:00,
2013-11-17 08:12:00,63.7,63.7,30.08,East,86,1.0,6.0,100,0.00,,OVC010,0.00,VWS V14.01,2013-11-17 13:12:00,
2013-11-17 08:13:00,63.7,63.7,30.08,NE,53,5.0,5.0,100,0.00,,OVC010,0.00,VWS V14.01,2013-11-17 13:13:00,
2013-11-17 08:14:00,63.7,63.7,30.08,NE,36,1.0,5.0,100,0.00,,OVC010,0.00,VWS V14.01,2013-11-17 13:14:00,
2013-11-17 08:15:00,63.7,63.7,30.08,NE,40,4.0,4.0,100,0.00,,OVC010,0.00,VWS V14.01,2013-11-17 13:15:00,
2013-11-17 08:16:00,63.7,63.7,30.08,NE,49,3.0,3.0,100,0.00,,OVC070,0.00,VWS V14.01,2013-11-17 13:16:00,
2013-11-17 08:17:00,63.7,63.7,30.08,NE,39,3.0,4.0,100,0.00,,OVC010,0.00,VWS V14.01,2013-11-17 13:17:00,
2013-11-17 08:18:00,63.7,63.7,30.08,NE,39,2.0,3.0,100,0.00,,OVC010,0.00,VWS V14.01,2013-11-17 13:18:00,
2013-11-17 08:19:00,63.7,63.7,29.56,NNE,31,3.0,4.0,100,0.00,,OVC010,0.00,VWS V14.01,2013-11-17 13:19:00,
2013-11-17 08:20:00,63.7,63.7,29.56,NE,36,0.0,3.0,100,0.00,,OVC010,0.00,VWS V14.01,2013-11-17 13:20:00,
2013-11-17 08:21:00,63.5,63.5,29.56,ENE,58,3.0,4.0,100,0.00,,OVC070,0.00,VWS V14.01,2013-11-17 13:21:00,
2013-11-17 08:22:00,63.5,63.5,29.56,NE,49,4.0,4.0,100,0.00,,OVC010,0.00,VWS V14.01,2013-11-17 13:22:00,
2013-11-17 08:23:00,63.5,63.5,29.68,NE,51,4.0,5.0,100,0.00,,OVC010,0.00,VWS V14.01,2013-11-17 13:23:00,
2013-11-17 08:24:00,63.5,63.5,29.68,NE,54,4.0,6.0,100,0.00,,OVC010,0.00,VWS V14.01,2013-11-17 13:24:00,
2013-11-17 08:25:00,63.5,63.5,29.68,ENE,68,5.0,5.0,100,0.00,,OVC010,0.00,VWS V14.01,2013-11-17 13:25:00,
2013-11-17 08:26:00,63.5,63.5,29.68,NE,54,2.0,2.0,100,0.00,,OVC070,0.00,VWS V14.01,2013-11-17 13:26:00,
2013-11-17 08:27:00,63.5,63.5,29.68,NE,49,4.0,5.0,100,0.00,,OVC010,0.00,VWS V14.01,2013-11-17 13:27:00,
2013-11-17 08:28:00,63.5,63.5,29.68,NE,50,0.0,4.0,100,0.00,,OVC010,0.00,VWS V14.01,2013-11-17 13:28:00,
2013-11-17 08:29:00,63.7,63.7,29.68,NE,42,5.0,5.0,100,0.00,,OVC010,0.00,VWS V14.01,2013-11-17 13:29:00,
2013-11-17 08:30:00,63.7,63.7,29.68,NE,43,2.0,5.0,100,0.00,,OVC010,0.00,VWS V14.01,2013-11-17 13:30:00,
2013-11-17 08:31:00,63.7,63.7,29.68,NE,43,3.0,3.0,100,0.00,,OVC070,0.00,VWS V14.01,2013-11-17 13:31:00,
2013-11-17 08:32:00,63.7,63.7,29.68,NNE,32,3.0,4.0,100,0.00,,OVC010,0.00,VWS V14.01,2013-11-17 13:32:00,
2013-11-17 08:33:00,63.7,63.7,29.68,NNE,32,3.0,4.0,100,0.00,,OVC010,0.00,VWS V14.01,2013-11-17 13:33:00,
2013-11-17 08:34:00,63.7,63.7,29.68,NNE,32,1.0,3.0,100,0.00,,OVC010,0.00,VWS V14.01,2013-11-17 13:34:00,
2013-11-17 08:35:00,63.9,63.9,29.68,NE,47,3.0,3.0,100,0.00,,OVC010,0.00,VWS V14.01,2013-11-17 13:35:00,
2013-11-17 08:36:00,63.9,63.9,29.68,NE,35,4.0,4.0,100,0.00,,BKN075,0.00,VWS V14.01,2013-11-17 13:36:00,
2013-11-17 08:37:00,63.9,63.9,29.68,NE,35,2.0,4.0,100,0.00,,OVC010,0.00,VWS V14.01,2013-11-17 13:37:00,
2013-11-17 08:38:00,63.9,63.9,29.68,NE,35,2.0,3.0,100,0.00,,OVC010,0.00,VWS V14.01,2013-11-17 13:38:00,
2013-11-17 08:39:00,63.9,63.9,29.68,ENE,60,1.0,3.0,100,0.00,,OVC010,0.00,VWS V14.01,2013-11-17 13:39:00,
2013-11-17 08:40:00,63.9,63.9,29.68,NE,53,6.0,6.0,100,0.00,,OVC010,0.00,VWS V14.01,2013-11-17 13:40:00,
2013-11-17 08:41:00,63.9,63.9,29.46,NE,50,2.0,2.0,100,0.00,,BKN075,0.00,VWS V14.01,2013-11-17 13:41:00,
2013-11-17 08:42:00,63.9,63.9,29.46,NNE,32,3.0,3.0,100,0.00,,OVC010,0.00,VWS V14.01,2013-11-17 13:42:00,
2013-11-17 08:43:00,63.9,63.9,29.55,NE,34,1.0,3.0,100,0.00,,OVC010,0.00,VWS V14.01,2013-11-17 13:43:00,
2013-11-17 08:44:00,63.9,63.9,29.55,NE,34,2.0,2.0,100,0.00,,OVC010,0.00,VWS V14.01,2013-11-17 13:44:00,
2013-11-17 08:45:00,64.0,64.0,29.55,NE,56,2.0,5.0,100,0.00,,OVC010,0.00,VWS V14.01,2013-11-17 13:45:00,
2013-11-17 08:46:00,64.0,64.0,29.55,ENE,66,3.0,3.0,100,0.00,,BKN075,0.00,VWS V14.01,2013-11-17 13:46:00,
2013-11-17 08:47:00,64.0,64.0,29.55,ENE,66,3.0,3.0,100,0.00,,OVC010,0.00,VWS V14.01,2013-11-17 13:47:00,
2013-11-17 08:48:00,64.0,64.0,29.55,NNE,32,3.0,3.0,100,0.00,,OVC010,0.00,VWS V14.01,2013-11-17 13:48:00,
2013-11-17 08:49:00,64.0,64.0,29.55,NE,40,4.0,5.0,100,0.00,,OVC010,0.00,VWS V14.01,2013-11-17 13:49:00,
2013-11-17 08:50:00,64.2,64.2,29.55,NE,42,2.0,5.0,100,0.00,,OVC010,0.00,VWS V14.01,2013-11-17 13:50:00,
2013-11-17 08:51:00,64.2,64.2,29.46,ENE,62,3.0,3.0,100,0.00,,FEW070,0.00,VWS V14.01,2013-11-17 13:51:00,
2013-11-17 08:52:00,64.2,64.2,29.46,ENE,63,2.0,5.0,100,0.00,,OVC010,0.00,VWS V14.01,2013-11-17 13:52:00,
2013-11-17 08:53:00,64.2,64.2,29.46,NE,44,3.0,5.0,100,0.00,,OVC010,0.00,VWS V14.01,2013-11-17 13:53:00,
2013-11-17 08:54:00,64.2,64.2,29.46,NE,53,1.0,5.0,100,0.00,,OVC010,0.00,VWS V14.01,2013-11-17 13:54:00,
2013-11-17 08:55:00,64.2,64.2,29.37,NE,53,2.0,3.0,100,0.00,,OVC010,0.00,VWS V14.01,2013-11-17 13:55:00,
2013-11-17 08:56:00,64.3,64.3,29.37,NE,53,0.0,1.0,100,0.00,,FEW070,0.00,VWS V14.01,2013-11-17 13:56:00,
2013-11-17 08:57:00,64.3,64.3,29.37,NE,53,1.0,1.0,100,0.00,,OVC010,0.00,VWS V14.01,2013-11-17 13:57:00,
2013-11-17 08:58:00,64.3,64.3,29.37,NE,53,3.0,3.0,100,0.00,,OVC010,0.00,VWS V14.01,2013-11-17 13:58:00,
2013-11-17 08:59:00,64.5,64.5,29.37,NE,53,2.0,3.0,100,0.00,,OVC010,0.00,VWS V14.01,2013-11-17 13:59:00,
2013-11-17 09:00:00,64.5,64.5,29.37,NNE,19,0.0,3.0,100,0.00,,OVC010,0.00,VWS V14.01,2013-11-17 14:00:00,
2013-11-17 09:01:00,64.5,64.5,29.37,NNE,21,1.0,1.0,100,0.00,,FEW070,0.00,VWS V14.01,2013-11-17 14:01:00,
2013-11-17 09:02:00,64.5,64.5,29.37,NNE,24,3.0,4.0,100,0.00,,OVC010,0.00,VWS V14.01,2013-11-17 14:02:00,
2013-11-17 09:03:00,64.5,64.5,29.37,NE,36,2.0,3.0,100,0.00,,OVC010,0.00,VWS V14.01,2013-11-17 14:03:00,
2013-11-17 09:04:00,64.5,64.5,29.37,NE,51,1.0,4.0,100,0.00,,OVC010,0.00,VWS V14.01,2013-11-17 14:04:00,
2013-11-17 09:05:00,64.5,64.5,29.37,NE,50,2.0,6.0,100,0.00,,OVC010,0.00,VWS V14.01,2013-11-17 14:05:00,
2013-11-17 09:06:00,64.5,64.5,29.37,NNW,346,4.0,4.0,100,0.00,,FEW070,0.00,VWS V14.01,2013-11-17 14:06:00,
2013-11-17 09:07:00,64.5,64.5,29.37,North,5,2.0,4.0,100,0.00,,OVC010,0.00,VWS V14.01,2013-11-17 14:07:00,
2013-11-17 09:08:00,64.5,64.5,29.37,North,5,2.0,2.0,100,0.00,,OVC010,0.00,VWS V14.01,2013-11-17 14:08:00,
2013-11-17 09:09:00,64.5,64.5,29.37,North,5,3.0,3.0,100,0.00,,OVC010,0.00,VWS V14.01,2013-11-17 14:09:00,
2013-11-17 09:10:00,64.5,64.5,29.37,NNW,342,3.0,4.0,100,0.00,,OVC010,0.00,VWS V14.01,2013-11-17 14:10:00,
2013-11-17 09:11:00,64.5,64.5,29.37,NNE,20,2.0,3.0,100,0.00,,FEW070,0.00,VWS V14.01,2013-11-17 14:11:00,
2013-11-17 09:12:00,64.5,64.5,29.37,NNW,341,5.0,5.0,100,0.00,,OVC010,0.00,VWS V14.01,2013-11-17 14:12:00,
2013-11-17 09:13:00,64.3,64.3,29.37,NNW,348,4.0,5.0,100,0.00,,OVC010,0.00,VWS V14.01,2013-11-17 14:13:00,
2013-11-17 09:14:00,64.3,64.3,30.10,North,360,4.0,4.0,100,0.00,,OVC010,0.00,VWS V14.01,2013-11-17 14:14:00,
2013-11-17 09:15:00,64.3,64.3,30.10,North,355,2.0,6.0,100,0.00,,OVC010,0.00,VWS V14.01,2013-11-17 14:15:00,
2013-11-17 09:16:00,64.3,64.3,29.83,NNE,29,1.0,2.0,100,0.00,,FEW070,0.00,VWS V14.01,2013-11-17 14:16:00,
2013-11-17 09:17:00,64.3,64.3,29.83,NNW,330,3.0,3.0,100,0.00,,OVC010,0.00,VWS V14.01,2013-11-17 14:17:00,
2013-11-17 09:18:00,64.3,64.3,29.83,North,360,4.0,4.0,100,0.00,,OVC010,0.00,VWS V14.01,2013-11-17 14:18:00,
2013-11-17 09:19:00,64.3,64.3,29.83,North,355,4.0,6.0,100,0.00,,OVC010,0.00,VWS V14.01,2013-11-17 14:19:00,
2013-11-17 09:20:00,64.3,64.3,29.83,North,355,5.0,5.0,100,0.00,,OVC010,0.00,VWS V14.01,2013-11-17 14:20:00,
2013-11-17 09:21:00,64.3,64.3,30.10,North,5,4.0,4.0,100,0.00,,FEW070,0.00,VWS V14.01,2013-11-17 14:21:00,
2013-11-17 09:22:00,64.3,64.3,30.10,North,355,5.0,5.0,100,0.00,,OVC010,0.00,VWS V14.01,2013-11-17 14:22:00,
2013-11-17 09:23:00,64.3,64.3,30.10,North,5,1.0,5.0,100,0.00,,OVC010,0.00,VWS V14.01,2013-11-17 14:23:00,
2013-11-17 09:24:00,64.5,64.5,30.10,North,350,4.0,4.0,100,0.00,,OVC010,0.00,VWS V14.01,2013-11-17 14:24:00,
2013-11-17 09:25:00,64.5,64.5,30.10,NNE,23,3.0,5.0,100,0.00,,OVC010,0.00,VWS V14.01,2013-11-17 14:25:00,
2013-11-17 09:26:00,64.7,64.7,30.10,ENE,64,5.0,6.0,100,0.00,,FEW070,0.00,VWS V14.01,2013-11-17 14:26:00,
2013-11-17 09:27:00,64.7,64.7,30.10,NE,51,3.0,7.0,100,0.00,,OVC010,0.00,VWS V14.01,2013-11-17 14:27:00,
2013-11-17 09:28:00,64.7,64.7,30.10,NE,38,2.0,5.0,100,0.00,,OVC010,0.00,VWS V14.01,2013-11-17 14:28:00,
2013-11-17 09:29:00,64.7,64.7,30.10,ENE,63,3.0,4.0,100,0.00,,OVC010,0.00,VWS V14.01,2013-11-17 14:29:00,
2013-11-17 09:30:00,64.8,64.8,30.10,East,89,3.0,6.0,100,0.00,,OVC010,0.00,VWS V14.01,2013-11-17 14:30:00,
2013-11-17 09:31:00,64.8,64.8,30.10,NE,35,2.0,4.0,100,0.00,,FEW070,0.00,VWS V14.01,2013-11-17 14:31:00,
2013-11-17 09:32:00,64.8,64.8,30.10,NE,34,3.0,4.0,100,0.00,,OVC010,0.00,VWS V14.01,2013-11-17 14:32:00,
2013-11-17 09:33:00,64.8,64.8,30.10,NNE,18,4.0,5.0,100,0.00,,OVC010,0.00,VWS V14.01,2013-11-17 14:33:00,
2013-11-17 09:34:00,64.8,64.8,30.10,ENE,62,3.0,4.0,100,0.00,,OVC010,0.00,VWS V14.01,2013-11-17 14:34:00,
2013-11-17 09:35:00,64.8,64.8,30.10,NE,37,1.0,3.0,100,0.00,,OVC010,0.00,VWS V14.01,2013-11-17 14:35:00,
2013-11-17 09:36:00,64.7,64.7,30.10,NE,36,6.0,6.0,100,0.00,,BKN075,0.00,VWS V14.01,2013-11-17 14:36:00,
2013-11-17 09:37:00,64.7,64.7,30.10,NNE,33,9.0,9.0,100,0.00,,OVC010,0.00,VWS V14.01,2013-11-17 14:37:00,
2013-11-17 09:38:00,64.7,64.7,30.10,NE,49,2.0,9.0,100,0.00,,OVC010,0.00,VWS V14.01,2013-11-17 14:38:00,
2013-11-17 09:39:00,64.7,64.7,30.10,ENE,57,5.0,6.0,100,0.00,,OVC010,0.00,VWS V14.01,2013-11-17 14:39:00,
2013-11-17 09:40:00,64.7,64.7,30.10,NE,43,2.0,5.0,100,0.00,,OVC010,0.00,VWS V14.01,2013-11-17 14:40:00,
2013-11-17 09:41:00,64.7,64.7,30.10,NE,40,5.0,5.0,100,0.00,,BKN075,0.00,VWS V14.01,2013-11-17 14:41:00,
2013-11-17 09:42:00,64.7,64.7,30.10,NNE,32,3.0,5.0,100,0.00,,OVC010,0.00,VWS V14.01,2013-11-17 14:42:00,
2013-11-17 09:43:00,64.7,64.7,30.10,ENE,59,4.0,5.0,100,0.00,,OVC010,0.00,VWS V14.01,2013-11-17 14:43:00,
2013-11-17 09:44:00,64.7,64.7,30.10,NNE,33,2.0,5.0,100,0.00,,OVC010,0.00,VWS V14.01,2013-11-17 14:44:00,
2013-11-17 09:45:00,64.7,64.7,30.10,NE,49,8.0,8.0,100,0.00,,OVC010,0.00,VWS V14.01,2013-11-17 14:45:00,
2013-11-17 09:46:00,64.7,64.7,30.10,NNE,24,2.0,4.0,100,0.00,,BKN075,0.00,VWS V14.01,2013-11-17 14:46:00,
2013-11-17 09:47:00,64.7,64.7,30.10,NNE,24,2.0,4.0,100,0.00,,OVC010,0.00,VWS V14.01,2013-11-17 14:47:00,
2013-11-17 09:48:00,64.7,64.7,30.10,NE,48,1.0,9.0,100,0.00,,OVC010,0.00,VWS V14.01,2013-11-17 14:48:00,
2013-11-17 09:49:00,64.7,64.7,30.10,NE,48,0.0,1.0,100,0.00,,OVC010,0.00,VWS V14.01,2013-11-17 14:49:00,
2013-11-17 09:50:00,64.7,64.7,29.86,NNW,340,4.0,5.0,100,0.00,,OVC010,0.00,VWS V14.01,2013-11-17 14:50:00,
2013-11-17 09:51:00,64.7,64.7,29.86,NNE,31,2.0,3.0,100,0.00,,OVC044,0.00,VWS V14.01,2013-11-17 14:51:00,
2013-11-17 09:52:00,64.7,64.7,29.86,NNE,24,2.0,3.0,100,0.00,,OVC010,0.00,VWS V14.01,2013-11-17 14:52:00,
2013-11-17 09:53:00,64.8,64.8,29.86,North,11,3.0,5.0,100,0.00,,OVC010,0.00,VWS V14.01,2013-11-17 14:53:00,
2013-11-17 09:54:00,64.8,64.8,29.86,NE,36,2.0,3.0,100,0.00,,OVC010,0.00,VWS V14.01,2013-11-17 14:54:00,
2013-11-17 09:55:00,64.7,64.7,29.86,NNW,342,2.0,4.0,100,0.00,,OVC010,0.00,VWS V14.01,2013-11-17 14:55:00,
2013-11-17 09:56:00,64.7,64.7,29.86,North,355,4.0,4.0,100,0.00,,OVC044,0.00,VWS V14.01,2013-11-17 14:56:00,
2013-11-17 09:57:00,64.7,64.7,29.86,NNE,19,2.0,4.0,100,0.00,,OVC010,0.00,VWS V14.01,2013-11-17 14:57:00,
2013-11-17 09:58:00,64.8,64.8,29.86,NE,37,2.0,3.0,100,0.00,,OVC010,0.00,VWS V14.01,2013-11-17 14:58:00,
2013-11-17 09:59:00,64.8,64.8,29.86,NE,38,2.0,2.0,100,0.00,,OVC010,0.00,VWS V14.01,2013-11-17 14:59:00,
2013-11-17 10:00:00,64.8,64.8,29.86,NE,52,3.0,5.0,100,0.00,,OVC010,0.00,VWS V14.01,2013-11-17 15:00:00,
2013-11-17 10:01:00,64.8,64.8,29.86,North,355,5.0,5.0,100,0.00,,OVC044,0.00,VWS V14.01,2013-11-17 15:01:00,
2013-11-17 10:02:00,64.8,64.8,29.86,North,9,1.0,5.0,100,0.00,,OVC010,0.00,VWS V14.01,2013-11-17 15:02:00,
2013-11-17 10:03:00,65.0,65.0,29.86,North,9,3.0,4.0,100,0.00,,OVC010,0.00,VWS V14.01,2013-11-17 15:03:00,
2013-11-17 10:04:00,65.0,65.0,29.86,NNW,347,1.0,3.0,100,0.00,,OVC010,0.00,VWS V14.01,2013-11-17 15:04:00,
2013-11-17 10:05:00,65.2,65.2,29.86,NNE,24,3.0,4.0,100,0.00,,OVC010,0.00,VWS V14.01,2013-11-17 15:05:00,
2013-11-17 10:06:00,65.2,65.2,29.86,North,360,5.0,5.0,100,0.00,,OVC044,0.00,VWS V14.01,2013-11-17 15:06:00,
2013-11-17 10:07:00,65.3,65.3,29.86,NE,36,3.0,5.0,100,0.00,,OVC010,0.00,VWS V14.01,2013-11-17 15:07:00,
2013-11-17 10:08:00,65.3,65.3,29.86,NE,37,3.0,3.0,100,0.00,,OVC010,0.00,VWS V14.01,2013-11-17 15:08:00,
2013-11-17 10:09:00,65.5,65.5,29.86,ENE,60,3.0,4.0,100,0.00,,OVC010,0.00,VWS V14.01,2013-11-17 15:09:00,
2013-11-17 10:10:00,65.6,65.6,29.86,NE,50,3.0,4.0,100,0.00,,OVC010,0.00,VWS V14.01,2013-11-17 15:10:00,
2013-11-17 10:11:00,65.8,65.8,29.86,NNE,19,6.0,6.0,100,0.00,,OVC044,0.00,VWS V14.01,2013-11-17 15:11:00,
2013-11-17 10:12:00,66.0,66.0,29.86,ENE,64,6.0,9.0,100,0.00,,OVC010,0.00,VWS V14.01,2013-11-17 15:12:00,
2013-11-17 10:13:00,66.1,66.1,29.86,NE,46,1.0,6.0,100,0.00,,OVC010,0.00,VWS V14.01,2013-11-17 15:13:00,
2013-11-17 10:14:00,66.1,66.1,29.86,NE,34,2.0,2.0,100,0.00,,OVC010,0.00,VWS V14.01,2013-11-17 15:14:00,
2013-11-17 10:15:00,66.3,66.3,29.86,North,5,4.0,4.0,100,0.00,,OVC010,0.00,VWS V14.01,2013-11-17 15:15:00,
2013-11-17 10:16:00,66.4,66.4,29.86,NE,53,1.0,2.0,100,0.00,,OVC044,0.00,VWS V14.01,2013-11-17 15:16:00,
2013-11-17 10:17:00,66.4,66.4,29.86,ENE,67,2.0,3.0,100,0.00,,OVC010,0.00,VWS V14.01,2013-11-17 15:17:00,
2013-11-17 10:18:00,66.6,66.6,29.86,ENE,74,6.0,6.0,100,0.00,,OVC010,0.00,VWS V14.01,2013-11-17 15:18:00,
2013-11-17 10:19:00,66.6,66.6,29.86,NE,34,6.0,6.0,100,0.00,,OVC010,0.00,VWS V14.01,2013-11-17 15:19:00,
2013-11-17 10:20:00,66.6,66.6,29.86,ENE,67,9.0,10.0,100,0.00,,OVC010,0.00,VWS V14.01,2013-11-17 15:20:00,
2013-11-17 10:21:00,66.6,66.6,29.86,NE,56,5.0,5.0,100,0.00,,OVC044,0.00,VWS V14.01,2013-11-17 15:21:00,
2013-11-17 10:22:00,66.8,66.8,29.86,ENE,74,5.0,6.0,100,0.00,,OVC010,0.00,VWS V14.01,2013-11-17 15:22:00,
2013-11-17 10:23:00,66.8,66.8,29.86,ENE,63,3.0,6.0,100,0.00,,OVC010,0.00,VWS V14.01,2013-11-17 15:23:00,
2013-11-17 10:24:00,66.8,66.8,29.86,NNE,30,4.0,4.0,100,0.00,,OVC010,0.00,VWS V14.01,2013-11-17 15:24:00,
2013-11-17 10:25:00,66.9,66.9,30.07,ENE,70,7.0,7.0,100,0.00,,OVC010,0.00,VWS V14.01,2013-11-17 15:25:00,
2013-11-17 10:26:00,66.9,66.9,30.07,ENE,65,2.0,3.0,100,0.00,,OVC044,0.00,VWS V14.01,2013-11-17 15:26:00,
2013-11-17 10:27:00,67.1,67.1,30.07,ENE,65,2.0,3.0,100,0.00,,OVC010,0.00,VWS V14.01,2013-11-17 15:27:00,
2013-11-17 10:28:00,67.1,67.1,30.07,ENE,63,5.0,5.0,100,0.00,,OVC010,0.00,VWS V14.01,2013-11-17 15:28:00,
2013-11-17 10:29:00,67.1,67.1,30.07,NE,39,3.0,5.0,100,0.00,,OVC010,0.00,VWS V14.01,2013-11-17 15:29:00,
2013-11-17 10:30:00,67.1,67.1,30.07,ENE,61,8.0,8.0,100,0.00,,OVC010,0.00,VWS V14.01,2013-11-17 15:30:00,
2013-11-17 10:31:00,67.1,67.1,30.07,NE,47,5.0,5.0,100,0.00,,OVC044,0.00,VWS V14.01,2013-11-17 15:31:00,
2013-11-17 10:32:00,67.1,67.1,30.07,NE,52,4.0,5.0,100,0.00,,OVC010,0.00,VWS V14.01,2013-11-17 15:32:00,
2013-11-17 10:33:00,67.1,67.1,30.07,NE,45,2.0,7.0,100,0.00,,OVC010,0.00,VWS V14.01,2013-11-17 15:33:00,
2013-11-17 10:34:00,67.1,67.1,30.07,NE,43,9.0,9.0,100,0.00,,OVC010,0.00,VWS V14.01,2013-11-17 15:34:00,
2013-11-17 10:35:00,67.1,67.1,30.07,NE,53,6.0,9.0,100,0.00,,OVC010,0.00,VWS V14.01,2013-11-17 15:35:00,
2013-11-17 10:36:00,67.3,67.3,30.07,ENE,65,4.0,4.0,100,0.00,,OVC040,0.00,VWS V14.01,2013-11-17 15:36:00,
2013-11-17 10:37:00,67.3,67.3,30.07,ENE,58,6.0,6.0,100,0.00,,OVC010,0.00,VWS V14.01,2013-11-17 15:37:00,
2013-11-17 10:38:00,67.3,67.3,30.07,ENE,57,3.0,6.0,100,0.00,,OVC010,0.00,VWS V14.01,2013-11-17 15:38:00,
2013-11-17 10:39:00,67.3,67.3,30.06,East,80,4.0,6.0,100,0.00,,OVC010,0.00,VWS V14.01,2013-11-17 15:39:00,
2013-11-17 10:40:00,67.3,67.3,30.04,ENE,62,4.0,5.0,100,0.00,,OVC010,0.00,VWS V14.01,2013-11-17 15:40:00,
2013-11-17 10:41:00,67.3,67.3,30.04,NE,39,4.0,5.0,100,0.00,,OVC040,0.00,VWS V14.01,2013-11-17 15:41:00,
2013-11-17 10:42:00,67.3,67.3,30.04,ENE,67,5.0,5.0,100,0.00,,OVC010,0.00,VWS V14.01,2013-11-17 15:42:00,
2013-11-17 10:43:00,67.3,67.3,30.04,NE,50,10.0,10.0,100,0.00,,OVC010,0.00,VWS V14.01,2013-11-17 15:43:00,
2013-11-17 10:44:00,67.3,67.3,30.04,ENE,65,3.0,10.0,100,0.00,,OVC010,0.00,VWS V14.01,2013-11-17 15:44:00,
2013-11-17 10:45:00,67.4,67.4,30.04,ENE,63,5.0,5.0,100,0.00,,OVC010,0.00,VWS V14.01,2013-11-17 15:45:00,
2013-11-17 10:46:00,67.4,67.4,29.99,ENE,67,1.0,1.0,100,0.00,,OVC040,0.00,VWS V14.01,2013-11-17 15:46:00,
2013-11-17 10:47:00,67.4,67.4,29.99,ENE,67,1.0,1.0,100,0.00,,OVC010,0.00,VWS V14.01,2013-11-17 15:47:00,
2013-11-17 10:48:00,67.4,67.4,30.05,ENE,67,0.0,2.0,100,0.00,,OVC010,0.00,VWS V14.01,2013-11-17 15:48:00,
2013-11-17 10:49:00,67.6,67.6,30.05,ENE,62,4.0,4.0,100,0.00,,OVC010,0.00,VWS V14.01,2013-11-17 15:49:00,
2013-11-17 10:50:00,67.6,67.6,30.04,NNW,336,4.0,4.0,100,0.00,,OVC010,0.00,VWS V14.01,2013-11-17 15:50:00,
2013-11-17 10:51:00,67.4,67.4,30.04,North,355,1.0,4.0,100,0.00,,OVC060,0.00,VWS V14.01,2013-11-17 15:51:00,
2013-11-17 10:52:00,67.3,67.3,30.04,North,355,2.0,4.0,100,0.00,,OVC010,0.00,VWS V14.01,2013-11-17 15:52:00,
2013-11-17 10:53:00,67.3,67.3,30.02,NE,35,5.0,5.0,100,0.00,,OVC010,0.00,VWS V14.01,2013-11-17 15:53:00,
2013-11-17 10:54:00,67.1,67.1,30.02,NNE,22,2.0,5.0,100,0.00,,OVC010,0.00,VWS V14.01,2013-11-17 15:54:00,
2013-11-17 10:55:00,67.1,67.1,30.02,NNE,28,5.0,5.0,100,0.00,,OVC010,0.00,VWS V14.01,2013-11-17 15:55:00,
2013-11-17 10:56:00,66.9,66.9,30.02,NNE,17,3.0,4.0,100,0.00,,OVC060,0.00,VWS V14.01,2013-11-17 15:56:00,
2013-11-17 10:57:00,66.9,66.9,30.02,NE,51,2.0,4.0,100,0.00,,OVC010,0.00,VWS V14.01,2013-11-17 15:57:00,
2013-11-17 10:58:00,66.9,66.9,30.02,NNE,15,2.0,2.0,100,0.00,,OVC010,0.00,VWS V14.01,2013-11-17 15:58:00,
2013-11-17 10:59:00,66.9,66.9,30.02,NNE,22,4.0,4.0,100,0.00,,OVC010,0.00,VWS V14.01,2013-11-17 15:59:00,
2013-11-17 11:00:00,66.8,66.8,30.02,NNW,347,1.0,4.0,100,0.00,,OVC010,0.00,VWS V14.01,2013-11-17 16:00:00,
2013-11-17 11:01:00,66.8,66.8,30.02,North,349,1.0,3.0,100,0.00,,OVC060,0.00,VWS V14.01,2013-11-17 16:01:00,
2013-11-17 11:02:00,66.8,66.8,30.02,NE,40,5.0,5.0,100,0.00,,OVC010,0.00,VWS V14.01,2013-11-17 16:02:00,
2013-11-17 11:03:00,66.8,66.8,29.90,NE,40,0.0,5.0,100,0.00,,OVC010,0.00,VWS V14.01,2013-11-17 16:03:00,
2013-11-17 11:04:00,66.8,66.8,29.88,NE,52,2.0,3.0,100,0.00,,OVC010,0.00,VWS V14.01,2013-11-17 16:04:00,
2013-11-17 11:05:00,66.8,66.8,29.88,NE,52,3.0,4.0,100,0.00,,OVC010,0.00,VWS V14.01,2013-11-17 16:05:00,
2013-11-17 11:06:00,66.8,66.8,29.88,ENE,59,4.0,4.0,100,0.00,,OVC060,0.00,VWS V14.01,2013-11-17 16:06:00,
2013-11-17 11:07:00,66.6,66.6,29.88,NE,55,2.0,4.0,100,0.00,,OVC010,0.00,VWS V14.01,2013-11-17 16:07:00,
2013-11-17 11:08:00,66.6,66.6,29.88,NE,51,2.0,4.0,100,0.00,,OVC010,0.00,VWS V14.01,2013-11-17 16:08:00,
2013-11-17 11:09:00,66.6,66.6,29.88,NE,51,0.0,2.0,100,0.00,,OVC010,0.00,VWS V14.01,2013-11-17 16:09:00,
2013-11-17 11:10:00,66.8,66.8,29.88,NE,42,2.0,3.0,100,0.00,,OVC010,0.00,VWS V14.01,2013-11-17 16:10:00,
2013-11-17 11:11:00,66.9,66.9,29.88,NE,46,3.0,5.0,100,0.00,,OVC060,0.00,VWS V14.01,2013-11-17 16:11:00,
2013-11-17 11:12:00,66.9,66.9,29.88,NE,46,2.0,5.0,100,0.00,,OVC010,0.00,VWS V14.01,2013-11-17 16:12:00,
2013-11-17 11:13:00,67.1,67.1,29.88,NE,46,1.0,3.0,100,0.00,,OVC010,0.00,VWS V14.01,2013-11-17 16:13:00,
2013-11-17 11:14:00,67.3,67.3,29.88,NE,44,2.0,3.0,100,0.00,,OVC010,0.00,VWS V14.01,2013-11-17 16:14:00,
2013-11-17 11:15:00,67.3,67.3,29.88,ENE,58,4.0,4.0,100,0.00,,OVC010,0.00,VWS V14.01,2013-11-17 16:15:00,
2013-11-17 11:16:00,67.4,67.4,30.09,NE,36,4.0,4.0,100,0.00,,OVC060,0.00,VWS V14.01,2013-11-17 16:16:00,
2013-11-17 11:17:00,67.6,67.6,30.09,NE,36,1.0,4.0,100,0.00,,OVC010,0.00,VWS V14.01,2013-11-17 16:17:00,
2013-11-17 11:18:00,67.6,67.6,30.09,NE,36,3.0,3.0,100,0.00,,OVC010,0.00,VWS V14.01,2013-11-17 16:18:00,
2013-11-17 11:19:00,67.8,67.8,30.09,NE,38,1.0,3.0,100,0.00,,OVC010,0.00,VWS V14.01,2013-11-17 16:19:00,
2013-11-17 11:20:00,67.9,67.9,30.09,NE,37,2.0,2.0,100,0.00,,OVC010,0.00,VWS V14.01,2013-11-17 16:20:00,
2013-11-17 11:21:00,67.9,67.9,30.09,NE,37,3.0,3.0,100,0.00,,OVC060,0.00,VWS V14.01,2013-11-17 16:21:00,
2013-11-17 11:22:00,67.9,67.9,30.09,NNE,32,3.0,3.0,100,0.00,,OVC010,0.00,VWS V14.01,2013-11-17 16:22:00,
2013-11-17 11:23:00,67.9,67.9,30.09,NNE,28,3.0,3.0,100,0.00,,OVC010,0.00,VWS V14.01,2013-11-17 16:23:00,
2013-11-17 11:24:00,67.8,67.8,30.09,North,355,2.0,5.0,100,0.00,,OVC010,0.00,VWS V14.01,2013-11-17 16:24:00,
2013-11-17 11:25:00,67.8,67.8,30.00,NE,39,4.0,4.0,100,0.00,,OVC010,0.00,VWS V14.01,2013-11-17 16:25:00,
2013-11-17 11:26:00,67.8,67.8,29.91,NE,47,2.0,2.0,100,0.00,,OVC060,0.00,VWS V14.01,2013-11-17 16:26:00,
2013-11-17 11:27:00,67.8,67.8,29.91,North,351,3.0,3.0,100,0.00,,OVC010,0.00,VWS V14.01,2013-11-17 16:27:00,
2013-11-17 11:28:00,67.8,67.8,29.91,North,355,1.0,4.0,100,0.00,,OVC010,0.00,VWS V14.01,2013-11-17 16:28:00,
2013-11-17 11:29:00,67.8,67.8,29.91,North,360,4.0,4.0,100,0.00,,OVC010,0.00,VWS V14.01,2013-11-17 16:29:00,
2013-11-17 11:30:00,67.8,67.8,29.91,North,5,4.0,4.0,100,0.00,,OVC010,0.00,VWS V14.01,2013-11-17 16:30:00,
2013-11-17 11:31:00,67.8,67.8,29.91,North,5,3.0,3.0,100,0.00,,OVC060,0.00,VWS V14.01,2013-11-17 16:31:00,
2013-11-17 11:32:00,67.8,67.8,29.91,North,5,1.0,3.0,100,0.00,,OVC010,0.00,VWS V14.01,2013-11-17 16:32:00,
2013-11-17 11:33:00,67.8,67.8,29.68,NNE,19,4.0,4.0,100,0.00,,OVC010,0.00,VWS V14.01,2013-11-17 16:33:00,
2013-11-17 11:34:00,67.8,67.8,29.68,NE,43,3.0,4.0,100,0.00,,OVC010,0.00,VWS V14.01,2013-11-17 16:34:00,
2013-11-17 11:35:00,67.8,67.8,29.68,NE,43,1.0,3.0,100,0.00,,OVC010,0.00,VWS V14.01,2013-11-17 16:35:00,
2013-11-17 11:36:00,67.8,67.8,29.68,NE,55,2.0,3.0,100,0.00,,OVC060,0.00,VWS V14.01,2013-11-17 16:36:00,
2013-11-17 11:37:00,67.8,67.8,29.68,NE,55,2.0,3.0,100,0.00,,OVC010,0.00,VWS V14.01,2013-11-17 16:37:00,
2013-11-17 11:38:00,67.8,67.8,29.68,NE,55,3.0,3.0,100,0.00,,OVC010,0.00,VWS V14.01,2013-11-17 16:38:00,
2013-11-17 11:39:00,67.9,67.9,29.68,ENE,57,2.0,3.0,100,0.00,,OVC010,0.00,VWS V14.01,2013-11-17 16:39:00,
2013-11-17 11:40:00,68.1,68.1,29.68,ENE,57,2.0,2.0,100,0.00,,OVC010,0.00,VWS V14.01,2013-11-17 16:40:00,
2013-11-17 11:41:00,68.1,68.1,30.08,ENE,57,3.0,4.0,100,0.00,,OVC060,0.00,VWS V14.01,2013-11-17 16:41:00,
2013-11-17 11:42:00,68.3,68.3,30.08,ENE,62,2.0,4.0,100,0.00,,OVC010,0.00,VWS V14.01,2013-11-17 16:42:00,
2013-11-17 11:43:00,68.3,68.3,30.08,ENE,69,4.0,4.0,100,0.00,,OVC010,0.00,VWS V14.01,2013-11-17 16:43:00,
2013-11-17 11:44:00,68.4,68.4,30.08,ENE,68,3.0,4.0,100,0.00,,OVC010,0.00,VWS V14.01,2013-11-17 16:44:00,
2013-11-17 11:45:00,68.6,68.6,29.90,ENE,74,2.0,3.0,100,0.00,,OVC010,0.00,VWS V14.01,2013-11-17 16:45:00,
2013-11-17 11:46:00,68.8,68.8,29.90,ENE,65,5.0,5.0,100,0.00,,OVC060,0.00,VWS V14.01,2013-11-17 16:46:00,
2013-11-17 11:47:00,68.8,68.8,29.90,ENE,69,4.0,5.0,100,0.00,,OVC010,0.00,VWS V14.01,2013-11-17 16:47:00,
2013-11-17 11:48:00,68.8,68.8,29.90,ENE,69,3.0,5.0,100,0.00,,OVC010,0.00,VWS V14.01,2013-11-17 16:48:00,
2013-11-17 11:49:00,68.8,68.8,29.90,ENE,69,0.0,3.0,100,0.00,,OVC010,0.00,VWS V14.01,2013-11-17 16:49:00,
2013-11-17 11:50:00,68.9,68.9,29.90,ENE,69,1.0,2.0,100,0.00,,OVC010,0.00,VWS V14.01,2013-11-17 16:50:00,
2013-11-17 11:51:00,68.9,68.9,29.90,ENE,69,3.0,3.0,100,0.00,,OVC120,0.00,VWS V14.01,2013-11-17 16:51:00,
2013-11-17 11:52:00,68.9,68.9,29.90,ENE,69,2.0,3.0,100,0.00,,OVC010,0.00,VWS V14.01,2013-11-17 16:52:00,
2013-11-17 11:53:00,69.1,69.1,29.90,ENE,69,2.0,3.0,100,0.00,,OVC010,0.00,VWS V14.01,2013-11-17 16:53:00,
2013-11-17 11:54:00,69.1,69.1,29.90,ENE,71,1.0,3.0,100,0.00,,OVC010,0.00,VWS V14.01,2013-11-17 16:54:00,
2013-11-17 11:55:00,69.1,69.1,29.90,ENE,71,2.0,3.0,100,0.00,,OVC010,0.00,VWS V14.01,2013-11-17 16:55:00,
2013-11-17 11:56:00,69.3,69.3,29.90,ENE,71,2.0,2.0,100,0.00,,OVC120,0.00,VWS V14.01,2013-11-17 16:56:00,
2013-11-17 11:57:00,69.4,69.4,29.90,ENE,76,2.0,2.0,100,0.00,,OVC010,0.00,VWS V14.01,2013-11-17 16:57:00,
2013-11-17 11:58:00,69.6,69.6,29.90,ENE,76,2.0,2.0,100,0.00,,OVC010,0.00,VWS V14.01,2013-11-17 16:58:00,
2013-11-17 11:59:00,69.8,69.8,29.90,ENE,65,4.0,4.0,100,0.00,,OVC010,0.00,VWS V14.01,2013-11-17 16:59:00,
2013-11-17 12:00:00,69.8,69.8,29.90,East,82,1.0,5.0,100,0.00,,OVC010,0.00,VWS V14.01,2013-11-17 17:00:00,
2013-11-17 12:01:00,69.9,69.9,30.06,East,82,2.0,2.0,100,0.00,,OVC120,0.00,VWS V14.01,2013-11-17 17:01:00,
2013-11-17 12:02:00,69.9,69.9,30.06,East,82,2.0,2.0,100,0.00,,OVC010,0.00,VWS V14.01,2013-11-17 17:02:00,
2013-11-17 12:03:00,70.1,70.1,30.06,ENE,76,2.0,3.0,100,0.00,,OVC010,0.00,VWS V14.01,2013-11-17 17:03:00,
2013-11-17 12:04:00,70.1,70.1,30.06,ENE,76,2.0,3.0,100,0.00,,OVC010,0.00,VWS V14.01,2013-11-17 17:04:00,
2013-11-17 12:05:00,70.1,70.1,30.06,NE,46,4.0,4.0,100,0.00,,OVC010,0.00,VWS V14.01,2013-11-17 17:05:00,
2013-11-17 12:06:00,70.1,70.1,30.02,ENE,67,3.0,3.0,100,0.00,,OVC120,0.00,VWS V14.01,2013-11-17 17:06:00,
2013-11-17 12:07:00,70.1,70.1,30.02,East,83,3.0,3.0,100,0.00,,OVC010,0.00,VWS V14.01,2013-11-17 17:07:00,
2013-11-17 12:08:00,70.1,70.1,30.02,ENE,78,3.0,3.0,100,0.00,,OVC010,0.00,VWS V14.01,2013-11-17 17:08:00,
2013-11-17 12:09:00,70.1,70.1,29.87,East,82,2.0,3.0,100,0.00,,OVC010,0.00,VWS V14.01,2013-11-17 17:09:00,
2013-11-17 12:10:00,70.1,70.1,29.87,ENE,65,4.0,5.0,100,0.00,,OVC010,0.00,VWS V14.01,2013-11-17 17:10:00,
2013-11-17 12:11:00,70.1,70.1,29.87,ENE,76,5.0,6.0,100,0.00,,OVC120,0.00,VWS V14.01,2013-11-17 17:11:00,
2013-11-17 12:12:00,70.1,70.1,29.87,ENE,77,3.0,6.0,100,0.00,,OVC010,0.00,VWS V14.01,2013-11-17 17:12:00,
2013-11-17 12:13:00,70.1,70.1,29.87,ENE,67,4.0,5.0,100,0.00,,OVC010,0.00,VWS V14.01,2013-11-17 17:13:00,
2013-11-17 12:14:00,70.1,70.1,29.87,ENE,71,5.0,5.0,100,0.00,,OVC010,0.00,VWS V14.01,2013-11-17 17:14:00,
2013-11-17 12:15:00,69.9,69.9,29.87,ENE,76,2.0,5.0,100,0.00,,OVC010,0.00,VWS V14.01,2013-11-17 17:15:00,
2013-11-17 12:16:00,70.1,70.1,29.87,ENE,76,2.0,2.0,100,0.00,,OVC120,0.00,VWS V14.01,2013-11-17 17:16:00,
2013-11-17 12:17:00,70.1,70.1,29.87,East,92,2.0,4.0,100,0.00,,OVC010,0.00,VWS V14.01,2013-11-17 17:17:00,
2013-11-17 12:18:00,70.1,70.1,29.87,ENE,69,3.0,4.0,100,0.00,,OVC010,0.00,VWS V14.01,2013-11-17 17:18:00,
2013-11-17 12:19:00,70.1,70.1,29.80,ENE,71,3.0,4.0,100,0.00,,OVC010,0.00,VWS V14.01,2013-11-17 17:19:00,
2013-11-17 12:20:00,70.3,70.3,29.80,ENE,76,2.0,5.0,100,0.00,,OVC010,0.00,VWS V14.01,2013-11-17 17:20:00,
2013-11-17 12:21:00,70.3,70.3,29.80,ENE,67,2.0,5.0,100,0.00,,OVC120,0.00,VWS V14.01,2013-11-17 17:21:00,
2013-11-17 12:22:00,70.3,70.3,29.80,ENE,58,5.0,5.0,100,0.00,,OVC010,0.00,VWS V14.01,2013-11-17 17:22:00,
2013-11-17 12:23:00,70.3,70.3,29.71,ENE,70,2.0,5.0,100,0.00,,OVC010,0.00,VWS V14.01,2013-11-17 17:23:00,
2013-11-17 12:24:00,70.3,70.3,29.71,ENE,64,5.0,5.0,100,0.00,,OVC010,0.00,VWS V14.01,2013-11-17 17:24:00,
2013-11-17 12:25:00,70.3,70.3,29.62,ENE,65,5.0,5.0,100,0.00,,OVC010,0.00,VWS V14.01,2013-11-17 17:25:00,
2013-11-17 12:26:00,70.3,70.3,29.62,ENE,61,2.0,5.0,100,0.00,,OVC120,0.00,VWS V14.01,2013-11-17 17:26:00,
2013-11-17 12:27:00,70.3,70.3,29.62,ENE,76,3.0,4.0,100,0.00,,OVC010,0.00,VWS V14.01,2013-11-17 17:27:00,
2013-11-17 12:28:00,70.3,70.3,29.62,ENE,68,3.0,4.0,100,0.00,,OVC010,0.00,VWS V14.01,2013-11-17 17:28:00,
2013-11-17 12:29:00,70.4,70.4,29.62,ENE,68,4.0,4.0,100,0.00,,OVC010,0.00,VWS V14.01,2013-11-17 17:29:00,
2013-11-17 12:30:00,70.4,70.4,29.62,ENE,68,1.0,4.0,100,0.00,,OVC010,0.00,VWS V14.01,2013-11-17 17:30:00,
2013-11-17 12:31:00,70.4,70.4,29.62,ENE,68,0.0,3.0,100,0.00,,OVC120,0.00,VWS V14.01,2013-11-17 17:31:00,
2013-11-17 12:32:00,70.6,70.6,29.62,ENE,68,4.0,4.0,100,0.00,,OVC010,0.00,VWS V14.01,2013-11-17 17:32:00,
2013-11-17 12:33:00,70.8,70.8,29.62,ENE,68,1.0,4.0,100,0.00,,OVC010,0.00,VWS V14.01,2013-11-17 17:33:00,
2013-11-17 12:34:00,70.8,70.8,29.62,ENE,69,5.0,5.0,100,0.00,,OVC010,0.00,VWS V14.01,2013-11-17 17:34:00,
2013-11-17 12:35:00,70.8,70.8,29.63,ENE,73,1.0,3.0,100,0.00,,OVC046,0.00,VWS V14.01,2013-11-17 17:35:00,
2013-11-17 12:36:00,70.8,70.8,29.63,ENE,73,1.0,3.0,100,0.00,,OVC010,0.00,VWS V14.01,2013-11-17 17:36:00,
2013-11-17 12:37:00,70.8,70.8,29.63,ENE,73,2.0,3.0,100,0.00,,OVC010,0.00,VWS V14.01,2013-11-17 17:37:00,
2013-11-17 12:38:00,70.9,70.9,29.63,ENE,73,3.0,3.0,100,0.00,,OVC010,0.00,VWS V14.01,2013-11-17 17:38:00,
2013-11-17 12:39:00,70.9,70.9,29.63,ENE,74,3.0,3.0,100,0.00,,OVC010,0.00,VWS V14.01,2013-11-17 17:39:00,
2013-11-17 12:40:00,71.1,71.1,29.63,ENE,74,0.0,0.0,100,0.00,,OVC046,0.00,VWS V14.01,2013-11-17 17:40:00,
2013-11-17 12:41:00,71.1,71.1,29.63,ENE,74,0.0,1.0,100,0.00,,OVC010,0.00,VWS V14.01,2013-11-17 17:41:00,
2013-11-17 12:42:00,71.3,71.3,29.63,ENE,74,2.0,2.0,100,0.00,,OVC010,0.00,VWS V14.01,2013-11-17 17:42:00,
2013-11-17 12:43:00,71.3,71.3,29.63,ENE,74,2.0,3.0,100,0.00,,OVC010,0.00,VWS V14.01,2013-11-17 17:43:00,
2013-11-17 12:44:00,71.5,71.5,29.63,ENE,74,1.0,2.0,100,0.00,,OVC010,0.00,VWS V14.01,2013-11-17 17:44:00,
2013-11-17 12:45:00,71.5,71.5,29.55,ENE,74,1.0,2.0,100,0.00,,OVC046,0.00,VWS V14.01,2013-11-17 17:45:00,
2013-11-17 12:46:00,71.5,71.5,29.55,ENE,74,1.0,2.0,100,0.00,,OVC010,0.00,VWS V14.01,2013-11-17 17:46:00,
2013-11-17 12:47:00,71.6,71.6,29.55,ENE,74,1.0,3.0,100,0.00,,OVC010,0.00,VWS V14.01,2013-11-17 17:47:00,
2013-11-17 12:48:00,71.6,71.6,29.55,ENE,74,1.0,2.0,100,0.00,,OVC010,0.00,VWS V14.01,2013-11-17 17:48:00,
2013-11-17 12:49:00,71.6,71.6,29.55,ENE,74,2.0,2.0,100,0.00,,OVC010,0.00,VWS V14.01,2013-11-17 17:49:00,
2013-11-17 12:50:00,71.8,71.8,29.55,ENE,74,3.0,3.0,100,0.00,,OVC046,0.00,VWS V14.01,2013-11-17 17:50:00,
2013-11-17 12:51:00,71.8,71.8,29.55,ENE,74,3.0,3.0,100,0.00,,OVC010,0.00,VWS V14.01,2013-11-17 17:51:00,
2013-11-17 12:52:00,71.6,71.6,29.55,ENE,74,0.0,3.0,100,0.00,,OVC010,0.00,VWS V14.01,2013-11-17 17:52:00,
2013-11-17 12:53:00,71.6,71.6,29.55,ENE,74,0.0,1.0,100,0.00,,OVC010,0.00,VWS V14.01,2013-11-17 17:53:00,
2013-11-17 12:54:00,71.8,71.8,29.52,ENE,74,0.0,0.0,100,0.00,,OVC010,0.00,VWS V14.01,2013-11-17 17:54:00,
2013-11-17 12:55:00,71.8,71.8,29.51,ENE,74,0.0,1.0,100,0.00,,OVC046,0.00,VWS V14.01,2013-11-17 17:55:00,
2013-11-17 12:56:00,71.8,71.8,29.51,ENE,74,0.0,1.0,100,0.00,,OVC010,0.00,VWS V14.01,2013-11-17 17:56:00,
2013-11-17 12:57:00,71.8,71.8,29.51,ENE,74,2.0,2.0,100,0.00,,OVC010,0.00,VWS V14.01,2013-11-17 17:57:00,
2013-11-17 12:58:00,71.8,71.8,29.51,ENE,74,1.0,2.0,100,0.00,,OVC010,0.00,VWS V14.01,2013-11-17 17:58:00,
2013-11-17 12:59:00,71.8,71.8,29.51,East,80,3.0,3.0,100,0.00,,OVC010,0.00,VWS V14.01,2013-11-17 17:59:00,
2013-11-17 13:00:00,71.5,71.5,29.70,East,83,3.0,3.0,100,0.00,,OVC046,0.00,VWS V14.01,2013-11-17 18:00:00,
2013-11-17 13:01:00,71.5,71.5,29.65,East,80,3.0,3.0,100,0.00,,OVC010,0.00,VWS V14.01,2013-11-17 18:01:00,
2013-11-17 13:02:00,71.3,71.3,29.70,East,86,3.0,3.0,100,0.00,,OVC010,0.00,VWS V14.01,2013-11-17 18:02:00,
2013-11-17 13:03:00,71.1,71.1,29.70,East,86,2.0,3.0,100,0.00,,OVC010,0.00,VWS V14.01,2013-11-17 18:03:00,
2013-11-17 13:04:00,71.1,71.1,29.70,East,86,2.0,2.0,100,0.00,,OVC010,0.00,VWS V14.01,2013-11-17 18:04:00,
2013-11-17 13:05:00,71.1,71.1,29.70,East,86,1.0,2.0,100,0.00,,OVC046,0.00,VWS V14.01,2013-11-17 18:05:00,
2013-11-17 13:06:00,71.1,71.1,29.70,East,86,2.0,3.0,100,0.00,,OVC010,0.00,VWS V14.01,2013-11-17 18:06:00,
2013-11-17 13:07:00,71.1,71.1,29.70,East,86,2.0,3.0,100,0.00,,OVC010,0.00,VWS V14.01,2013-11-17 18:07:00,
2013-11-17 13:08:00,70.9,70.9,29.70,East,87,2.0,2.0,100,0.00,,OVC010,0.00,VWS V14.01,2013-11-17 18:08:00,
2013-11-17 13:09:00,70.8,70.8,29.70,East,87,1.0,2.0,100,0.00,,OVC010,0.00,VWS V14.01,2013-11-17 18:09:00,
2013-11-17 13:10:00,70.8,70.8,29.70,East,87,1.0,1.0,100,0.00,,OVC046,0.00,VWS V14.01,2013-11-17 18:10:00,
2013-11-17 13:11:00,70.8,70.8,29.70,East,87,1.0,3.0,100,0.00,,OVC010,0.00,VWS V14.01,2013-11-17 18:11:00,
2013-11-17 13:12:00,70.8,70.8,29.70,East,87,3.0,3.0,100,0.00,,OVC010,0.00,VWS V14.01,2013-11-17 18:12:00,
2013-11-17 13:13:00,70.6,70.6,29.70,East,88,3.0,3.0,100,0.00,,OVC010,0.00,VWS V14.01,2013-11-17 18:13:00,
2013-11-17 13:14:00,70.4,70.4,29.70,East,88,1.0,3.0,100,0.00,,OVC010,0.00,VWS V14.01,2013-11-17 18:14:00,
2013-11-17 13:15:00,69.9,69.9,29.70,East,88,1.0,2.0,100,0.00,,OVC046,0.00,VWS V14.01,2013-11-17 18:15:00,
2013-11-17 13:16:00,69.9,69.9,29.70,East,88,1.0,2.0,100,0.00,,OVC010,0.00,VWS V14.01,2013-11-17 18:16:00,
2013-11-17 13:17:00,69.8,69.8,29.59,East,88,1.0,1.0,100,0.00,,OVC010,0.00,VWS V14.01,2013-11-17 18:17:00,
2013-11-17 13:18:00,69.8,69.8,29.59,East,88,0.0,1.0,100,0.00,,OVC010,0.00,VWS V14.01,2013-11-17 18:18:00,
2013-11-17 13:19:00,69.8,69.8,29.59,East,88,1.0,1.0,100,0.00,,OVC010,0.00,VWS V14.01,2013-11-17 18:19:00,
2013-11-17 13:20:00,69.6,69.6,29.59,East,88,0.0,0.0,100,0.00,,OVC046,0.00,VWS V14.01,2013-11-17 18:20:00,
2013-11-17 13:21:00,69.6,69.6,29.59,East,88,0.0,0.0,100,0.00,,OVC010,0.00,VWS V14.01,2013-11-17 18:21:00,
2013-11-17 13:22:00,69.8,69.8,29.59,East,88,0.0,0.0,100,0.00,,OVC010,0.00,VWS V14.01,2013-11-17 18:22:00,
2013-11-17 13:23:00,69.8,69.8,29.59,East,88,0.0,0.0,100,0.00,,OVC010,0.00,VWS V14.01,2013-11-17 18:23:00,
2013-11-17 13:24:00,69.8,69.8,29.59,East,88,0.0,0.0,100,0.00,,OVC010,0.00,VWS V14.01,2013-11-17 18:24:00,
2013-11-17 13:25:00,69.8,69.8,29.47,East,88,0.0,1.0,100,0.00,,OVC046,0.00,VWS V14.01,2013-11-17 18:25:00,
2013-11-17 13:26:00,69.8,69.8,29.47,East,88,0.0,1.0,100,0.00,,OVC010,0.00,VWS V14.01,2013-11-17 18:26:00,
2013-11-17 13:27:00,69.8,69.8,29.62,East,88,0.0,1.0,100,0.00,,OVC010,0.00,VWS V14.01,2013-11-17 18:27:00,
2013-11-17 13:28:00,69.9,69.9,29.62,East,88,0.0,1.0,100,0.00,,OVC010,0.00,VWS V14.01,2013-11-17 18:28:00,
2013-11-17 13:29:00,69.9,69.9,29.62,East,88,1.0,1.0,100,0.00,,OVC010,0.00,VWS V14.01,2013-11-17 18:29:00,
2013-11-17 13:30:00,70.1,70.1,29.60,East,88,1.0,1.0,100,0.00,,OVC046,0.00,VWS V14.01,2013-11-17 18:30:00,
2013-11-17 13:31:00,70.1,70.1,29.60,East,88,1.0,2.0,100,0.00,,OVC010,0.00,VWS V14.01,2013-11-17 18:31:00,
2013-11-17 13:32:00,70.1,70.1,29.60,East,88,1.0,1.0,100,0.00,,OVC010,0.00,VWS V14.01,2013-11-17 18:32:00,
2013-11-17 13:33:00,70.1,70.1,29.90,East,88,2.0,2.0,100,0.00,,OVC010,0.00,VWS V14.01,2013-11-17 18:33:00,
2013-11-17 13:34:00,70.1,70.1,29.90,East,88,2.0,2.0,100,0.00,,OVC010,0.00,VWS V14.01,2013-11-17 18:34:00,
2013-11-17 13:35:00,70.1,70.1,29.90,East,88,1.0,2.0,100,0.00,,OVC037,0.00,VWS V14.01,2013-11-17 18:35:00,
2013-11-17 13:36:00,70.1,70.1,29.90,East,88,1.0,2.0,100,0.00,,OVC010,0.00,VWS V14.01,2013-11-17 18:36:00,
2013-11-17 13:37:00,69.9,69.9,29.90,East,89,2.0,2.0,100,0.00,,OVC010,0.00,VWS V14.01,2013-11-17 18:37:00,
2013-11-17 13:38:00,69.9,69.9,29.90,East,89,2.0,2.0,100,0.00,,OVC010,0.00,VWS V14.01,2013-11-17 18:38:00,
2013-11-17 13:39:00,69.9,69.9,29.90,East,89,2.0,2.0,100,0.00,,OVC010,0.00,VWS V14.01,2013-11-17 18:39:00,
2013-11-17 13:40:00,69.9,69.9,29.90,East,90,2.0,3.0,100,0.00,,OVC037,0.00,VWS V14.01,2013-11-17 18:40:00,
2013-11-17 13:41:00,69.9,69.9,29.90,East,90,2.0,3.0,100,0.00,,OVC010,0.00,VWS V14.01,2013-11-17 18:41:00,
2013-11-17 13:42:00,69.9,69.9,29.90,East,91,2.0,3.0,100,0.00,,OVC010,0.00,VWS V14.01,2013-11-17 18:42:00,
2013-11-17 13:43:00,69.9,69.9,29.90,East,91,2.0,2.0,100,0.00,,OVC010,0.00,VWS V14.01,2013-11-17 18:43:00,
2013-11-17 13:44:00,69.8,69.8,29.47,East,91,2.0,2.0,100,0.00,,OVC010,0.00,VWS V14.01,2013-11-17 18:44:00,
2013-11-17 13:45:00,69.9,69.9,29.47,East,91,2.0,2.0,100,0.00,,OVC037,0.00,VWS V14.01,2013-11-17 18:45:00,
2013-11-17 13:46:00,69.9,69.9,29.47,East,91,2.0,2.0,100,0.00,,OVC010,0.00,VWS V14.01,2013-11-17 18:46:00,
2013-11-17 13:47:00,69.9,69.9,29.47,East,91,1.0,3.0,100,0.00,,OVC010,0.00,VWS V14.01,2013-11-17 18:47:00,
2013-11-17 13:48:00,69.9,69.9,29.47,East,91,1.0,2.0,100,0.00,,OVC010,0.00,VWS V14.01,2013-11-17 18:48:00,
2013-11-17 13:49:00,69.9,69.9,29.47,East,91,1.0,2.0,100,0.00,,OVC010,0.00,VWS V14.01,2013-11-17 18:49:00,
2013-11-17 13:50:00,70.1,70.1,29.48,East,91,1.0,2.0,100,0.00,,OVC050,0.00,VWS V14.01,2013-11-17 18:50:00,
2013-11-17 13:51:00,70.1,70.1,29.48,East,91,1.0,2.0,100,0.00,,OVC010,0.00,VWS V14.01,2013-11-17 18:51:00,
2013-11-17 13:52:00,70.1,70.1,29.48,East,91,1.0,1.0,100,0.00,,OVC010,0.00,VWS V14.01,2013-11-17 18:52:00,
2013-11-17 13:53:00,70.3,70.3,29.48,East,91,0.0,1.0,100,0.00,,OVC010,0.00,VWS V14.01,2013-11-17 18:53:00,
2013-11-17 13:54:00,70.3,70.3,29.48,East,91,2.0,2.0,100,0.00,,OVC010,0.00,VWS V14.01,2013-11-17 18:54:00,
2013-11-17 13:55:00,70.3,70.3,29.48,East,91,1.0,2.0,100,0.00,,OVC050,0.00,VWS V14.01,2013-11-17 18:55:00,
2013-11-17 13:56:00,70.3,70.3,29.48,East,91,1.0,2.0,100,0.00,,OVC010,0.00,VWS V14.01,2013-11-17 18:56:00,
2013-11-17 13:57:00,70.4,70.4,29.48,East,91,2.0,2.0,100,0.00,,OVC010,0.00,VWS V14.01,2013-11-17 18:57:00,
2013-11-17 13:58:00,70.4,70.4,29.48,East,91,1.0,2.0,100,0.00,,OVC010,0.00,VWS V14.01,2013-11-17 18:58:00,
2013-11-17 13:59:00,70.4,70.4,29.48,East,91,1.0,1.0,100,0.00,,OVC010,0.00,VWS V14.01,2013-11-17 18:59:00,
2013-11-17 14:00:00,70.4,70.4,29.38,East,91,1.0,2.0,100,0.00,,OVC050,0.00,VWS V14.01,2013-11-17 19:00:00,
2013-11-17 14:01:00,70.4,70.4,29.38,East,91,1.0,2.0,100,0.00,,OVC010,0.00,VWS V14.01,2013-11-17 19:01:00,
2013-11-17 14:02:00,70.4,70.4,29.38,East,91,1.0,1.0,100,0.00,,OVC010,0.00,VWS V14.01,2013-11-17 19:02:00,
2013-11-17 14:03:00,70.6,70.6,29.38,East,91,1.0,2.0,100,0.00,,OVC010,0.00,VWS V14.01,2013-11-17 19:03:00,
2013-11-17 14:04:00,70.6,70.6,29.38,East,91,1.0,1.0,100,0.00,,OVC010,0.00,VWS V14.01,2013-11-17 19:04:00,
2013-11-17 14:05:00,70.6,70.6,29.38,East,91,2.0,2.0,100,0.00,,OVC050,0.00,VWS V14.01,2013-11-17 19:05:00,
2013-11-17 14:06:00,70.6,70.6,29.38,East,91,2.0,2.0,100,0.00,,OVC010,0.00,VWS V14.01,2013-11-17 19:06:00,
2013-11-17 14:07:00,70.6,70.6,29.18,East,91,2.0,2.0,100,0.00,,OVC010,0.00,VWS V14.01,2013-11-17 19:07:00,
2013-11-17 14:08:00,70.4,70.4,29.18,East,91,2.0,2.0,100,0.00,,OVC010,0.00,VWS V14.01,2013-11-17 19:08:00,
2013-11-17 14:09:00,70.4,70.4,29.18,East,91,2.0,2.0,100,0.00,,OVC010,0.00,VWS V14.01,2013-11-17 19:09:00,
2013-11-17 14:10:00,70.4,70.4,29.18,East,91,1.0,2.0,100,0.00,,OVC050,0.00,VWS V14.01,2013-11-17 19:10:00,
2013-11-17 14:11:00,70.4,70.4,29.18,East,91,1.0,2.0,100,0.00,,OVC010,0.00,VWS V14.01,2013-11-17 19:11:00,
2013-11-17 14:12:00,70.3,70.3,29.18,East,91,1.0,2.0,100,0.00,,OVC010,0.00,VWS V14.01,2013-11-17 19:12:00,
2013-11-17 14:13:00,70.3,70.3,29.18,East,91,2.0,2.0,100,0.00,,OVC010,0.00,VWS V14.01,2013-11-17 19:13:00,
2013-11-17 14:14:00,70.3,70.3,29.18,East,91,1.0,2.0,100,0.00,,OVC010,0.00,VWS V14.01,2013-11-17 19:14:00,
2013-11-17 14:15:00,70.3,70.3,29.18,East,91,1.0,3.0,100,0.00,,OVC050,0.00,VWS V14.01,2013-11-17 19:15:00,
2013-11-17 14:16:00,70.3,70.3,29.18,East,91,1.0,3.0,100,0.00,,OVC010,0.00,VWS V14.01,2013-11-17 19:16:00,
2013-11-17 14:17:00,70.1,70.1,29.18,East,91,2.0,2.0,100,0.00,,OVC010,0.00,VWS V14.01,2013-11-17 19:17:00,
2013-11-17 14:18:00,70.1,70.1,29.18,East,91,1.0,2.0,100,0.00,,OVC010,0.00,VWS V14.01,2013-11-17 19:18:00,
2013-11-17 14:19:00,70.1,70.1,29.18,East,91,2.0,2.0,100,0.00,,OVC010,0.00,VWS V14.01,2013-11-17 19:19:00,
2013-11-17 14:20:00,69.9,69.9,29.18,East,91,2.0,3.0,100,0.00,,OVC050,0.00,VWS V14.01,2013-11-17 19:20:00,
2013-11-17 14:21:00,69.9,69.9,29.18,East,91,2.0,3.0,100,0.00,,OVC010,0.00,VWS V14.01,2013-11-17 19:21:00,
2013-11-17 14:22:00,69.9,69.9,29.18,East,91,1.0,3.0,100,0.00,,OVC010,0.00,VWS V14.01,2013-11-17 19:22:00,
2013-11-17 14:23:00,69.9,69.9,29.18,East,91,2.0,2.0,100,0.00,,OVC010,0.00,VWS V14.01,2013-11-17 19:23:00,
2013-11-17 14:24:00,69.8,69.8,29.18,East,91,2.0,2.0,100,0.00,,OVC010,0.00,VWS V14.01,2013-11-17 19:24:00,
2013-11-17 14:25:00,69.8,69.8,28.93,East,91,2.0,2.0,100,0.00,,OVC050,0.00,VWS V14.01,2013-11-17 19:25:00,
2013-11-17 14:26:00,69.8,69.8,28.93,East,91,2.0,2.0,100,0.00,,OVC010,0.00,VWS V14.01,2013-11-17 19:26:00,
2013-11-17 14:27:00,69.6,69.6,28.93,East,91,1.0,2.0,100,0.00,,OVC010,0.00,VWS V14.01,2013-11-17 19:27:00,
2013-11-17 14:28:00,69.8,69.8,28.93,East,91,1.0,2.0,100,0.00,,OVC010,0.00,VWS V14.01,2013-11-17 19:28:00,
2013-11-17 14:29:00,69.6,69.6,28.93,East,91,2.0,2.0,100,0.00,,OVC010,0.00,VWS V14.01,2013-11-17 19:29:00,
2013-11-17 14:30:00,69.6,69.6,28.93,East,91,2.0,2.0,100,0.00,,OVC050,0.00,VWS V14.01,2013-11-17 19:30:00,
2013-11-17 14:31:00,69.6,69.6,28.93,East,91,2.0,2.0,100,0.00,,OVC010,0.00,VWS V14.01,2013-11-17 19:31:00,
2013-11-17 14:32:00,69.4,69.4,28.93,East,91,2.0,2.0,100,0.00,,OVC010,0.00,VWS V14.01,2013-11-17 19:32:00,
2013-11-17 14:33:00,69.4,69.4,28.93,East,91,2.0,2.0,100,0.00,,OVC010,0.00,VWS V14.01,2013-11-17 19:33:00,
2013-11-17 14:34:00,69.4,69.4,28.93,East,91,1.0,2.0,100,0.00,,OVC010,0.00,VWS V14.01,2013-11-17 19:34:00,
2013-11-17 14:35:00,69.4,69.4,28.93,East,91,1.0,1.0,100,0.00,,OVC055,0.00,VWS V14.01,2013-11-17 19:35:00,
2013-11-17 14:36:00,69.4,69.4,28.93,East,91,1.0,1.0,100,0.00,,OVC010,0.00,VWS V14.01,2013-11-17 19:36:00,
2013-11-17 14:37:00,69.4,69.4,28.93,East,91,2.0,2.0,100,0.00,,OVC010,0.00,VWS V14.01,2013-11-17 19:37:00,
2013-11-17 14:38:00,69.4,69.4,28.93,East,91,2.0,2.0,100,0.00,,OVC010,0.00,VWS V14.01,2013-11-17 19:38:00,
2013-11-17 14:39:00,69.4,69.4,28.93,East,91,2.0,2.0,100,0.00,,OVC010,0.00,VWS V14.01,2013-11-17 19:39:00,
2013-11-17 14:40:00,69.3,69.3,28.93,East,91,2.0,2.0,100,0.00,,OVC055,0.00,VWS V14.01,2013-11-17 19:40:00,
2013-11-17 14:41:00,69.3,69.3,28.93,East,91,2.0,2.0,100,0.00,,OVC010,0.00,VWS V14.01,2013-11-17 19:41:00,
2013-11-17 14:42:00,69.3,69.3,28.93,East,91,2.0,2.0,100,0.00,,OVC010,0.00,VWS V14.01,2013-11-17 19:42:00,
2013-11-17 14:43:00,69.3,69.3,28.93,East,91,2.0,2.0,100,0.00,,OVC010,0.00,VWS V14.01,2013-11-17 19:43:00,
2013-11-17 14:44:00,69.1,69.1,28.93,East,91,3.0,3.0,100,0.00,,OVC010,0.00,VWS V14.01,2013-11-17 19:44:00,
2013-11-17 14:45:00,68.9,68.9,28.93,East,91,2.0,3.0,100,0.00,,OVC055,0.00,VWS V14.01,2013-11-17 19:45:00,
2013-11-17 14:46:00,68.9,68.9,28.93,East,91,2.0,3.0,100,0.00,,OVC010,0.00,VWS V14.01,2013-11-17 19:46:00,
2013-11-17 14:47:00,68.9,68.9,28.93,East,91,2.0,3.0,100,0.00,,OVC010,0.00,VWS V14.01,2013-11-17 19:47:00,
2013-11-17 14:48:00,68.8,68.8,28.93,East,91,2.0,2.0,100,0.00,,OVC010,0.00,VWS V14.01,2013-11-17 19:48:00,
2013-11-17 14:49:00,68.8,68.8,28.93,East,91,2.0,3.0,100,0.00,,OVC010,0.00,VWS V14.01,2013-11-17 19:49:00,
2013-11-17 14:50:00,68.6,68.6,28.93,East,91,2.0,2.0,100,0.00,,OVC049,0.00,VWS V14.01,2013-11-17 19:50:00,
2013-11-17 14:51:00,68.6,68.6,28.93,East,91,2.0,2.0,100,0.00,,OVC010,0.00,VWS V14.01,2013-11-17 19:51:00,
2013-11-17 14:52:00,68.4,68.4,28.93,East,91,1.0,2.0,100,0.00,,OVC010,0.00,VWS V14.01,2013-11-17 19:52:00,
2013-11-17 14:53:00,68.4,68.4,28.93,East,91,1.0,2.0,100,0.00,,OVC010,0.00,VWS V14.01,2013-11-17 19:53:00,
2013-11-17 14:54:00,68.4,68.4,28.93,East,91,1.0,1.0,100,0.00,,OVC010,0.00,VWS V14.01,2013-11-17 19:54:00,
2013-11-17 14:55:00,68.6,68.6,28.93,East,91,0.0,1.0,100,0.00,,OVC049,0.00,VWS V14.01,2013-11-17 19:55:00,
2013-11-17 14:56:00,68.6,68.6,28.93,East,91,0.0,1.0,100,0.00,,OVC010,0.00,VWS V14.01,2013-11-17 19:56:00,
2013-11-17 14:57:00,68.6,68.6,28.93,East,91,2.0,2.0,100,0.00,,OVC010,0.00,VWS V14.01,2013-11-17 19:57:00,
2013-11-17 14:58:00,68.6,68.6,28.93,East,91,1.0,2.0,100,0.00,,OVC010,0.00,VWS V14.01,2013-11-17 19:58:00,
2013-11-17 14:59:00,68.6,68.6,28.93,East,91,2.0,2.0,100,0.00,,OVC010,0.00,VWS V14.01,2013-11-17 19:59:00,
2013-11-17 15:00:00,68.6,68.6,28.93,East,91,1.0,2.0,100,0.00,,OVC049,0.00,VWS V14.01,2013-11-17 20:00:00,
2013-11-17 15:01:00,68.6,68.6,28.93,East,91,2.0,2.0,100,0.00,,OVC010,0.00,VWS V14.01,2013-11-17 20:01:00,
2013-11-17 15:02:00,68.4,68.4,28.93,East,91,1.0,2.0,100,0.00,,OVC010,0.00,VWS V14.01,2013-11-17 20:02:00,
2013-11-17 15:03:00,68.4,68.4,28.93,East,91,0.0,1.0,100,0.00,,OVC010,0.00,VWS V14.01,2013-11-17 20:03:00,
2013-11-17 15:04:00,68.4,68.4,28.93,East,91,0.0,0.0,100,0.00,,OVC010,0.00,VWS V14.01,2013-11-17 20:04:00,
2013-11-17 15:05:00,68.4,68.4,28.93,East,91,0.0,0.0,100,0.00,,OVC049,0.00,VWS V14.01,2013-11-17 20:05:00,
2013-11-17 15:06:00,68.4,68.4,28.93,East,91,0.0,0.0,100,0.00,,OVC010,0.00,VWS V14.01,2013-11-17 20:06:00,
2013-11-17 15:07:00,68.4,68.4,28.93,East,91,0.0,0.0,100,0.00,,OVC010,0.00,VWS V14.01,2013-11-17 20:07:00,
2013-11-17 15:08:00,68.4,68.4,28.93,East,91,0.0,0.0,100,0.00,,OVC010,0.00,VWS V14.01,2013-11-17 20:08:00,
2013-11-17 15:09:00,68.6,68.6,28.93,East,91,0.0,0.0,100,0.00,,OVC010,0.00,VWS V14.01,2013-11-17 20:09:00,
2013-11-17 15:10:00,68.6,68.6,28.93,East,91,0.0,0.0,100,0.00,,OVC049,0.00,VWS V14.01,2013-11-17 20:10:00,
2013-11-17 15:11:00,68.6,68.6,28.93,East,91,0.0,0.0,100,0.00,,OVC010,0.00,VWS V14.01,2013-11-17 20:11:00,
2013-11-17 15:12:00,68.8,68.8,28.93,East,91,0.0,1.0,100,0.00,,OVC010,0.00,VWS V14.01,2013-11-17 20:12:00,
2013-11-17 15:13:00,68.8,68.8,28.93,East,91,1.0,1.0,100,0.00,,OVC010,0.00,VWS V14.01,2013-11-17 20:13:00,
2013-11-17 15:14:00,68.8,68.8,28.93,East,91,2.0,2.0,100,0.00,,OVC010,0.00,VWS V14.01,2013-11-17 20:14:00,
2013-11-17 15:15:00,68.6,68.6,28.93,East,91,3.0,3.0,100,0.00,,OVC049,0.00,VWS V14.01,2013-11-17 20:15:00,
2013-11-17 15:16:00,68.6,68.6,28.93,East,91,2.0,3.0,100,0.00,,OVC010,0.00,VWS V14.01,2013-11-17 20:16:00,
2013-11-17 15:17:00,68.6,68.6,28.93,East,91,1.0,2.0,100,0.00,,OVC010,0.00,VWS V14.01,2013-11-17 20:17:00,
2013-11-17 15:18:00,68.4,68.4,28.93,East,91,2.0,2.0,100,0.00,,OVC010,0.00,VWS V14.01,2013-11-17 20:18:00,
2013-11-17 15:19:00,68.4,68.4,28.93,East,91,1.0,2.0,100,0.00,,OVC010,0.00,VWS V14.01,2013-11-17 20:19:00,
2013-11-17 15:20:00,68.3,68.3,28.93,East,91,1.0,1.0,100,0.00,,OVC049,0.00,VWS V14.01,2013-11-17 20:20:00,
2013-11-17 15:21:00,68.3,68.3,28.93,East,91,1.0,1.0,100,0.00,,OVC010,0.00,VWS V14.01,2013-11-17 20:21:00,
2013-11-17 15:22:00,68.3,68.3,28.93,East,91,1.0,1.0,100,0.00,,OVC010,0.00,VWS V14.01,2013-11-17 20:22:00,
2013-11-17 15:23:00,68.1,68.1,28.93,East,91,1.0,1.0,100,0.00,,OVC010,0.00,VWS V14.01,2013-11-17 20:23:00,
2013-11-17 15:24:00,68.1,68.1,28.93,East,91,1.0,1.0,100,0.00,,OVC010,0.00,VWS V14.01,2013-11-17 20:24:00,
2013-11-17 15:25:00,68.1,68.1,28.93,East,91,2.0,2.0,100,0.00,,OVC049,0.00,VWS V14.01,2013-11-17 20:25:00,
2013-11-17 15:26:00,68.1,68.1,28.93,East,91,2.0,2.0,100,0.00,,OVC010,0.00,VWS V14.01,2013-11-17 20:26:00,
2013-11-17 15:27:00,67.9,67.9,28.93,East,91,1.0,2.0,100,0.00,,OVC010,0.00,VWS V14.01,2013-11-17 20:27:00,
2013-11-17 15:28:00,67.9,67.9,28.93,East,91,2.0,2.0,100,0.00,,OVC010,0.00,VWS V14.01,2013-11-17 20:28:00,
2013-11-17 15:29:00,67.9,67.9,28.93,East,91,3.0,3.0,100,0.00,,OVC010,0.00,VWS V14.01,2013-11-17 20:29:00,
2013-11-17 15:30:00,67.9,67.9,28.93,East,91,3.0,3.0,100,0.00,,OVC049,0.00,VWS V14.01,2013-11-17 20:30:00,
2013-11-17 15:31:00,67.9,67.9,28.93,East,91,3.0,3.0,100,0.00,,OVC010,0.00,VWS V14.01,2013-11-17 20:31:00,
2013-11-17 15:32:00,67.8,67.8,28.93,East,91,3.0,3.0,100,0.00,,OVC010,0.00,VWS V14.01,2013-11-17 20:32:00,
2013-11-17 15:33:00,67.6,67.6,28.93,East,91,3.0,3.0,100,0.00,,OVC010,0.00,VWS V14.01,2013-11-17 20:33:00,
2013-11-17 15:34:00,67.6,67.6,28.93,ESE,105,3.0,3.0,100,0.00,,OVC010,0.00,VWS V14.01,2013-11-17 20:34:00,
2013-11-17 15:35:00,67.3,67.3,28.93,ESE,105,3.0,3.0,100,0.00,,OVC050,0.00,VWS V14.01,2013-11-17 20:35:00,
2013-11-17 15:36:00,67.3,67.3,28.32,ESE,105,3.0,3.0,100,0.00,,OVC010,0.00,VWS V14.01,2013-11-17 20:36:00,
2013-11-17 15:37:00,67.3,67.3,28.32,ESE,105,3.0,3.0,100,0.00,,OVC010,0.00,VWS V14.01,2013-11-17 20:37:00,
2013-11-17 15:38:00,67.1,67.1,28.32,ESE,105,2.0,3.0,100,0.00,,OVC010,0.00,VWS V14.01,2013-11-17 20:38:00,
2013-11-17 15:39:00,66.9,66.9,28.59,ESE,105,2.0,2.0,100,0.00,,OVC010,0.00,VWS V14.01,2013-11-17 20:39:00,
2013-11-17 15:40:00,66.6,66.6,28.59,ESE,105,1.0,2.0,100,0.00,,OVC050,0.00,VWS V14.01,2013-11-17 20:40:00,
2013-11-17 15:41:00,66.6,66.6,28.59,ESE,105,1.0,2.0,100,0.00,,OVC010,0.00,VWS V14.01,2013-11-17 20:41:00,
2013-11-17 15:42:00,66.6,66.6,28.59,ESE,105,1.0,3.0,100,0.00,,OVC010,0.00,VWS V14.01,2013-11-17 20:42:00,
2013-11-17 15:43:00,66.4,66.4,28.59,ESE,105,1.0,2.0,100,0.00,,OVC010,0.00,VWS V14.01,2013-11-17 20:43:00,
2013-11-17 15:44:00,66.4,66.4,28.59,ESE,105,2.0,2.0,100,0.00,,OVC010,0.00,VWS V14.01,2013-11-17 20:44:00,
2013-11-17 15:45:00,66.3,66.3,28.59,ESE,105,2.0,2.0,100,0.00,,OVC050,0.00,VWS V14.01,2013-11-17 20:45:00,
2013-11-17 15:46:00,66.1,66.1,28.59,ESE,105,2.0,2.0,100,0.00,,OVC010,0.00,VWS V14.01,2013-11-17 20:46:00,
2013-11-17 15:47:00,66.0,66.0,28.59,ESE,105,1.0,2.0,100,0.00,,OVC010,0.00,VWS V14.01,2013-11-17 20:47:00,
2013-11-17 15:48:00,66.0,66.0,28.59,ESE,105,1.0,1.0,100,0.00,,OVC010,0.00,VWS V14.01,2013-11-17 20:48:00,
2013-11-17 15:49:00,66.0,66.0,28.59,ESE,105,1.0,1.0,100,0.00,,OVC010,0.00,VWS V14.01,2013-11-17 20:49:00,
2013-11-17 15:50:00,66.0,66.0,28.59,ESE,105,0.0,0.0,100,0.00,,OVC050,0.00,VWS V14.01,2013-11-17 20:50:00,
2013-11-17 15:51:00,66.0,66.0,28.59,ESE,105,0.0,0.0,100,0.00,,OVC010,0.00,VWS V14.01,2013-11-17 20:51:00,
2013-11-17 15:52:00,66.0,66.0,28.59,ESE,105,0.0,0.0,100,0.00,,OVC010,0.00,VWS V14.01,2013-11-17 20:52:00,
2013-11-17 15:53:00,66.0,66.0,28.59,ESE,105,1.0,1.0,100,0.00,,OVC010,0.00,VWS V14.01,2013-11-17 20:53:00,
2013-11-17 15:54:00,66.0,66.0,28.59,ESE,105,1.0,2.0,100,0.00,,OVC010,0.00,VWS V14.01,2013-11-17 20:54:00,
2013-11-17 15:55:00,66.1,66.1,28.59,ESE,105,2.0,2.0,100,0.00,,OVC050,0.00,VWS V14.01,2013-11-17 20:55:00,
2013-11-17 15:56:00,66.1,66.1,28.59,ESE,105,2.0,2.0,100,0.00,,OVC010,0.00,VWS V14.01,2013-11-17 20:56:00,
2013-11-17 15:57:00,66.1,66.1,28.59,ESE,105,1.0,2.0,100,0.00,,OVC010,0.00,VWS V14.01,2013-11-17 20:57:00,
2013-11-17 15:58:00,66.3,66.3,28.59,ESE,105,2.0,2.0,100,0.00,,OVC010,0.00,VWS V14.01,2013-11-17 20:58:00,
2013-11-17 15:59:00,66.3,66.3,28.59,ESE,105,2.0,2.0,100,0.00,,OVC010,0.00,VWS V14.01,2013-11-17 20:59:00,
2013-11-17 16:00:00,66.3,66.3,28.59,ESE,105,1.0,2.0,100,0.00,,OVC050,0.00,VWS V14.01,2013-11-17 21:00:00,
2013-11-17 16:01:00,66.3,66.3,28.59,ESE,105,2.0,2.0,100,0.00,,OVC010,0.00,VWS V14.01,2013-11-17 21:01:00,
2013-11-17 16:02:00,66.3,66.3,28.55,ESE,105,2.0,2.0,100,0.00,,OVC010,0.00,VWS V14.01,2013-11-17 21:02:00,
2013-11-17 16:03:00,66.3,66.3,28.55,ESE,105,1.0,2.0,100,0.00,,OVC010,0.00,VWS V14.01,2013-11-17 21:03:00,
2013-11-17 16:04:00,66.3,66.3,28.55,ESE,105,1.0,2.0,100,0.00,,OVC010,0.00,VWS V14.01,2013-11-17 21:04:00,
2013-11-17 16:05:00,66.3,66.3,28.55,ESE,105,1.0,1.0,100,0.00,,OVC050,0.00,VWS V14.01,2013-11-17 21:05:00,
2013-11-17 16:06:00,66.3,66.3,28.55,ESE,105,0.0,1.0,100,0.00,,OVC010,0.00,VWS V14.01,2013-11-17 21:06:00,
2013-11-17 16:07:00,66.3,66.3,28.55,ESE,105,0.0,1.0,100,0.00,,OVC010,0.00,VWS V14.01,2013-11-17 21:07:00,
2013-11-17 16:08:00,66.3,66.3,28.54,ESE,105,2.0,2.0,100,0.00,,OVC010,0.00,VWS V14.01,2013-11-17 21:08:00,
2013-11-17 16:09:00,66.3,66.3,28.54,ESE,105,2.0,2.0,100,0.00,,OVC010,0.00,VWS V14.01,2013-11-17 21:09:00,
2013-11-17 16:10:00,66.3,66.3,28.54,ESE,105,1.0,1.0,100,0.00,,OVC050,0.00,VWS V14.01,2013-11-17 21:10:00,
2013-11-17 16:11:00,66.1,66.1,28.54,ESE,105,1.0,1.0,100,0.00,,OVC010,0.00,VWS V14.01,2013-11-17 21:11:00,
2013-11-17 16:12:00,66.1,66.1,28.54,ESE,105,0.0,1.0,100,0.00,,OVC010,0.00,VWS V14.01,2013-11-17 21:12:00,
2013-11-17 16:13:00,66.1,66.1,28.54,ESE,105,1.0,1.0,100,0.00,,OVC010,0.00,VWS V14.01,2013-11-17 21:13:00,
2013-11-17 16:14:00,66.1,66.1,28.54,ESE,105,1.0,2.0,100,0.00,,OVC010,0.00,VWS V14.01,2013-11-17 21:14:00,
2013-11-17 16:15:00,66.1,66.1,28.54,ESE,105,2.0,2.0,100,0.00,,OVC050,0.00,VWS V14.01,2013-11-17 21:15:00,
2013-11-17 16:16:00,66.1,66.1,28.54,ESE,105,2.0,2.0,100,0.00,,OVC010,0.00,VWS V14.01,2013-11-17 21:16:00,
2013-11-17 16:17:00,66.1,66.1,28.54,East,101,2.0,3.0,100,0.00,,OVC010,0.00,VWS V14.01,2013-11-17 21:17:00,
2013-11-17 16:18:00,66.1,66.1,28.54,East,101,2.0,2.0,100,0.00,,OVC010,0.00,VWS V14.01,2013-11-17 21:18:00,
2013-11-17 16:19:00,66.1,66.1,28.54,East,101,1.0,2.0,100,0.00,,OVC010,0.00,VWS V14.01,2013-11-17 21:19:00,
2013-11-17 16:20:00,66.3,66.3,28.69,East,101,1.0,1.0,100,0.00,,OVC050,0.00,VWS V14.01,2013-11-17 21:20:00,
2013-11-17 16:21:00,66.3,66.3,28.69,East,101,0.0,1.0,100,0.00,,OVC010,0.00,VWS V14.01,2013-11-17 21:21:00,
2013-11-17 16:22:00,66.3,66.3,28.69,East,101,1.0,1.0,100,0.00,,OVC010,0.00,VWS V14.01,2013-11-17 21:22:00,
2013-11-17 16:23:00,66.4,66.4,28.69,East,101,1.0,1.0,100,0.00,,OVC010,0.00,VWS V14.01,2013-11-17 21:23:00,
2013-11-17 16:24:00,66.4,66.4,28.69,East,101,0.0,1.0,100,0.00,,OVC010,0.00,VWS V14.01,2013-11-17 21:24:00,
2013-11-17 16:25:00,66.4,66.4,28.69,East,101,0.0,0.0,100,0.00,,OVC050,0.00,VWS V14.01,2013-11-17 21:25:00,
2013-11-17 16:26:00,66.4,66.4,28.69,East,101,1.0,1.0,100,0.00,,OVC010,0.00,VWS V14.01,2013-11-17 21:26:00,
2013-11-17 16:27:00,66.4,66.4,28.34,East,101,0.0,1.0,100,0.00,,OVC010,0.00,VWS V14.01,2013-11-17 21:27:00,
2013-11-17 16:28:00,66.6,66.6,28.34,East,101,0.0,0.0,100,0.00,,OVC010,0.00,VWS V14.01,2013-11-17 21:28:00,
2013-11-17 16:29:00,66.6,66.6,28.34,East,101,0.0,1.0,100,0.00,,OVC010,0.00,VWS V14.01,2013-11-17 21:29:00,
2013-11-17 16:30:00,66.6,66.6,28.34,East,101,1.0,1.0,100,0.00,,OVC050,0.00,VWS V14.01,2013-11-17 21:30:00,
2013-11-17 16:31:00,66.6,66.6,28.34,East,101,1.0,1.0,100,0.00,,OVC010,0.00,VWS V14.01,2013-11-17 21:31:00,
2013-11-17 16:32:00,66.6,66.6,27.12,East,101,1.0,1.0,100,0.00,,OVC010,0.00,VWS V14.01,2013-11-17 21:32:00,
2013-11-17 16:33:00,66.6,66.6,27.12,East,101,0.0,1.0,100,0.00,,OVC010,0.00,VWS V14.01,2013-11-17 21:33:00,
2013-11-17 16:34:00,66.6,66.6,27.12,East,101,0.0,0.0,100,0.00,,OVC010,0.00,VWS V14.01,2013-11-17 21:34:00,
2013-11-17 16:35:00,66.6,66.6,27.12,East,101,1.0,1.0,100,0.00,,BKN200,0.00,VWS V14.01,2013-11-17 21:35:00,
2013-11-17 16:36:00,66.6,66.6,27.12,East,101,1.0,1.0,100,0.00,,OVC010,0.00,VWS V14.01,2013-11-17 21:36:00,
2013-11-17 16:37:00,66.6,66.6,27.12,East,101,1.0,2.0,100,0.00,,OVC010,0.00,VWS V14.01,2013-11-17 21:37:00,
2013-11-17 16:38:00,66.6,66.6,27.12,East,101,0.0,1.0,100,0.00,,OVC010,0.00,VWS V14.01,2013-11-17 21:38:00,
2013-11-17 16:39:00,66.6,66.6,27.12,East,101,0.0,0.0,100,0.00,,OVC010,0.00,VWS V14.01,2013-11-17 21:39:00,
2013-11-17 16:40:00,66.6,66.6,27.12,East,101,0.0,0.0,100,0.00,,BKN200,0.00,VWS V14.01,2013-11-17 21:40:00,
2013-11-17 16:41:00,66.6,66.6,27.12,East,101,0.0,0.0,100,0.00,,OVC010,0.00,VWS V14.01,2013-11-17 21:41:00,
2013-11-17 16:42:00,66.6,66.6,27.12,East,101,0.0,0.0,100,0.00,,OVC010,0.00,VWS V14.01,2013-11-17 21:42:00,
2013-11-17 16:43:00,66.6,66.6,27.12,East,101,0.0,0.0,100,0.00,,OVC010,0.00,VWS V14.01,2013-11-17 21:43:00,
2013-11-17 16:44:00,66.6,66.6,27.95,East,101,0.0,0.0,100,0.00,,OVC010,0.00,VWS V14.01,2013-11-17 21:44:00,
2013-11-17 16:45:00,66.6,66.6,27.95,East,101,0.0,0.0,100,0.00,,BKN200,0.00,VWS V14.01,2013-11-17 21:45:00,
2013-11-17 16:46:00,66.6,66.6,27.95,East,101,0.0,0.0,100,0.00,,OVC010,0.00,VWS V14.01,2013-11-17 21:46:00,
2013-11-17 16:47:00,66.4,66.4,27.95,East,101,0.0,0.0,100,0.00,,OVC010,0.00,VWS V14.01,2013-11-17 21:47:00,
2013-11-17 16:48:00,66.4,66.4,27.95,East,101,0.0,0.0,100,0.00,,OVC010,0.00,VWS V14.01,2013-11-17 21:48:00,
2013-11-17 16:49:00,66.4,66.4,27.95,East,101,0.0,0.0,100,0.00,,OVC010,0.00,VWS V14.01,2013-11-17 21:49:00,
2013-11-17 16:50:00,66.4,66.4,27.95,East,101,0.0,0.0,100,0.00,,BKN200,0.00,VWS V14.01,2013-11-17 21:50:00,
2013-11-17 16:51:00,66.4,66.4,27.95,East,101,0.0,0.0,100,0.00,,OVC010,0.00,VWS V14.01,2013-11-17 21:51:00,
2013-11-17 16:52:00,66.4,66.4,27.95,East,101,0.0,0.0,100,0.00,,OVC010,0.00,VWS V14.01,2013-11-17 21:52:00,
2013-11-17 16:53:00,66.4,66.4,27.95,East,101,0.0,0.0,100,0.00,,OVC010,0.00,VWS V14.01,2013-11-17 21:53:00,
2013-11-17 16:54:00,66.4,66.4,27.95,East,101,0.0,0.0,100,0.00,,OVC010,0.00,VWS V14.01,2013-11-17 21:54:00,
2013-11-17 16:55:00,66.4,66.4,27.95,East,101,0.0,0.0,100,0.00,,BKN200,0.00,VWS V14.01,2013-11-17 21:55:00,
2013-11-17 16:56:00,66.4,66.4,27.95,East,101,0.0,0.0,100,0.00,,OVC010,0.00,VWS V14.01,2013-11-17 21:56:00,
2013-11-17 16:57:00,66.4,66.4,27.95,East,101,0.0,0.0,100,0.00,,OVC010,0.00,VWS V14.01,2013-11-17 21:57:00,
2013-11-17 16:58:00,66.4,66.4,27.95,East,101,0.0,1.0,100,0.00,,OVC010,0.00,VWS V14.01,2013-11-17 21:58:00,
2013-11-17 16:59:00,66.4,66.4,27.95,East,101,0.0,0.0,100,0.00,,OVC010,0.00,VWS V14.01,2013-11-17 21:59:00,
2013-11-17 17:00:00,66.4,66.4,27.95,East,101,0.0,0.0,100,0.00,,BKN200,0.00,VWS V14.01,2013-11-17 22:00:00,
2013-11-17 17:01:00,66.4,66.4,29.05,East,101,0.0,0.0,100,0.00,,OVC010,0.00,VWS V14.01,2013-11-17 22:01:00,
2013-11-17 17:02:00,66.4,66.4,29.05,East,101,0.0,0.0,100,0.00,,OVC010,0.00,VWS V14.01,2013-11-17 22:02:00,
2013-11-17 17:03:00,66.3,66.3,29.05,East,101,0.0,0.0,100,0.00,,OVC010,0.00,VWS V14.01,2013-11-17 22:03:00,
2013-11-17 17:04:00,66.4,66.4,29.05,East,101,0.0,0.0,100,0.00,,OVC010,0.00,VWS V14.01,2013-11-17 22:04:00,
2013-11-17 17:05:00,66.4,66.4,29.05,East,101,0.0,0.0,100,0.00,,BKN200,0.00,VWS V14.01,2013-11-17 22:05:00,
2013-11-17 17:06:00,66.4,66.4,29.05,East,101,0.0,0.0,100,0.00,,OVC010,0.00,VWS V14.01,2013-11-17 22:06:00,
2013-11-17 17:07:00,66.4,66.4,29.05,East,101,0.0,0.0,100,0.00,,OVC010,0.00,VWS V14.01,2013-11-17 22:07:00,
2013-11-17 17:08:00,66.4,66.4,29.05,East,101,0.0,0.0,100,0.00,,OVC010,0.00,VWS V14.01,2013-11-17 22:08:00,
2013-11-17 17:09:00,66.4,66.4,29.05,East,101,1.0,1.0,100,0.00,,OVC010,0.00,VWS V14.01,2013-11-17 22:09:00,
2013-11-17 17:10:00,66.4,66.4,29.05,East,101,2.0,2.0,100,0.00,,BKN200,0.00,VWS V14.01,2013-11-17 22:10:00,
2013-11-17 17:11:00,66.4,66.4,29.05,East,101,2.0,2.0,100,0.00,,OVC010,0.00,VWS V14.01,2013-11-17 22:11:00,
2013-11-17 17:12:00,66.3,66.3,29.05,East,101,0.0,2.0,100,0.00,,OVC010,0.00,VWS V14.01,2013-11-17 22:12:00,
2013-11-17 17:13:00,66.3,66.3,29.05,East,101,0.0,0.0,100,0.00,,OVC010,0.00,VWS V14.01,2013-11-17 22:13:00,
2013-11-17 17:14:00,66.3,66.3,29.05,East,101,0.0,0.0,100,0.00,,OVC010,0.00,VWS V14.01,2013-11-17 22:14:00,
2013-11-17 17:15:00,66.3,66.3,29.05,East,101,0.0,0.0,100,0.00,,BKN200,0.00,VWS V14.01,2013-11-17 22:15:00,
2013-11-17 17:16:00,66.3,66.3,29.05,East,101,0.0,0.0,100,0.00,,OVC010,0.00,VWS V14.01,2013-11-17 22:16:00,
2013-11-17 17:17:00,66.3,66.3,29.05,East,101,0.0,0.0,100,0.01,,OVC010,0.01,VWS V14.01,2013-11-17 22:17:00,
2013-11-17 17:18:00,66.3,66.3,29.09,East,101,0.0,0.0,100,0.01,,OVC010,0.01,VWS V14.01,2013-11-17 22:18:00,
2013-11-17 17:19:00,66.3,66.3,29.09,East,101,0.0,0.0,100,0.01,,OVC010,0.01,VWS V14.01,2013-11-17 22:19:00,
2013-11-17 17:20:00,66.1,66.1,29.09,East,101,0.0,0.0,100,0.01,,BKN200,0.01,VWS V14.01,2013-11-17 22:20:00,
2013-11-17 17:21:00,66.1,66.1,29.09,East,101,0.0,0.0,100,0.01,,OVC010,0.01,VWS V14.01,2013-11-17 22:21:00,
2013-11-17 17:22:00,66.1,66.1,29.09,East,101,0.0,0.0,100,0.01,,OVC010,0.01,VWS V14.01,2013-11-17 22:22:00,
2013-11-17 17:23:00,66.1,66.1,29.09,East,101,0.0,0.0,100,0.01,,OVC010,0.01,VWS V14.01,2013-11-17 22:23:00,
2013-11-17 17:24:00,66.1,66.1,29.09,East,101,0.0,0.0,100,0.01,,OVC010,0.01,VWS V14.01,2013-11-17 22:24:00,
2013-11-17 17:25:00,66.1,66.1,29.09,East,101,0.0,0.0,100,0.01,,BKN200,0.01,VWS V14.01,2013-11-17 22:25:00,
2013-11-17 17:26:00,66.0,66.0,29.09,East,101,1.0,1.0,100,0.01,,OVC010,0.01,VWS V14.01,2013-11-17 22:26:00,
2013-11-17 17:27:00,66.0,66.0,29.09,East,101,0.0,1.0,100,0.01,,OVC010,0.01,VWS V14.01,2013-11-17 22:27:00,
2013-11-17 17:28:00,66.0,66.0,29.09,East,101,0.0,0.0,100,0.01,,OVC010,0.01,VWS V14.01,2013-11-17 22:28:00,
2013-11-17 17:29:00,65.8,65.8,29.28,East,101,0.0,0.0,100,0.01,,OVC010,0.01,VWS V14.01,2013-11-17 22:29:00,
2013-11-17 17:30:00,65.8,65.8,29.28,East,101,0.0,0.0,100,0.01,,BKN200,0.01,VWS V14.01,2013-11-17 22:30:00,
2013-11-17 17:31:00,65.8,65.8,29.28,East,101,0.0,0.0,100,0.01,,OVC010,0.01,VWS V14.01,2013-11-17 22:31:00,
2013-11-17 17:32:00,65.6,65.6,29.28,East,101,0.0,0.0,100,0.01,,OVC010,0.01,VWS V14.01,2013-11-17 22:32:00,
2013-11-17 17:33:00,65.6,65.6,29.28,East,101,0.0,0.0,100,0.01,,OVC010,0.01,VWS V14.01,2013-11-17 22:33:00,
2013-11-17 17:34:00,65.5,65.5,29.28,East,101,0.0,1.0,100,0.01,,OVC010,0.01,VWS V14.01,2013-11-17 22:34:00,
2013-11-17 17:35:00,65.5,65.5,29.28,East,101,1.0,1.0,100,0.01,,OVC049,0.01,VWS V14.01,2013-11-17 22:35:00,
2013-11-17 17:36:00,65.5,65.5,29.28,East,101,0.0,1.0,100,0.01,,OVC010,0.01,VWS V14.01,2013-11-17 22:36:00,
2013-11-17 17:37:00,65.3,65.3,29.28,East,101,0.0,1.0,100,0.01,,OVC010,0.01,VWS V14.01,2013-11-17 22:37:00,
2013-11-17 17:38:00,65.3,65.3,29.28,East,101,0.0,0.0,100,0.01,,OVC010,0.01,VWS V14.01,2013-11-17 22:38:00,
2013-11-17 17:39:00,65.3,65.3,29.28,East,101,0.0,1.0,100,0.01,,OVC010,0.01,VWS V14.01,2013-11-17 22:39:00,
2013-11-17 17:40:00,65.2,65.2,29.28,East,101,0.0,0.0,100,0.01,,OVC049,0.01,VWS V14.01,2013-11-17 22:40:00,
2013-11-17 17:41:00,65.2,65.2,29.28,East,101,0.0,0.0,100,0.01,,OVC010,0.01,VWS V14.01,2013-11-17 22:41:00,
2013-11-17 17:42:00,65.2,65.2,29.28,East,101,0.0,0.0,100,0.01,,OVC010,0.01,VWS V14.01,2013-11-17 22:42:00,
2013-11-17 17:43:00,65.2,65.2,29.28,East,101,0.0,0.0,100,0.01,,OVC010,0.01,VWS V14.01,2013-11-17 22:43:00,
2013-11-17 17:44:00,65.0,65.0,29.28,East,101,0.0,1.0,100,0.01,,OVC010,0.01,VWS V14.01,2013-11-17 22:44:00,
2013-11-17 17:45:00,65.0,65.0,29.19,East,101,0.0,0.0,100,0.01,,OVC049,0.01,VWS V14.01,2013-11-17 22:45:00,
2013-11-17 17:46:00,65.0,65.0,29.19,East,101,1.0,1.0,100,0.01,,OVC010,0.01,VWS V14.01,2013-11-17 22:46:00,
2013-11-17 17:47:00,65.0,65.0,29.19,East,101,2.0,2.0,100,0.01,,OVC010,0.01,VWS V14.01,2013-11-17 22:47:00,
2013-11-17 17:48:00,64.8,64.8,29.19,East,101,0.0,2.0,100,0.01,,OVC010,0.01,VWS V14.01,2013-11-17 22:48:00,
2013-11-17 17:49:00,64.8,64.8,29.19,East,101,0.0,1.0,100,0.01,,OVC010,0.01,VWS V14.01,2013-11-17 22:49:00,
2013-11-17 17:50:00,64.8,64.8,29.16,East,101,0.0,1.0,100,0.01,,OVC049,0.01,VWS V14.01,2013-11-17 22:50:00,
2013-11-17 17:51:00,64.8,64.8,29.16,East,101,0.0,1.0,100,0.01,,OVC010,0.01,VWS V14.01,2013-11-17 22:51:00,
2013-11-17 17:52:00,64.8,64.8,29.16,East,97,1.0,2.0,100,0.01,,OVC010,0.01,VWS V14.01,2013-11-17 22:52:00,
2013-11-17 17:53:00,64.8,64.8,29.16,East,97,0.0,1.0,100,0.01,,OVC010,0.01,VWS V14.01,2013-11-17 22:53:00,
2013-11-17 17:54:00,64.8,64.8,29.16,East,98,2.0,2.0,100,0.01,,OVC010,0.01,VWS V14.01,2013-11-17 22:54:00,
2013-11-17 17:55:00,64.8,64.8,29.16,East,97,2.0,2.0,100,0.01,,OVC049,0.01,VWS V14.01,2013-11-17 22:55:00,
2013-11-17 17:56:00,64.8,64.8,29.16,East,97,2.0,2.0,100,0.01,,OVC010,0.01,VWS V14.01,2013-11-17 22:56:00,
2013-11-17 17:57:00,64.8,64.8,29.16,East,97,1.0,2.0,100,0.01,,OVC010,0.01,VWS V14.01,2013-11-17 22:57:00,
2013-11-17 17:58:00,64.7,64.7,29.16,East,97,1.0,1.0,100,0.01,,OVC010,0.01,VWS V14.01,2013-11-17 22:58:00,
2013-11-17 17:59:00,64.7,64.7,29.16,East,98,0.0,1.0,100,0.01,,OVC010,0.01,VWS V14.01,2013-11-17 22:59:00,
2013-11-17 18:00:00,64.7,64.7,29.34,East,97,1.0,2.0,100,0.01,,OVC049,0.01,VWS V14.01,2013-11-17 23:00:00,
2013-11-17 18:01:00,64.7,64.7,29.34,East,97,1.0,2.0,100,0.01,,OVC010,0.01,VWS V14.01,2013-11-17 23:01:00,
2013-11-17 18:02:00,64.7,64.7,29.34,East,97,0.0,1.0,100,0.01,,OVC010,0.01,VWS V14.01,2013-11-17 23:02:00,
2013-11-17 18:03:00,64.7,64.7,29.34,East,96,2.0,2.0,100,0.01,,OVC010,0.01,VWS V14.01,2013-11-17 23:03:00,
2013-11-17 18:04:00,64.7,64.7,29.34,East,92,0.0,2.0,100,0.01,,OVC010,0.01,VWS V14.01,2013-11-17 23:04:00,
2013-11-17 18:05:00,64.7,64.7,29.34,East,92,0.0,0.0,100,0.01,,OVC049,0.01,VWS V14.01,2013-11-17 23:05:00,
2013-11-17 18:06:00,64.7,64.7,29.34,East,92,0.0,0.0,100,0.01,,OVC010,0.01,VWS V14.01,2013-11-17 23:06:00,
2013-11-17 18:07:00,64.7,64.7,29.34,East,92,1.0,1.0,100,0.01,,OVC010,0.01,VWS V14.01,2013-11-17 23:07:00,
2013-11-17 18:08:00,64.7,64.7,29.34,East,92,0.0,1.0,100,0.01,,OVC010,0.01,VWS V14.01,2013-11-17 23:08:00,
2013-11-17 18:09:00,64.7,64.7,29.34,East,92,1.0,2.0,100,0.01,,OVC010,0.01,VWS V14.01,2013-11-17 23:09:00,
2013-11-17 18:10:00,64.7,64.7,29.34,East,92,0.0,1.0,100,0.01,,OVC049,0.01,VWS V14.01,2013-11-17 23:10:00,
2013-11-17 18:11:00,64.7,64.7,29.34,East,92,1.0,1.0,100,0.01,,OVC010,0.01,VWS V14.01,2013-11-17 23:11:00,
2013-11-17 18:12:00,64.7,64.7,29.34,East,92,1.0,2.0,100,0.01,,OVC010,0.01,VWS V14.01,2013-11-17 23:12:00,
2013-11-17 18:13:00,64.7,64.7,29.34,East,86,3.0,3.0,100,0.01,,OVC010,0.01,VWS V14.01,2013-11-17 23:13:00,
2013-11-17 18:14:00,64.7,64.7,29.23,East,84,1.0,3.0,100,0.01,,OVC010,0.01,VWS V14.01,2013-11-17 23:14:00,
2013-11-17 18:15:00,64.7,64.7,29.25,East,84,0.0,2.0,100,0.01,,OVC049,0.01,VWS V14.01,2013-11-17 23:15:00,
2013-11-17 18:16:00,64.7,64.7,29.25,East,84,2.0,2.0,100,0.01,,OVC010,0.01,VWS V14.01,2013-11-17 23:16:00,
2013-11-17 18:17:00,64.7,64.7,29.25,East,84,0.0,2.0,100,0.01,,OVC010,0.01,VWS V14.01,2013-11-17 23:17:00,
2013-11-17 18:18:00,64.7,64.7,29.25,East,84,1.0,1.0,100,0.00,,OVC010,0.01,VWS V14.01,2013-11-17 23:18:00,
2013-11-17 18:19:00,64.7,64.7,29.25,East,84,1.0,2.0,100,0.00,,OVC010,0.01,VWS V14.01,2013-11-17 23:19:00,
2013-11-17 18:20:00,64.5,64.5,29.25,East,84,1.0,1.0,100,0.00,,OVC049,0.01,VWS V14.01,2013-11-17 23:20:00,
2013-11-17 18:21:00,64.5,64.5,29.25,East,84,2.0,2.0,100,0.00,,OVC010,0.01,VWS V14.01,2013-11-17 23:21:00,
2013-11-17 18:22:00,64.5,64.5,29.25,East,84,1.0,2.0,100,0.00,,OVC010,0.01,VWS V14.01,2013-11-17 23:22:00,
2013-11-17 18:23:00,64.5,64.5,29.25,East,84,1.0,1.0,100,0.00,,OVC010,0.01,VWS V14.01,2013-11-17 23:23:00,
2013-11-17 18:24:00,64.3,64.3,29.25,East,84,0.0,1.0,100,0.00,,OVC010,0.01,VWS V14.01,2013-11-17 23:24:00,
2013-11-17 18:25:00,64.3,64.3,29.25,East,84,0.0,0.0,100,0.00,,OVC049,0.01,VWS V14.01,2013-11-17 23:25:00,
2013-11-17 18:26:00,64.3,64.3,29.25,East,84,0.0,0.0,100,0.00,,OVC010,0.01,VWS V14.01,2013-11-17 23:26:00,
2013-11-17 18:27:00,64.3,64.3,29.25,East,84,0.0,1.0,100,0.00,,OVC010,0.01,VWS V14.01,2013-11-17 23:27:00,
2013-11-17 18:28:00,64.2,64.2,29.25,East,84,0.0,0.0,100,0.00,,OVC010,0.01,VWS V14.01,2013-11-17 23:28:00,
2013-11-17 18:29:00,64.2,64.2,29.25,East,84,0.0,0.0,100,0.00,,OVC010,0.01,VWS V14.01,2013-11-17 23:29:00,
2013-11-17 18:30:00,64.2,64.2,29.25,East,84,0.0,0.0,100,0.00,,OVC049,0.01,VWS V14.01,2013-11-17 23:30:00,
2013-11-17 18:31:00,64.2,64.2,29.25,East,84,0.0,0.0,100,0.00,,OVC010,0.01,VWS V14.01,2013-11-17 23:31:00,
2013-11-17 18:32:00,64.2,64.2,29.25,East,84,2.0,2.0,100,0.00,,OVC010,0.01,VWS V14.01,2013-11-17 23:32:00,
2013-11-17 18:33:00,64.2,64.2,29.25,East,84,2.0,2.0,100,0.00,,OVC010,0.01,VWS V14.01,2013-11-17 23:33:00,
2013-11-17 18:34:00,64.2,64.2,29.26,East,94,3.0,3.0,100,0.00,,OVC010,0.01,VWS V14.01,2013-11-17 23:34:00,
2013-11-17 18:35:00,64.3,64.3,29.26,East,97,2.0,3.0,100,0.00,,OVC060,0.01,VWS V14.01,2013-11-17 23:35:00,
2013-11-17 18:36:00,64.3,64.3,29.26,East,98,4.0,4.0,100,0.00,,OVC010,0.01,VWS V14.01,2013-11-17 23:36:00,
2013-11-17 18:37:00,64.3,64.3,29.44,East,98,3.0,4.0,100,0.00,,OVC010,0.01,VWS V14.01,2013-11-17 23:37:00,
2013-11-17 18:38:00,64.3,64.3,29.44,East,99,4.0,4.0,100,0.00,,OVC010,0.01,VWS V14.01,2013-11-17 23:38:00,
2013-11-17 18:39:00,64.3,64.3,29.44,East,101,6.0,6.0,100,0.00,,OVC010,0.01,VWS V14.01,2013-11-17 23:39:00,
2013-11-17 18:40:00,64.5,64.5,29.44,East,101,5.0,6.0,100,0.01,,OVC060,0.02,VWS V14.01,2013-11-17 23:40:00,
2013-11-17 18:41:00,64.5,64.5,29.44,East,101,6.0,7.0,100,0.01,,OVC010,0.02,VWS V14.01,2013-11-17 23:41:00,
2013-11-17 18:42:00,64.5,64.5,29.44,ESE,103,5.0,6.0,100,0.01,,OVC010,0.02,VWS V14.01,2013-11-17 23:42:00,
2013-11-17 18:43:00,64.5,64.5,29.47,ESE,108,4.0,5.0,100,0.01,,OVC010,0.02,VWS V14.01,2013-11-17 23:43:00,
2013-11-17 18:44:00,64.5,64.5,29.47,ESE,103,4.0,5.0,100,0.01,,OVC010,0.02,VWS V14.01,2013-11-17 23:44:00,
2013-11-17 18:45:00,64.5,64.5,29.47,East,101,2.0,4.0,100,0.01,,OVC060,0.02,VWS V14.01,2013-11-17 23:45:00,
2013-11-17 18:46:00,64.5,64.5,29.47,East,101,1.0,4.0,100,0.01,,OVC010,0.02,VWS V14.01,2013-11-17 23:46:00,
2013-11-17 18:47:00,64.5,64.5,29.47,East,101,1.0,2.0,100,0.01,,OVC010,0.02,VWS V14.01,2013-11-17 23:47:00,
2013-11-17 18:48:00,64.5,64.5,29.47,East,101,1.0,1.0,100,0.01,,OVC010,0.02,VWS V14.01,2013-11-17 23:48:00,
2013-11-17 18:49:00,64.5,64.5,29.47,East,101,1.0,2.0,100,0.01,,OVC010,0.02,VWS V14.01,2013-11-17 23:49:00,
2013-11-17 18:50:00,64.7,64.7,29.47,East,101,0.0,1.0,100,0.01,,OVC060,0.02,VWS V14.01,2013-11-17 23:50:00,
2013-11-17 18:51:00,64.7,64.7,29.47,East,101,2.0,2.0,100,0.01,,OVC010,0.02,VWS V14.01,2013-11-17 23:51:00,
2013-11-17 18:52:00,64.7,64.7,29.47,East,101,1.0,2.0,100,0.01,,OVC010,0.02,VWS V14.01,2013-11-17 23:52:00,
2013-11-17 18:53:00,64.7,64.7,29.47,East,101,2.0,2.0,100,0.01,,OVC010,0.02,VWS V14.01,2013-11-17 23:53:00,
2013-11-17 18:54:00,64.7,64.7,29.47,East,101,2.0,3.0,100,0.01,,OVC010,0.02,VWS V14.01,2013-11-17 23:54:00,
2013-11-17 18:55:00,64.7,64.7,29.28,East,101,3.0,4.0,100,0.01,,OVC060,0.02,VWS V14.01,2013-11-17 23:55:00,
2013-11-17 18:56:00,64.7,64.7,29.28,East,101,3.0,4.0,100,0.01,,OVC010,0.02,VWS V14.01,2013-11-17 23:56:00,
2013-11-17 18:57:00,64.7,64.7,29.28,ESE,102,3.0,4.0,100,0.01,,OVC010,0.02,VWS V14.01,2013-11-17 23:57:00,
2013-11-17 18:58:00,64.5,64.5,29.28,ESE,105,4.0,5.0,100,0.01,,OVC010,0.02,VWS V14.01,2013-11-17 23:58:00,
2013-11-17 18:59:00,64.7,64.7,29.28,ESE,115,5.0,5.0,100,0.01,,OVC010,0.02,VWS V14.01,2013-11-17 23:59:00,
2013-11-17 19:00:00,64.7,64.7,29.28,ESE,122,7.0,7.0,100,0.01,,OVC060,0.02,VWS V14.01,2013-11-18 00:00:00,
2013-11-17 19:01:00,64.7,64.7,29.28,SE,130,7.0,7.0,100,0.01,,OVC010,0.02,VWS V14.01,2013-11-18 00:01:00,
2013-11-17 19:02:00,64.7,64.7,29.28,SE,129,7.0,7.0,100,0.01,,OVC010,0.02,VWS V14.01,2013-11-18 00:02:00,
2013-11-17 19:03:00,64.7,64.7,29.28,SE,132,7.0,7.0,100,0.01,,OVC010,0.02,VWS V14.01,2013-11-18 00:03:00,
2013-11-17 19:04:00,64.8,64.8,29.32,SE,126,8.0,8.0,100,0.01,,OVC010,0.02,VWS V14.01,2013-11-18 00:04:00,
2013-11-17 19:05:00,64.8,64.8,29.32,SE,126,6.0,9.0,100,0.01,,SCT100,0.02,VWS V14.01,2013-11-18 00:05:00,
2013-11-17 19:06:00,64.8,64.8,29.32,SE,124,9.0,9.0,100,0.01,,OVC010,0.02,VWS V14.01,2013-11-18 00:06:00,
2013-11-17 19:07:00,65.0,65.0,29.32,ESE,123,7.0,9.0,100,0.01,,OVC010,0.02,VWS V14.01,2013-11-18 00:07:00,
2013-11-17 19:08:00,65.0,65.0,29.32,ESE,121,5.0,7.0,100,0.01,,OVC010,0.02,VWS V14.01,2013-11-18 00:08:00,
2013-11-17 19:09:00,65.0,65.0,29.36,ESE,119,6.0,6.0,100,0.01,,OVC010,0.02,VWS V14.01,2013-11-18 00:09:00,
2013-11-17 19:10:00,65.2,65.2,29.36,ESE,123,5.0,6.0,100,0.01,,SCT100,0.02,VWS V14.01,2013-11-18 00:10:00,
2013-11-17 19:11:00,65.2,65.2,29.36,ESE,121,6.0,6.0,100,0.01,,OVC010,0.02,VWS V14.01,2013-11-18 00:11:00,
2013-11-17 19:12:00,65.2,65.2,29.36,SE,128,5.0,6.0,100,0.01,,OVC010,0.02,VWS V14.01,2013-11-18 00:12:00,
2013-11-17 19:13:00,65.2,65.2,29.36,SE,126,5.0,5.0,100,0.01,,OVC010,0.02,VWS V14.01,2013-11-18 00:13:00,
2013-11-17 19:14:00,65.2,65.2,29.36,SE,125,5.0,5.0,100,0.01,,OVC010,0.02,VWS V14.01,2013-11-18 00:14:00,
2013-11-17 19:15:00,65.2,65.2,29.36,SE,125,5.0,5.0,100,0.02,,SCT100,0.03,VWS V14.01,2013-11-18 00:15:00,
2013-11-17 19:16:00,65.2,65.2,29.36,SE,125,3.0,5.0,100,0.02,,OVC010,0.03,VWS V14.01,2013-11-18 00:16:00,
2013-11-17 19:17:00,65.2,65.2,29.36,SE,125,4.0,4.0,100,0.02,,OVC010,0.03,VWS V14.01,2013-11-18 00:17:00,
2013-11-17 19:18:00,65.2,65.2,29.36,SE,125,4.0,4.0,100,0.02,,OVC010,0.03,VWS V14.01,2013-11-18 00:18:00,
2013-11-17 19:19:00,65.0,65.0,29.36,SE,125,4.0,4.0,100,0.02,,OVC010,0.03,VWS V14.01,2013-11-18 00:19:00,
2013-11-17 19:20:00,65.0,65.0,29.28,SE,124,3.0,4.0,100,0.02,,SCT100,0.03,VWS V14.01,2013-11-18 00:20:00,
2013-11-17 19:21:00,65.0,65.0,29.28,SE,124,4.0,4.0,100,0.02,,OVC010,0.03,VWS V14.01,2013-11-18 00:21:00,
2013-11-17 19:22:00,65.0,65.0,29.28,SE,124,4.0,4.0,100,0.02,,OVC010,0.03,VWS V14.01,2013-11-18 00:22:00,
2013-11-17 19:23:00,65.0,65.0,29.28,SE,124,4.0,4.0,100,0.02,,OVC010,0.03,VWS V14.01,2013-11-18 00:23:00,
2013-11-17 19:24:00,64.8,64.8,29.28,SE,124,3.0,5.0,100,0.02,,OVC010,0.03,VWS V14.01,2013-11-18 00:24:00,
2013-11-17 19:25:00,64.8,64.8,29.28,ESE,123,4.0,4.0,100,0.02,,SCT100,0.03,VWS V14.01,2013-11-18 00:25:00,
2013-11-17 19:26:00,64.8,64.8,29.28,ESE,123,5.0,5.0,100,0.02,,OVC010,0.03,VWS V14.01,2013-11-18 00:26:00,
2013-11-17 19:27:00,64.8,64.8,29.52,ESE,123,4.0,5.0,100,0.02,,OVC010,0.03,VWS V14.01,2013-11-18 00:27:00,
2013-11-17 19:28:00,64.8,64.8,29.52,ESE,122,4.0,4.0,100,0.02,,OVC010,0.03,VWS V14.01,2013-11-18 00:28:00,
2013-11-17 19:29:00,64.8,64.8,29.52,ESE,121,5.0,5.0,100,0.02,,OVC010,0.03,VWS V14.01,2013-11-18 00:29:00,
2013-11-17 19:30:00,64.8,64.8,29.52,ESE,119,5.0,5.0,100,0.02,,SCT100,0.03,VWS V14.01,2013-11-18 00:30:00,
2013-11-17 19:31:00,64.8,64.8,29.52,ESE,119,5.0,5.0,100,0.02,,OVC010,0.03,VWS V14.01,2013-11-18 00:31:00,
2013-11-17 19:32:00,64.8,64.8,29.52,ESE,116,5.0,5.0,100,0.02,,OVC010,0.03,VWS V14.01,2013-11-18 00:32:00,
2013-11-17 19:33:00,64.8,64.8,29.52,ESE,116,4.0,5.0,100,0.02,,OVC010,0.03,VWS V14.01,2013-11-18 00:33:00,
2013-11-17 19:34:00,64.8,64.8,29.52,ESE,115,4.0,4.0,100,0.02,,OVC010,0.03,VWS V14.01,2013-11-18 00:34:00,
2013-11-17 19:35:00,64.8,64.8,29.52,ESE,115,3.0,4.0,100,0.02,,SCT100,0.03,VWS V14.01,2013-11-18 00:35:00,
2013-11-17 19:36:00,64.8,64.8,29.52,ESE,116,4.0,4.0,100,0.02,,OVC010,0.03,VWS V14.01,2013-11-18 00:36:00,
2013-11-17 19:37:00,64.8,64.8,29.52,ESE,116,4.0,4.0,100,0.02,,OVC010,0.03,VWS V14.01,2013-11-18 00:37:00,
2013-11-17 19:38:00,64.8,64.8,29.52,ESE,115,4.0,4.0,100,0.02,,OVC010,0.03,VWS V14.01,2013-11-18 00:38:00,
2013-11-17 19:39:00,64.8,64.8,29.56,ESE,115,3.0,4.0,100,0.02,,OVC010,0.03,VWS V14.01,2013-11-18 00:39:00,
2013-11-17 19:40:00,64.8,64.8,29.56,ESE,115,3.0,3.0,100,0.01,,SCT100,0.03,VWS V14.01,2013-11-18 00:40:00,
2013-11-17 19:41:00,64.8,64.8,29.56,ESE,115,3.0,4.0,100,0.01,,OVC010,0.03,VWS V14.01,2013-11-18 00:41:00,
2013-11-17 19:42:00,64.8,64.8,29.56,ESE,115,3.0,4.0,100,0.01,,OVC010,0.03,VWS V14.01,2013-11-18 00:42:00,
2013-11-17 19:43:00,64.8,64.8,29.56,ESE,115,4.0,4.0,100,0.01,,OVC010,0.03,VWS V14.01,2013-11-18 00:43:00,
2013-11-17 19:44:00,64.8,64.8,29.56,ESE,121,4.0,4.0,100,0.01,,OVC010,0.03,VWS V14.01,2013-11-18 00:44:00,
2013-11-17 19:45:00,64.8,64.8,29.50,ESE,121,4.0,4.0,100,0.01,,SCT100,0.03,VWS V14.01,2013-11-18 00:45:00,
2013-11-17 19:46:00,64.8,64.8,29.50,SE,124,5.0,5.0,100,0.01,,OVC010,0.03,VWS V14.01,2013-11-18 00:46:00,
2013-11-17 19:47:00,64.7,64.7,29.50,SE,130,4.0,5.0,100,0.01,,OVC010,0.03,VWS V14.01,2013-11-18 00:47:00,
2013-11-17 19:48:00,64.7,64.7,29.50,SE,131,5.0,5.0,100,0.01,,OVC010,0.03,VWS V14.01,2013-11-18 00:48:00,
2013-11-17 19:49:00,64.7,64.7,29.50,SE,133,4.0,6.0,100,0.01,,OVC010,0.03,VWS V14.01,2013-11-18 00:49:00,
2013-11-17 19:50:00,64.7,64.7,29.50,SE,134,5.0,5.0,100,0.01,,SCT100,0.03,VWS V14.01,2013-11-18 00:50:00,
2013-11-17 19:51:00,64.7,64.7,29.50,SE,134,5.0,5.0,100,0.01,,OVC010,0.03,VWS V14.01,2013-11-18 00:51:00,
2013-11-17 19:52:00,64.8,64.8,29.50,SE,133,5.0,5.0,100,0.01,,OVC010,0.03,VWS V14.01,2013-11-18 00:52:00,
2013-11-17 19:53:00,64.8,64.8,29.50,SE,131,5.0,6.0,100,0.01,,OVC010,0.03,VWS V14.01,2013-11-18 00:53:00,
2013-11-17 19:54:00,64.8,64.8,29.50,SE,132,6.0,6.0,100,0.01,,OVC010,0.03,VWS V14.01,2013-11-18 00:54:00,
2013-11-17 19:55:00,65.0,65.0,29.53,SE,130,5.0,5.0,100,0.01,,SCT100,0.03,VWS V14.01,2013-11-18 00:55:00,
2013-11-17 19:56:00,65.0,65.0,29.53,SE,132,5.0,5.0,100,0.01,,OVC010,0.03,VWS V14.01,2013-11-18 00:56:00,
2013-11-17 19:57:00,65.0,65.0,29.53,SE,130,6.0,6.0,100,0.01,,OVC010,0.03,VWS V14.01,2013-11-18 00:57:00,
2013-11-17 19:58:00,65.0,65.0,29.58,SE,134,6.0,6.0,100,0.01,,OVC010,0.03,VWS V14.01,2013-11-18 00:58:00,
2013-11-17 19:59:00,65.2,65.2,29.58,SE,132,5.0,6.0,100,0.01,,OVC010,0.03,VWS V14.01,2013-11-18 00:59:00,
2013-11-17 20:00:00,65.2,65.2,29.58,SE,129,6.0,6.0,100,0.01,,SCT100,0.03,VWS V14.01,2013-11-18 01:00:00,
2013-11-17 20:01:00,65.2,65.2,29.58,SE,131,5.0,6.0,100,0.01,,OVC010,0.03,VWS V14.01,2013-11-18 01:01:00,
2013-11-17 20:02:00,65.2,65.2,29.58,SE,134,5.0,6.0,100,0.01,,OVC010,0.03,VWS V14.01,2013-11-18 01:02:00,
2013-11-17 20:03:00,65.2,65.2,29.55,SE,138,5.0,6.0,100,0.01,,OVC010,0.03,VWS V14.01,2013-11-18 01:03:00,
2013-11-17 20:04:00,65.2,65.2,29.56,SE,135,7.0,7.0,100,0.01,,OVC010,0.03,VWS V14.01,2013-11-18 01:04:00,
2013-11-17 20:05:00,65.3,65.3,29.57,SE,134,5.0,5.0,100,0.01,,SCT100,0.03,VWS V14.01,2013-11-18 01:05:00,
2013-11-17 20:06:00,65.3,65.3,29.57,SE,136,5.0,7.0,100,0.01,,OVC010,0.03,VWS V14.01,2013-11-18 01:06:00,
2013-11-17 20:07:00,65.3,65.3,29.57,SE,136,5.0,6.0,100,0.01,,OVC010,0.03,VWS V14.01,2013-11-18 01:07:00,
2013-11-17 20:08:00,65.3,65.3,29.54,SE,136,3.0,5.0,100,0.01,,OVC010,0.03,VWS V14.01,2013-11-18 01:08:00,
2013-11-17 20:09:00,65.3,65.3,29.55,SE,136,4.0,4.0,100,0.01,,OVC010,0.03,VWS V14.01,2013-11-18 01:09:00,
2013-11-17 20:10:00,65.3,65.3,29.60,SE,136,4.0,4.0,100,0.01,,SCT100,0.03,VWS V14.01,2013-11-18 01:10:00,
2013-11-17 20:11:00,65.3,65.3,29.60,SE,134,3.0,4.0,100,0.01,,OVC010,0.03,VWS V14.01,2013-11-18 01:11:00,
2013-11-17 20:12:00,65.3,65.3,29.59,SSE,148,4.0,5.0,100,0.01,,OVC010,0.03,VWS V14.01,2013-11-18 01:12:00,
2013-11-17 20:13:00,65.3,65.3,29.59,SSE,148,4.0,4.0,100,0.01,,OVC010,0.03,VWS V14.01,2013-11-18 01:13:00,
2013-11-17 20:14:00,65.3,65.3,29.59,SSE,148,5.0,5.0,100,0.01,,OVC010,0.03,VWS V14.01,2013-11-18 01:14:00,
2013-11-17 20:15:00,65.2,65.2,29.59,SSE,148,5.0,5.0,100,0.00,,SCT100,0.03,VWS V14.01,2013-11-18 01:15:00,
2013-11-17 20:16:00,65.2,65.2,29.59,SSE,148,5.0,5.0,100,0.00,,OVC010,0.03,VWS V14.01,2013-11-18 01:16:00,
2013-11-17 20:17:00,65.2,65.2,29.59,SE,144,5.0,5.0,100,0.00,,OVC010,0.03,VWS V14.01,2013-11-18 01:17:00,
2013-11-17 20:18:00,65.2,65.2,29.59,SE,139,6.0,6.0,100,0.00,,OVC010,0.03,VWS V14.01,2013-11-18 01:18:00,
2013-11-17 20:19:00,65.2,65.2,29.56,SE,144,5.0,6.0,100,0.00,,OVC010,0.03,VWS V14.01,2013-11-18 01:19:00,
2013-11-17 20:20:00,65.2,65.2,29.56,SE,141,5.0,6.0,100,0.00,,SCT100,0.03,VWS V14.01,2013-11-18 01:20:00,
2013-11-17 20:21:00,65.2,65.2,29.56,SE,142,5.0,6.0,100,0.00,,OVC010,0.03,VWS V14.01,2013-11-18 01:21:00,
2013-11-17 20:22:00,65.2,65.2,29.56,SSE,150,5.0,5.0,100,0.00,,OVC010,0.03,VWS V14.01,2013-11-18 01:22:00,
2013-11-17 20:23:00,65.2,65.2,29.56,SSE,153,5.0,5.0,100,0.00,,OVC010,0.03,VWS V14.01,2013-11-18 01:23:00,
2013-11-17 20:24:00,65.2,65.2,29.50,SSE,155,4.0,5.0,100,0.00,,OVC010,0.03,VWS V14.01,2013-11-18 01:24:00,
2013-11-17 20:25:00,65.2,65.2,29.50,SSE,151,5.0,5.0,100,0.00,,SCT100,0.03,VWS V14.01,2013-11-18 01:25:00,
2013-11-17 20:26:00,65.2,65.2,29.50,SSE,149,4.0,6.0,100,0.00,,OVC010,0.03,VWS V14.01,2013-11-18 01:26:00,
2013-11-17 20:27:00,65.2,65.2,29.50,SE,146,5.0,5.0,100,0.00,,OVC010,0.03,VWS V14.01,2013-11-18 01:27:00,
2013-11-17 20:28:00,65.2,65.2,29.50,SSE,154,5.0,5.0,100,0.00,,OVC010,0.03,VWS V14.01,2013-11-18 01:28:00,
2013-11-17 20:29:00,65.2,65.2,29.50,SE,145,4.0,5.0,100,0.00,,OVC010,0.03,VWS V14.01,2013-11-18 01:29:00,
2013-11-17 20:30:00,65.2,65.2,29.50,SSE,148,4.0,5.0,100,0.00,,SCT100,0.03,VWS V14.01,2013-11-18 01:30:00,
2013-11-17 20:31:00,65.2,65.2,29.50,SSE,148,5.0,5.0,100,0.00,,OVC010,0.03,VWS V14.01,2013-11-18 01:31:00,
2013-11-17 20:32:00,65.2,65.2,29.50,SSE,148,4.0,5.0,100,0.00,,OVC010,0.03,VWS V14.01,2013-11-18 01:32:00,
2013-11-17 20:33:00,65.2,65.2,29.50,SSE,153,5.0,5.0,100,0.00,,OVC010,0.03,VWS V14.01,2013-11-18 01:33:00,
2013-11-17 20:34:00,65.2,65.2,29.50,SSE,157,5.0,5.0,100,0.00,,OVC010,0.03,VWS V14.01,2013-11-18 01:34:00,
2013-11-17 20:35:00,65.2,65.2,29.50,SSE,155,4.0,5.0,100,0.00,,FEW050,0.03,VWS V14.01,2013-11-18 01:35:00,
2013-11-17 20:36:00,65.2,65.2,29.50,SSE,155,4.0,5.0,100,0.00,,OVC010,0.03,VWS V14.01,2013-11-18 01:36:00,
2013-11-17 20:37:00,65.2,65.2,29.50,SSE,155,4.0,5.0,100,0.00,,OVC010,0.03,VWS V14.01,2013-11-18 01:37:00,
2013-11-17 20:38:00,65.2,65.2,29.50,SSE,157,4.0,4.0,100,0.00,,OVC010,0.03,VWS V14.01,2013-11-18 01:38:00,
2013-11-17 20:39:00,65.0,65.0,29.58,SSE,155,4.0,5.0,100,0.00,,OVC010,0.03,VWS V14.01,2013-11-18 01:39:00,
2013-11-17 20:40:00,65.0,65.0,29.56,SSE,154,5.0,5.0,100,0.00,,FEW050,0.03,VWS V14.01,2013-11-18 01:40:00,
2013-11-17 20:41:00,65.0,65.0,29.56,SSE,153,4.0,5.0,100,0.00,,OVC010,0.03,VWS V14.01,2013-11-18 01:41:00,
2013-11-17 20:42:00,65.0,65.0,29.56,SSE,153,4.0,4.0,100,0.00,,OVC010,0.03,VWS V14.01,2013-11-18 01:42:00,
2013-11-17 20:43:00,65.0,65.0,29.56,SSE,153,4.0,5.0,100,0.00,,OVC010,0.03,VWS V14.01,2013-11-18 01:43:00,
2013-11-17 20:44:00,65.0,65.0,29.56,SSE,150,4.0,4.0,100,0.00,,OVC010,0.03,VWS V14.01,2013-11-18 01:44:00,
2013-11-17 20:45:00,65.0,65.0,29.56,SSE,150,5.0,5.0,100,0.00,,FEW050,0.03,VWS V14.01,2013-11-18 01:45:00,
2013-11-17 20:46:00,65.0,65.0,29.56,SSE,161,4.0,5.0,100,0.00,,OVC010,0.03,VWS V14.01,2013-11-18 01:46:00,
2013-11-17 20:47:00,65.0,65.0,29.56,SSE,159,4.0,5.0,100,0.00,,OVC010,0.03,VWS V14.01,2013-11-18 01:47:00,
2013-11-17 20:48:00,65.0,65.0,29.56,SSE,157,4.0,4.0,100,0.00,,OVC010,0.03,VWS V14.01,2013-11-18 01:48:00,
2013-11-17 20:49:00,65.2,65.2,29.56,SSE,155,4.0,4.0,100,0.00,,OVC010,0.03,VWS V14.01,2013-11-18 01:49:00,
2013-11-17 20:50:00,65.2,65.2,29.56,SSE,159,4.0,4.0,100,0.00,,FEW050,0.03,VWS V14.01,2013-11-18 01:50:00,
2013-11-17 20:51:00,65.2,65.2,29.56,SSE,160,3.0,4.0,100,0.00,,OVC010,0.03,VWS V14.01,2013-11-18 01:51:00,
2013-11-17 20:52:00,65.2,65.2,29.56,SSE,159,3.0,4.0,100,0.00,,OVC010,0.03,VWS V14.01,2013-11-18 01:52:00,
2013-11-17 20:53:00,65.2,65.2,29.56,SSE,156,4.0,4.0,100,0.00,,OVC010,0.03,VWS V14.01,2013-11-18 01:53:00,
2013-11-17 20:54:00,65.2,65.2,29.56,SSE,159,5.0,5.0,100,0.00,,OVC010,0.03,VWS V14.01,2013-11-18 01:54:00,
2013-11-17 20:55:00,65.2,65.2,29.56,SSE,164,3.0,4.0,100,0.00,,FEW050,0.03,VWS V14.01,2013-11-18 01:55:00,
2013-11-17 20:56:00,65.2,65.2,29.56,SSE,163,3.0,4.0,100,0.00,,OVC010,0.03,VWS V14.01,2013-11-18 01:56:00,
2013-11-17 20:57:00,65.2,65.2,29.56,SSE,163,3.0,4.0,100,0.00,,OVC010,0.03,VWS V14.01,2013-11-18 01:57:00,
2013-11-17 20:58:00,65.2,65.2,29.56,SSE,163,3.0,4.0,100,0.00,,OVC010,0.03,VWS V14.01,2013-11-18 01:58:00,
2013-11-17 20:59:00,65.2,65.2,29.56,SSE,163,4.0,4.0,100,0.00,,OVC010,0.03,VWS V14.01,2013-11-18 01:59:00,
2013-11-17 21:00:00,65.2,65.2,29.56,SSE,163,3.0,3.0,100,0.00,,FEW050,0.03,VWS V14.01,2013-11-18 02:00:00,
2013-11-17 21:01:00,65.2,65.2,29.56,SSE,163,3.0,3.0,100,0.00,,OVC010,0.03,VWS V14.01,2013-11-18 02:01:00,
2013-11-17 21:02:00,65.2,65.2,29.37,SSE,163,3.0,4.0,100,0.00,,OVC010,0.03,VWS V14.01,2013-11-18 02:02:00,
2013-11-17 21:03:00,65.2,65.2,29.37,SSE,162,3.0,4.0,100,0.00,,OVC010,0.03,VWS V14.01,2013-11-18 02:03:00,
2013-11-17 21:04:00,65.2,65.2,29.37,SSE,162,3.0,3.0,100,0.00,,OVC010,0.03,VWS V14.01,2013-11-18 02:04:00,
2013-11-17 21:05:00,65.2,65.2,29.37,SSE,160,3.0,3.0,100,0.00,,FEW050,0.03,VWS V14.01,2013-11-18 02:05:00,
2013-11-17 21:06:00,65.2,65.2,29.37,SSE,160,3.0,4.0,100,0.00,,OVC010,0.03,VWS V14.01,2013-11-18 02:06:00,
2013-11-17 21:07:00,65.2,65.2,29.37,SSE,160,2.0,3.0,100,0.00,,OVC010,0.03,VWS V14.01,2013-11-18 02:07:00,
2013-11-17 21:08:00,65.0,65.0,29.40,SSE,160,2.0,3.0,100,0.00,,OVC010,0.03,VWS V14.01,2013-11-18 02:08:00,
2013-11-17 21:09:00,65.0,65.0,29.40,SSE,160,3.0,4.0,100,0.00,,OVC010,0.03,VWS V14.01,2013-11-18 02:09:00,
2013-11-17 21:10:00,65.0,65.0,29.49,SSE,160,2.0,3.0,100,0.00,,FEW050,0.03,VWS V14.01,2013-11-18 02:10:00,
2013-11-17 21:11:00,65.0,65.0,29.49,SSE,160,1.0,3.0,100,0.00,,OVC010,0.03,VWS V14.01,2013-11-18 02:11:00,
2013-11-17 21:12:00,65.0,65.0,29.49,SSE,160,2.0,3.0,100,0.00,,OVC010,0.03,VWS V14.01,2013-11-18 02:12:00,
2013-11-17 21:13:00,65.0,65.0,29.49,SSE,160,1.0,2.0,100,0.00,,OVC010,0.03,VWS V14.01,2013-11-18 02:13:00,
2013-11-17 21:14:00,65.0,65.0,29.49,SSE,160,2.0,2.0,100,0.00,,OVC010,0.03,VWS V14.01,2013-11-18 02:14:00,
2013-11-17 21:15:00,65.0,65.0,29.53,SSE,160,2.0,2.0,100,0.00,,FEW050,0.03,VWS V14.01,2013-11-18 02:15:00,
2013-11-17 21:16:00,65.0,65.0,29.53,SSE,160,2.0,2.0,100,0.00,,OVC010,0.03,VWS V14.01,2013-11-18 02:16:00,
2013-11-17 21:17:00,65.0,65.0,29.53,SSE,160,3.0,3.0,100,0.00,,OVC010,0.03,VWS V14.01,2013-11-18 02:17:00,
2013-11-17 21:18:00,65.0,65.0,29.53,SSE,160,2.0,4.0,100,0.00,,OVC010,0.03,VWS V14.01,2013-11-18 02:18:00,
2013-11-17 21:19:00,65.0,65.0,29.60,SSE,160,3.0,3.0,100,0.00,,OVC010,0.03,VWS V14.01,2013-11-18 02:19:00,
2013-11-17 21:20:00,65.0,65.0,29.59,SSE,161,3.0,3.0,100,0.00,,FEW050,0.03,VWS V14.01,2013-11-18 02:20:00,
2013-11-17 21:21:00,65.0,65.0,29.59,SSE,161,3.0,3.0,100,0.00,,OVC010,0.03,VWS V14.01,2013-11-18 02:21:00,
2013-11-17 21:22:00,65.0,65.0,29.53,SSE,161,4.0,4.0,100,0.00,,OVC010,0.03,VWS V14.01,2013-11-18 02:22:00,
2013-11-17 21:23:00,65.0,65.0,29.53,SSE,159,3.0,4.0,100,0.00,,OVC010,0.03,VWS V14.01,2013-11-18 02:23:00,
2013-11-17 21:24:00,65.0,65.0,29.53,SSE,148,4.0,5.0,100,0.00,,OVC010,0.03,VWS V14.01,2013-11-18 02:24:00,
2013-11-17 21:25:00,65.0,65.0,29.53,SSE,147,3.0,4.0,100,0.00,,FEW050,0.03,VWS V14.01,2013-11-18 02:25:00,
2013-11-17 21:26:00,65.0,65.0,29.53,SSE,147,4.0,4.0,100,0.00,,OVC010,0.03,VWS V14.01,2013-11-18 02:26:00,
2013-11-17 21:27:00,65.0,65.0,29.53,SSE,147,4.0,4.0,100,0.00,,OVC010,0.03,VWS V14.01,2013-11-18 02:27:00,
2013-11-17 21:28:00,65.0,65.0,29.53,SSE,147,3.0,4.0,100,0.00,,OVC010,0.03,VWS V14.01,2013-11-18 02:28:00,
2013-11-17 21:29:00,65.0,65.0,29.53,SSE,147,4.0,4.0,100,0.00,,OVC010,0.03,VWS V14.01,2013-11-18 02:29:00,
2013-11-17 21:30:00,65.0,65.0,29.53,SSE,147,3.0,3.0,100,0.00,,FEW050,0.03,VWS V14.01,2013-11-18 02:30:00,
2013-11-17 21:31:00,65.0,65.0,29.53,SSE,147,4.0,4.0,100,0.00,,OVC010,0.03,VWS V14.01,2013-11-18 02:31:00,
2013-11-17 21:32:00,65.0,65.0,29.53,SSE,147,4.0,4.0,100,0.00,,OVC010,0.03,VWS V14.01,2013-11-18 02:32:00,
2013-11-17 21:33:00,65.0,65.0,29.53,SSE,147,3.0,4.0,100,0.00,,OVC010,0.03,VWS V14.01,2013-11-18 02:33:00,
2013-11-17 21:34:00,65.0,65.0,29.61,SSE,147,3.0,3.0,100,0.00,,OVC010,0.03,VWS V14.01,2013-11-18 02:34:00,
2013-11-17 21:35:00,65.0,65.0,29.61,SSE,147,4.0,4.0,100,0.00,,BKN065,0.03,VWS V14.01,2013-11-18 02:35:00,
2013-11-17 21:36:00,65.0,65.0,29.61,SSE,147,2.0,4.0,100,0.00,,OVC010,0.03,VWS V14.01,2013-11-18 02:36:00,
2013-11-17 21:37:00,65.0,65.0,29.61,SSE,147,3.0,3.0,100,0.00,,OVC010,0.03,VWS V14.01,2013-11-18 02:37:00,
2013-11-17 21:38:00,65.0,65.0,29.61,SSE,148,3.0,3.0,100,0.00,,OVC010,0.03,VWS V14.01,2013-11-18 02:38:00,
2013-11-17 21:39:00,65.0,65.0,29.61,SSE,148,3.0,4.0,100,0.00,,OVC010,0.03,VWS V14.01,2013-11-18 02:39:00,
2013-11-17 21:40:00,65.0,65.0,29.61,SSE,148,3.0,3.0,100,0.00,,BKN065,0.03,VWS V14.01,2013-11-18 02:40:00,
2013-11-17 21:41:00,65.0,65.0,29.61,SSE,148,3.0,3.0,100,0.00,,OVC010,0.03,VWS V14.01,2013-11-18 02:41:00,
2013-11-17 21:42:00,65.2,65.2,29.77,SSE,150,3.0,3.0,100,0.00,,OVC010,0.03,VWS V14.01,2013-11-18 02:42:00,
2013-11-17 21:43:00,65.2,65.2,29.77,SSE,150,4.0,5.0,100,0.00,,OVC010,0.03,VWS V14.01,2013-11-18 02:43:00,
2013-11-17 21:44:00,65.2,65.2,29.77,SSE,150,4.0,4.0,100,0.00,,OVC010,0.03,VWS V14.01,2013-11-18 02:44:00,
2013-11-17 21:45:00,65.2,65.2,29.77,SSE,154,4.0,4.0,100,0.00,,BKN065,0.03,VWS V14.01,2013-11-18 02:45:00,
2013-11-17 21:46:00,65.2,65.2,29.77,SSE,155,2.0,4.0,100,0.00,,OVC010,0.03,VWS V14.01,2013-11-18 02:46:00,
2013-11-17 21:47:00,65.2,65.2,29.76,SSE,155,2.0,2.0,100,0.00,,OVC010,0.03,VWS V14.01,2013-11-18 02:47:00,
2013-11-17 21:48:00,65.2,65.2,29.76,SSE,167,2.0,3.0,100,0.00,,OVC010,0.03,VWS V14.01,2013-11-18 02:48:00,
2013-11-17 21:49:00,65.2,65.2,29.76,SSE,168,2.0,3.0,100,0.00,,OVC010,0.03,VWS V14.01,2013-11-18 02:49:00,
2013-11-17 21:50:00,65.2,65.2,29.65,SSE,167,4.0,4.0,100,0.00,,BKN065,0.03,VWS V14.01,2013-11-18 02:50:00,
2013-11-17 21:51:00,65.2,65.2,29.65,SSE,167,3.0,4.0,100,0.00,,OVC010,0.03,VWS V14.01,2013-11-18 02:51:00,
2013-11-17 21:52:00,65.2,65.2,29.65,SSE,165,3.0,4.0,100,0.00,,OVC010,0.03,VWS V14.01,2013-11-18 02:52:00,
2013-11-17 21:53:00,65.2,65.2,29.75,SSE,161,5.0,5.0,100,0.00,,OVC010,0.03,VWS V14.01,2013-11-18 02:53:00,
2013-11-17 21:54:00,65.2,65.2,29.75,SSE,160,4.0,5.0,100,0.00,,OVC010,0.03,VWS V14.01,2013-11-18 02:54:00,
2013-11-17 21:55:00,65.2,65.2,29.75,South,169,6.0,6.0,100,0.00,,BKN065,0.03,VWS V14.01,2013-11-18 02:55:00,
2013-11-17 21:56:00,65.2,65.2,29.75,South,171,4.0,6.0,100,0.00,,OVC010,0.03,VWS V14.01,2013-11-18 02:56:00,
2013-11-17 21:57:00,65.2,65.2,29.75,South,169,2.0,4.0,100,0.00,,OVC010,0.03,VWS V14.01,2013-11-18 02:57:00,
2013-11-17 21:58:00,65.2,65.2,29.75,South,170,3.0,3.0,100,0.00,,OVC010,0.03,VWS V14.01,2013-11-18 02:58:00,
2013-11-17 21:59:00,65.2,65.2,29.75,South,171,4.0,4.0,100,0.00,,OVC010,0.03,VWS V14.01,2013-11-18 02:59:00,
2013-11-17 22:00:00,65.2,65.2,29.55,South,171,4.0,4.0,100,0.00,,BKN065,0.03,VWS V14.01,2013-11-18 03:00:00,
2013-11-17 22:01:00,65.2,65.2,29.55,South,176,4.0,4.0,100,0.00,,OVC010,0.03,VWS V14.01,2013-11-18 03:01:00,
2013-11-17 22:02:00,65.2,65.2,29.55,South,173,4.0,5.0,100,0.00,,OVC010,0.03,VWS V14.01,2013-11-18 03:02:00,
2013-11-17 22:03:00,65.2,65.2,29.55,South,169,4.0,4.0,100,0.00,,OVC010,0.03,VWS V14.01,2013-11-18 03:03:00,
2013-11-17 22:04:00,65.2,65.2,29.55,SSE,156,5.0,5.0,100,0.00,,OVC010,0.03,VWS V14.01,2013-11-18 03:04:00,
2013-11-17 22:05:00,65.2,65.2,29.56,South,171,4.0,4.0,100,0.00,,BKN065,0.03,VWS V14.01,2013-11-18 03:05:00,
2013-11-17 22:06:00,65.2,65.2,29.56,South,175,4.0,4.0,100,0.00,,OVC010,0.03,VWS V14.01,2013-11-18 03:06:00,
2013-11-17 22:07:00,65.2,65.2,29.56,South,175,4.0,4.0,100,0.00,,OVC010,0.03,VWS V14.01,2013-11-18 03:07:00,
2013-11-17 22:08:00,65.2,65.2,29.56,South,178,5.0,5.0,100,0.00,,OVC010,0.03,VWS V14.01,2013-11-18 03:08:00,
2013-11-17 22:09:00,65.2,65.2,29.56,South,173,4.0,5.0,100,0.00,,OVC010,0.03,VWS V14.01,2013-11-18 03:09:00,
2013-11-17 22:10:00,65.2,65.2,29.64,South,175,4.0,4.0,100,0.00,,BKN065,0.03,VWS V14.01,2013-11-18 03:10:00,
2013-11-17 22:11:00,65.2,65.2,29.64,South,177,4.0,5.0,100,0.00,,OVC010,0.03,VWS V14.01,2013-11-18 03:11:00,
2013-11-17 22:12:00,65.2,65.2,29.64,South,186,5.0,5.0,100,0.00,,OVC010,0.03,VWS V14.01,2013-11-18 03:12:00,
2013-11-17 22:13:00,65.2,65.2,29.64,South,183,3.0,5.0,100,0.00,,OVC010,0.03,VWS V14.01,2013-11-18 03:13:00,
2013-11-17 22:14:00,65.2,65.2,29.64,South,181,4.0,5.0,100,0.00,,OVC010,0.03,VWS V14.01,2013-11-18 03:14:00,
2013-11-17 22:15:00,65.2,65.2,29.60,South,180,3.0,3.0,100,0.00,,BKN065,0.03,VWS V14.01,2013-11-18 03:15:00,
2013-11-17 22:16:00,65.0,65.0,29.60,South,179,4.0,4.0,100,0.00,,OVC010,0.03,VWS V14.01,2013-11-18 03:16:00,
2013-11-17 22:17:00,65.0,65.0,29.60,South,180,3.0,4.0,100,0.00,,OVC010,0.03,VWS V14.01,2013-11-18 03:17:00,
2013-11-17 22:18:00,65.0,65.0,29.60,South,180,4.0,4.0,100,0.00,,OVC010,0.03,VWS V14.01,2013-11-18 03:18:00,
2013-11-17 22:19:00,65.0,65.0,29.60,South,184,4.0,4.0,100,0.00,,OVC010,0.03,VWS V14.01,2013-11-18 03:19:00,
2013-11-17 22:20:00,65.0,65.0,29.60,South,183,4.0,4.0,100,0.00,,BKN065,0.03,VWS V14.01,2013-11-18 03:20:00,
2013-11-17 22:21:00,65.0,65.0,29.60,South,183,3.0,4.0,100,0.00,,OVC010,0.03,VWS V14.01,2013-11-18 03:21:00,
2013-11-17 22:22:00,65.0,65.0,29.60,South,182,4.0,4.0,100,0.00,,OVC010,0.03,VWS V14.01,2013-11-18 03:22:00,
2013-11-17 22:23:00,65.0,65.0,29.60,South,179,4.0,4.0,100,0.00,,OVC010,0.03,VWS V14.01,2013-11-18 03:23:00,
2013-11-17 22:24:00,64.8,64.8,29.60,South,178,3.0,4.0,100,0.00,,OVC010,0.03,VWS V14.01,2013-11-18 03:24:00,
2013-11-17 22:25:00,64.8,64.8,29.60,South,182,2.0,2.0,100,0.00,,BKN065,0.03,VWS V14.01,2013-11-18 03:25:00,
2013-11-17 22:26:00,64.8,64.8,29.60,South,182,4.0,4.0,100,0.00,,OVC010,0.03,VWS V14.01,2013-11-18 03:26:00,
2013-11-17 22:27:00,64.8,64.8,29.60,South,180,3.0,4.0,100,0.00,,OVC010,0.03,VWS V14.01,2013-11-18 03:27:00,
2013-11-17 22:28:00,64.8,64.8,29.60,South,190,4.0,4.0,100,0.00,,OVC010,0.03,VWS V14.01,2013-11-18 03:28:00,
2013-11-17 22:29:00,64.8,64.8,29.60,South,187,4.0,4.0,100,0.00,,OVC010,0.03,VWS V14.01,2013-11-18 03:29:00,
2013-11-17 22:30:00,64.8,64.8,29.60,SSW,202,4.0,4.0,100,0.00,,BKN065,0.03,VWS V14.01,2013-11-18 03:30:00,
2013-11-17 22:31:00,64.8,64.8,29.60,SSW,203,4.0,4.0,100,0.00,,OVC010,0.03,VWS V14.01,2013-11-18 03:31:00,
2013-11-17 22:32:00,64.8,64.8,29.60,SSW,205,4.0,4.0,100,0.00,,OVC010,0.03,VWS V14.01,2013-11-18 03:32:00,
2013-11-17 22:33:00,64.8,64.8,29.60,SSW,206,2.0,4.0,100,0.00,,OVC010,0.03,VWS V14.01,2013-11-18 03:33:00,
2013-11-17 22:34:00,64.8,64.8,29.60,SSW,205,3.0,4.0,100,0.00,,OVC010,0.03,VWS V14.01,2013-11-18 03:34:00,
2013-11-17 22:35:00,64.8,64.8,29.56,SSW,204,3.0,3.0,100,0.00,,CLR,0.03,VWS V14.01,2013-11-18 03:35:00,
2013-11-17 22:36:00,64.8,64.8,29.56,SSW,209,4.0,4.0,100,0.00,,OVC010,0.03,VWS V14.01,2013-11-18 03:36:00,
2013-11-17 22:37:00,64.8,64.8,29.56,SSW,195,4.0,4.0,100,0.00,,OVC010,0.03,VWS V14.01,2013-11-18 03:37:00,
2013-11-17 22:38:00,64.8,64.8,29.56,SSW,192,3.0,4.0,100,0.00,,OVC010,0.03,VWS V14.01,2013-11-18 03:38:00,
2013-11-17 22:39:00,64.8,64.8,29.56,South,191,3.0,4.0,100,0.00,,OVC010,0.03,VWS V14.01,2013-11-18 03:39:00,
2013-11-17 22:40:00,64.8,64.8,29.56,SSW,192,3.0,3.0,100,0.00,,CLR,0.03,VWS V14.01,2013-11-18 03:40:00,
2013-11-17 22:41:00,64.8,64.8,29.56,SSW,193,3.0,3.0,100,0.00,,OVC010,0.03,VWS V14.01,2013-11-18 03:41:00,
2013-11-17 22:42:00,64.8,64.8,29.56,SSW,198,3.0,3.0,100,0.00,,OVC010,0.03,VWS V14.01,2013-11-18 03:42:00,
2013-11-17 22:43:00,64.8,64.8,29.58,SSW,202,2.0,4.0,100,0.00,,OVC010,0.03,VWS V14.01,2013-11-18 03:43:00,
2013-11-17 22:44:00,64.8,64.8,29.58,South,190,3.0,5.0,100,0.00,,OVC010,0.03,VWS V14.01,2013-11-18 03:44:00,
2013-11-17 22:45:00,64.8,64.8,29.58,South,181,4.0,4.0,100,0.00,,CLR,0.03,VWS V14.01,2013-11-18 03:45:00,
2013-11-17 22:46:00,64.8,64.8,29.58,South,190,3.0,5.0,100,0.00,,OVC010,0.03,VWS V14.01,2013-11-18 03:46:00,
2013-11-17 22:47:00,64.8,64.8,29.58,South,183,5.0,5.0,100,0.00,,OVC010,0.03,VWS V14.01,2013-11-18 03:47:00,
2013-11-17 22:48:00,64.8,64.8,29.58,South,174,4.0,5.0,100,0.00,,OVC010,0.03,VWS V14.01,2013-11-18 03:48:00,
2013-11-17 22:49:00,64.8,64.8,29.58,South,181,5.0,6.0,100,0.00,,OVC010,0.03,VWS V14.01,2013-11-18 03:49:00,
2013-11-17 22:50:00,64.8,64.8,29.58,South,190,4.0,5.0,100,0.00,,CLR,0.03,VWS V14.01,2013-11-18 03:50:00,
2013-11-17 22:51:00,64.8,64.8,29.58,South,187,4.0,5.0,100,0.00,,OVC010,0.03,VWS V14.01,2013-11-18 03:51:00,
2013-11-17 22:52:00,64.8,64.8,29.58,South,183,5.0,5.0,100,0.00,,OVC010,0.03,VWS V14.01,2013-11-18 03:52:00,
2013-11-17 22:53:00,64.8,64.8,29.58,South,179,5.0,6.0,100,0.00,,OVC010,0.03,VWS V14.01,2013-11-18 03:53:00,
2013-11-17 22:54:00,64.7,64.7,29.58,South,170,5.0,6.0,100,0.00,,OVC010,0.03,VWS V14.01,2013-11-18 03:54:00,
2013-11-17 22:55:00,64.7,64.7,29.58,South,173,4.0,5.0,100,0.00,,CLR,0.03,VWS V14.01,2013-11-18 03:55:00,
2013-11-17 22:56:00,64.7,64.7,29.58,South,175,4.0,5.0,100,0.00,,OVC010,0.03,VWS V14.01,2013-11-18 03:56:00,
2013-11-17 22:57:00,64.7,64.7,29.58,South,172,5.0,5.0,100,0.00,,OVC010,0.03,VWS V14.01,2013-11-18 03:57:00,
2013-11-17 22:58:00,64.7,64.7,29.58,South,173,4.0,5.0,100,0.00,,OVC010,0.03,VWS V14.01,2013-11-18 03:58:00,
2013-11-17 22:59:00,64.7,64.7,29.58,South,169,5.0,5.0,100,0.00,,OVC010,0.03,VWS V14.01,2013-11-18 03:59:00,
2013-11-17 23:00:00,64.7,64.7,29.58,SSE,164,5.0,5.0,100,0.00,,CLR,0.03,VWS V14.01,2013-11-18 04:00:00,
2013-11-17 23:01:00,64.7,64.7,29.58,South,169,5.0,5.0,100,0.00,,OVC010,0.03,VWS V14.01,2013-11-18 04:01:00,
2013-11-17 23:02:00,64.5,64.5,29.58,South,176,5.0,5.0,100,0.00,,OVC010,0.03,VWS V14.01,2013-11-18 04:02:00,
2013-11-17 23:03:00,64.5,64.5,29.58,South,184,5.0,5.0,100,0.00,,OVC010,0.03,VWS V14.01,2013-11-18 04:03:00,
2013-11-17 23:04:00,64.5,64.5,29.61,South,173,5.0,6.0,100,0.00,,OVC010,0.03,VWS V14.01,2013-11-18 04:04:00,
2013-11-17 23:05:00,64.5,64.5,29.61,South,170,5.0,5.0,100,0.00,,CLR,0.03,VWS V14.01,2013-11-18 04:05:00,
2013-11-17 23:06:00,64.5,64.5,29.61,SSE,159,5.0,5.0,100,0.00,,OVC010,0.03,VWS V14.01,2013-11-18 04:06:00,
2013-11-17 23:07:00,64.5,64.5,29.61,South,175,4.0,6.0,100,0.00,,OVC010,0.03,VWS V14.01,2013-11-18 04:07:00,
2013-11-17 23:08:00,64.5,64.5,29.67,South,171,5.0,6.0,100,0.00,,OVC010,0.03,VWS V14.01,2013-11-18 04:08:00,
2013-11-17 23:09:00,64.5,64.5,29.67,South,174,4.0,6.0,100,0.00,,OVC010,0.03,VWS V14.01,2013-11-18 04:09:00,
2013-11-17 23:10:00,64.5,64.5,29.67,South,176,5.0,6.0,100,0.00,,CLR,0.03,VWS V14.01,2013-11-18 04:10:00,
2013-11-17 23:11:00,64.5,64.5,29.67,SSE,165,5.0,6.0,100,0.00,,OVC010,0.03,VWS V14.01,2013-11-18 04:11:00,
2013-11-17 23:12:00,64.7,64.7,29.67,South,185,6.0,6.0,100,0.00,,OVC010,0.03,VWS V14.01,2013-11-18 04:12:00,
2013-11-17 23:13:00,64.7,64.7,29.67,South,172,6.0,6.0,100,0.00,,OVC010,0.03,VWS V14.01,2013-11-18 04:13:00,
2013-11-17 23:14:00,64.7,64.7,29.67,South,174,6.0,6.0,100,0.00,,OVC010,0.03,VWS V14.01,2013-11-18 04:14:00,
2013-11-17 23:15:00,64.7,64.7,29.66,South,173,6.0,7.0,100,0.00,,CLR,0.03,VWS V14.01,2013-11-18 04:15:00,
2013-11-17 23:16:00,64.7,64.7,29.66,South,174,5.0,7.0,100,0.00,,OVC010,0.03,VWS V14.01,2013-11-18 04:16:00,
2013-11-17 23:17:00,64.7,64.7,29.73,South,177,5.0,6.0,100,0.00,,OVC010,0.03,VWS V14.01,2013-11-18 04:17:00,
2013-11-17 23:18:00,64.7,64.7,29.73,South,183,6.0,6.0,100,0.00,,OVC010,0.03,VWS V14.01,2013-11-18 04:18:00,
2013-11-17 23:19:00,64.7,64.7,29.73,South,180,6.0,6.0,100,0.00,,OVC010,0.03,VWS V14.01,2013-11-18 04:19:00,
2013-11-17 23:20:00,64.7,64.7,29.73,South,190,6.0,6.0,100,0.00,,CLR,0.03,VWS V14.01,2013-11-18 04:20:00,
2013-11-17 23:21:00,64.7,64.7,29.73,South,188,5.0,6.0,100,0.00,,OVC010,0.03,VWS V14.01,2013-11-18 04:21:00,
2013-11-17 23:22:00,64.7,64.7,29.73,South,183,6.0,6.0,100,0.00,,OVC010,0.03,VWS V14.01,2013-11-18 04:22:00,
2013-11-17 23:23:00,64.7,64.7,29.69,South,182,6.0,6.0,100,0.00,,OVC010,0.03,VWS V14.01,2013-11-18 04:23:00,
2013-11-17 23:24:00,64.7,64.7,29.69,South,177,6.0,6.0,100,0.00,,OVC010,0.03,VWS V14.01,2013-11-18 04:24:00,
2013-11-17 23:25:00,64.7,64.7,29.69,South,178,5.0,5.0,100,0.00,,CLR,0.03,VWS V14.01,2013-11-18 04:25:00,
2013-11-17 23:26:00,64.7,64.7,29.69,South,184,5.0,5.0,100,0.00,,OVC010,0.03,VWS V14.01,2013-11-18 04:26:00,
2013-11-17 23:27:00,64.7,64.7,29.69,South,188,6.0,6.0,100,0.00,,OVC010,0.03,VWS V14.01,2013-11-18 04:27:00,
2013-11-17 23:28:00,64.7,64.7,29.69,South,186,5.0,6.0,100,0.00,,OVC010,0.03,VWS V14.01,2013-11-18 04:28:00,
2013-11-17 23:29:00,64.7,64.7,29.69,South,186,6.0,6.0,100,0.00,,OVC010,0.03,VWS V14.01,2013-11-18 04:29:00,
2013-11-17 23:30:00,64.7,64.7,29.69,South,184,5.0,5.0,100,0.00,,CLR,0.03,VWS V14.01,2013-11-18 04:30:00,
2013-11-17 23:31:00,64.7,64.7,29.69,South,182,6.0,6.0,100,0.00,,OVC010,0.03,VWS V14.01,2013-11-18 04:31:00,
2013-11-17 23:32:00,64.7,64.7,29.69,South,178,5.0,6.0,100,0.00,,OVC010,0.03,VWS V14.01,2013-11-18 04:32:00,
2013-11-17 23:33:00,64.7,64.7,29.69,South,180,5.0,7.0,100,0.00,,OVC010,0.03,VWS V14.01,2013-11-18 04:33:00,
2013-11-17 23:34:00,64.7,64.7,29.69,South,186,5.0,6.0,100,0.00,,OVC010,0.03,VWS V14.01,2013-11-18 04:34:00,
2013-11-17 23:35:00,64.7,64.7,29.69,SSW,196,4.0,5.0,100,0.00,,CLR,0.03,VWS V14.01,2013-11-18 04:35:00,
2013-11-17 23:36:00,64.7,64.7,29.61,SSW,202,4.0,5.0,100,0.00,,OVC010,0.03,VWS V14.01,2013-11-18 04:36:00,
2013-11-17 23:37:00,64.7,64.7,29.61,SSW,196,3.0,4.0,100,0.00,,OVC010,0.03,VWS V14.01,2013-11-18 04:37:00,
2013-11-17 23:38:00,64.7,64.7,29.61,South,182,4.0,5.0,100,0.00,,OVC010,0.03,VWS V14.01,2013-11-18 04:38:00,
2013-11-17 23:39:00,64.7,64.7,29.61,South,187,5.0,5.0,100,0.00,,OVC010,0.03,VWS V14.01,2013-11-18 04:39:00,
2013-11-17 23:40:00,64.7,64.7,29.61,SSW,198,5.0,5.0,100,0.00,,FEW032,0.03,VWS V14.01,2013-11-18 04:40:00,
2013-11-17 23:41:00,64.7,64.7,29.61,South,190,5.0,5.0,100,0.00,,OVC010,0.03,VWS V14.01,2013-11-18 04:41:00,
2013-11-17 23:42:00,64.7,64.7,29.61,SSW,199,4.0,5.0,100,0.00,,OVC010,0.03,VWS V14.01,2013-11-18 04:42:00,
2013-11-17 23:43:00,64.7,64.7,29.61,SSW,200,4.0,4.0,100,0.00,,OVC010,0.03,VWS V14.01,2013-11-18 04:43:00,
2013-11-17 23:44:00,64.7,64.7,29.61,SSW,196,2.0,5.0,100,0.00,,OVC010,0.03,VWS V14.01,2013-11-18 04:44:00,
2013-11-17 23:45:00,64.7,64.7,29.61,SSW,202,3.0,3.0,100,0.00,,FEW032,0.03,VWS V14.01,2013-11-18 04:45:00,
2013-11-17 23:46:00,64.7,64.7,29.61,SSW,192,3.0,3.0,100,0.00,,OVC010,0.03,VWS V14.01,2013-11-18 04:46:00,
2013-11-17 23:47:00,64.7,64.7,29.61,SSW,196,3.0,3.0,100,0.00,,OVC010,0.03,VWS V14.01,2013-11-18 04:47:00,
2013-11-17 23:48:00,64.7,64.7,29.61,SSW,199,3.0,4.0,100,0.00,,OVC010,0.03,VWS V14.01,2013-11-18 04:48:00,
2013-11-17 23:49:00,64.7,64.7,29.61,SSW,196,3.0,4.0,100,0.00,,OVC010,0.03,VWS V14.01,2013-11-18 04:49:00,
2013-11-17 23:50:00,64.7,64.7,29.61,South,188,5.0,5.0,100,0.00,,FEW032,0.03,VWS V14.01,2013-11-18 04:50:00,
2013-11-17 23:51:00,64.7,64.7,29.61,SSW,194,3.0,5.0,100,0.00,,OVC010,0.03,VWS V14.01,2013-11-18 04:51:00,
2013-11-17 23:52:00,64.7,64.7,29.61,SSW,210,4.0,5.0,100,0.00,,OVC010,0.03,VWS V14.01,2013-11-18 04:52:00,
2013-11-17 23:53:00,64.7,64.7,29.61,SSW,209,4.0,4.0,100,0.00,,OVC010,0.03,VWS V14.01,2013-11-18 04:53:00,
2013-11-17 23:54:00,64.7,64.7,29.72,SSW,205,3.0,4.0,100,0.00,,OVC010,0.03,VWS V14.01,2013-11-18 04:54:00,
2013-11-17 23:55:00,64.7,64.7,29.72,South,186,3.0,4.0,100,0.00,,FEW032,0.03,VWS V14.01,2013-11-18 04:55:00,
2013-11-17 23:56:00,64.7,64.7,29.72,South,189,3.0,4.0,100,0.00,,OVC010,0.03,VWS V14.01,2013-11-18 04:56:00,
2013-11-17 23:57:00,64.7,64.7,29.72,South,176,2.0,4.0,100,0.00,,OVC010,0.03,VWS V14.01,2013-11-18 04:57:00,
2013-11-17 23:58:00,64.7,64.7,29.72,SSW,198,4.0,4.0,100,0.00,,OVC010,0.03,VWS V14.01,2013-11-18 04:58:00,
2013-11-17 23:59:00,64.8,64.8,29.72,SSW,198,4.0,4.0,100,0.00,,OVC010,0.03,VWS V14.01,2013-11-18 04:59:00,